Provisional Data: Lititz Run near Lititz, PA


Please select a monitoring station.
Please select start date.
Please select start date.

Toggle Unit: C/F Toggle Unit: C/F
Sample Time Temperature (C) Temperature (F) Specific Conductivity (mS/cm) pH   Turbidity (NTU+) DO (mg/L)
3/23/2021 12:00:00 AM 11.33 52.394 0.908 7.91 6.34 8.96
3/23/2021 12:15:00 AM 11.22 52.196 0.91 7.9 6.03 8.96
3/23/2021 12:30:00 AM 11.12 52.016 0.911 7.9 5.82 8.97
3/23/2021 12:45:00 AM 11.03 51.854 0.913 7.9 5.75 8.98
3/23/2021 1:00:00 AM 10.94 51.692 0.913 7.89 6.27 9
3/23/2021 1:15:00 AM 10.86 51.548 0.912 7.89 5.79 9.01
3/23/2021 1:30:00 AM 10.77 51.386 0.91 7.89 6.03 9.03
3/23/2021 1:45:00 AM 10.69 51.242 0.907 7.89 6.18 9.04
3/23/2021 2:00:00 AM 10.6 51.08 0.903 7.89 5.66 9.06
3/23/2021 2:15:00 AM 10.52 50.936 0.899 7.89 6.02 9.08
3/23/2021 2:30:00 AM 10.44 50.792 0.894 7.89 6.18 9.11
3/23/2021 2:45:00 AM 10.36 50.648 0.89 7.89 6.55 9.14
3/23/2021 3:00:00 AM 10.28 50.504 0.886 7.89 6.39 9.16
3/23/2021 3:15:00 AM 10.21 50.378 0.882 7.9 6.49 9.2
3/23/2021 3:30:00 AM 10.14 50.252 0.877 7.9 6.8 9.22
3/23/2021 3:45:00 AM 10.07 50.126 0.873 7.9 6.94 9.24
3/23/2021 4:00:00 AM 10 50 0.868 7.9 6.59 9.26
3/23/2021 4:15:00 AM 9.93 49.874 0.863 7.9 7.02 9.29
3/23/2021 4:30:00 AM 9.87 49.766 0.858 7.9 7.17 9.32
3/23/2021 4:45:00 AM 9.8 49.64 0.853 7.91 6.97 9.35
3/23/2021 5:00:00 AM 9.75 49.55 0.849 7.91 6.26 9.37
3/23/2021 5:15:00 AM 9.69 49.442 0.845 7.91 6.37 9.4
3/23/2021 5:30:00 AM 9.64 49.352 0.84 7.91 6.19 9.43
3/23/2021 5:45:00 AM 9.59 49.262 0.837 7.91 6.81 9.46
3/23/2021 6:00:00 AM 9.54 49.172 0.833 7.91 7.46 9.48
3/23/2021 6:15:00 AM 9.5 49.1 0.83 7.92 7.21 9.5
3/23/2021 6:30:00 AM 9.46 49.028 0.827 7.92 6.59 9.52
3/23/2021 6:45:00 AM 9.42 48.956 0.826 7.92 6.59 9.53
3/23/2021 7:00:00 AM 9.38 48.884 0.826 7.92 6.2 9.55
3/23/2021 7:15:00 AM 9.34 48.812 0.827 7.92 5.81 9.57
3/23/2021 7:30:00 AM 9.32 48.776 0.828 7.92 5.83 9.64
3/23/2021 7:45:00 AM 9.3 48.74 0.827 7.93 5.77 9.73
3/23/2021 8:00:00 AM 9.29 48.722 0.827 7.94 5.35 9.84
3/23/2021 8:15:00 AM 9.28 48.704 0.828 7.94 5.03 9.96
3/23/2021 8:30:00 AM 9.31 48.758 0.83 7.95 4.95 10.13
3/23/2021 8:45:00 AM 9.35 48.83 0.832 7.97 4.63 10.33
3/23/2021 9:00:00 AM 9.41 48.938 0.834 7.98 4.35 10.54
3/23/2021 9:15:00 AM 9.49 49.082 0.835 8 4.31 10.81
3/23/2021 9:30:00 AM 9.58 49.244 0.835 8.02 4.33 11.09
3/23/2021 9:45:00 AM 9.69 49.442 0.836 8.04 4.47 11.35
3/23/2021 10:00:00 AM 9.82 49.676 0.837 8.07 4.55 11.64
3/23/2021 10:15:00 AM 9.99 49.982 0.839 8.1 4.18 11.97
3/23/2021 10:30:00 AM 10.18 50.324 0.842 8.13 4.29 12.33
3/23/2021 10:45:00 AM 10.39 50.702 0.846 8.16 4.7 12.67
3/23/2021 11:00:00 AM 10.62 51.116 0.855 8.19 4.45 12.96
3/23/2021 11:15:00 AM 10.85 51.53 0.865 8.22 4.08 13.27
3/23/2021 11:30:00 AM 11.12 52.016 0.875 8.26 4.48 13.59
3/23/2021 11:45:00 AM 11.41 52.538 0.881 8.3 4.31 13.94
3/23/2021 12:00:00 PM 11.71 53.078 0.884 8.34 4.35 14.3
3/23/2021 12:15:00 PM 12.01 53.618 0.886 8.39 4.06 14.6
3/23/2021 12:30:00 PM 12.31 54.158 0.89 8.43 3.91 14.9
3/23/2021 12:45:00 PM 12.63 54.734 0.895 8.47 4.09 15.16
3/23/2021 1:00:00 PM 12.94 55.292 0.901 8.5 3.75 15.42
3/23/2021 1:15:00 PM 13.24 55.832 0.905 8.54 3.86 15.6
3/23/2021 1:30:00 PM 13.46 56.228 0.907 8.57 3.99 15.68
3/23/2021 1:45:00 PM 13.69 56.642 0.907 8.59 4.21 15.81
3/23/2021 2:00:00 PM 13.94 57.092 0.906 8.63 3.87 16.06
3/23/2021 2:15:00 PM 14.18 57.524 0.904 8.65 4.06 16.13
3/23/2021 2:30:00 PM 14.37 57.866 0.901 8.67 4.25 16.07
3/23/2021 2:45:00 PM 14.51 58.118 0.896 8.68 4.15 15.96
3/23/2021 3:00:00 PM 14.62 58.316 0.889 8.69 4.02 15.89
3/23/2021 3:15:00 PM 14.71 58.478 0.885 8.7 4.36 15.78
3/23/2021 3:30:00 PM 14.8 58.64 0.884 8.71 18.96 15.75
3/23/2021 3:45:00 PM 14.9 58.82 0.886 8.72 4.86 15.77
3/23/2021 4:00:00 PM 15 59 0.889 8.72 4.85 15.71
3/23/2021 4:15:00 PM 15.03 59.054 0.891 8.7 5.41 15.31
3/23/2021 4:30:00 PM 15.04 59.072 0.891 8.69 4.29 14.96
3/23/2021 4:45:00 PM 15.08 59.144 0.887 8.68 4.54 14.82
3/23/2021 5:00:00 PM 15.07 59.126 0.883 8.67 4.57 14.66
3/23/2021 5:15:00 PM 15.06 59.108 0.879 8.66 4.89 14.42
3/23/2021 5:30:00 PM 15.01 59.018 0.878 8.63 4.81 14.04
3/23/2021 5:45:00 PM 14.96 58.928 0.878 8.59 4.71 13.59
3/23/2021 6:00:00 PM 14.92 58.856 0.88 8.56 4.73 13.27
3/23/2021 6:15:00 PM 14.85 58.73 0.881 8.53 4.84 12.94
3/23/2021 6:30:00 PM 14.79 58.622 0.878 8.5 4.61 12.66
3/23/2021 6:45:00 PM 14.73 58.514 0.873 8.47 4.81 12.33
3/23/2021 7:00:00 PM 14.66 58.388 0.868 8.42 5.16 11.97
3/23/2021 7:15:00 PM 14.56 58.208 0.864 8.39 5.34 11.65
3/23/2021 7:30:00 PM 14.45 58.01 0.863 8.34 5.5 11.3
3/23/2021 7:45:00 PM 14.34 57.812 0.862 8.3 5.82 10.99
3/23/2021 8:00:00 PM 14.22 57.596 0.861 8.26 6.11 10.71
3/23/2021 8:15:00 PM 14.09 57.362 0.861 8.22 6.16 10.44
3/23/2021 8:30:00 PM 13.95 57.11 0.862 8.17 5.85 10.18
3/23/2021 8:45:00 PM 13.82 56.876 0.863 8.14 6.21 9.92
3/23/2021 9:00:00 PM 13.69 56.642 0.864 8.1 5.55 9.7
3/23/2021 9:15:00 PM 13.56 56.408 0.866 8.07 5.62 9.5
3/23/2021 9:30:00 PM 13.44 56.192 0.867 8.04 5.53 9.32
3/23/2021 9:45:00 PM 13.32 55.976 0.869 8.02 5.5 9.16
3/23/2021 10:00:00 PM 13.19 55.742 0.871 7.99 5.56 9.02
3/23/2021 10:15:00 PM 13.07 55.526 0.875 7.97 5.59 8.91
3/23/2021 10:30:00 PM 12.95 55.31 0.878 7.96 5.81 8.83
3/23/2021 10:45:00 PM 12.84 55.112 0.881 7.94 5.21 8.76
3/23/2021 11:00:00 PM 12.74 54.932 0.883 7.93 5.51 8.7
3/23/2021 11:15:00 PM 12.63 54.734 0.885 7.92 5.72 8.66
3/23/2021 11:30:00 PM 12.53 54.554 0.888 7.91 5.68 8.63
3/23/2021 11:45:00 PM 12.45 54.41 0.891 7.91 5.38 8.62
3/24/2021 12:00:00 AM 12.37 54.266 0.894 7.9 5.4 8.61
3/24/2021 12:15:00 AM 12.29 54.122 0.896 7.9 5.44 8.61
3/24/2021 12:30:00 AM 12.23 54.014 0.899 7.89 5.43 8.61
3/24/2021 12:45:00 AM 12.18 53.924 0.901 7.89 5.73 8.61
3/24/2021 1:00:00 AM 12.15 53.87 0.904 7.89 5.99 8.61
3/24/2021 1:15:00 AM 12.11 53.798 0.904 7.88 5.61 8.62
3/24/2021 1:30:00 AM 12.07 53.726 0.903 7.88 5.56 8.61
3/24/2021 1:45:00 AM 12.04 53.672 0.901 7.88 5.78 8.63
3/24/2021 2:00:00 AM 12.01 53.618 0.899 7.88 5.97 8.64
3/24/2021 2:15:00 AM 11.98 53.564 0.897 7.88 6.5 8.65
3/24/2021 2:30:00 AM 11.96 53.528 0.894 7.89 5.98 8.65
3/24/2021 2:45:00 AM 11.94 53.492 0.89 7.89 5.64 8.66
3/24/2021 3:00:00 AM 11.92 53.456 0.886 7.89 5.58 8.67
3/24/2021 3:15:00 AM 11.9 53.42 0.881 7.89 5.87 8.68
3/24/2021 3:30:00 AM 11.89 53.402 0.878 7.89 5.79 8.69
3/24/2021 3:45:00 AM 11.88 53.384 0.874 7.89 6.48 8.7
3/24/2021 4:00:00 AM 11.87 53.366 0.87 7.89 6.25 8.7
3/24/2021 4:15:00 AM 11.85 53.33 0.865 7.9 6.87 8.71
3/24/2021 4:30:00 AM 11.84 53.312 0.86 7.9 6.48 8.72
3/24/2021 4:45:00 AM 11.82 53.276 0.855 7.9 6.04 8.73
3/24/2021 5:00:00 AM 11.81 53.258 0.85 7.9 5.78 8.75
3/24/2021 5:15:00 AM 11.8 53.24 0.845 7.9 5.56 8.75
3/24/2021 5:30:00 AM 11.78 53.204 0.84 7.9 5.63 8.77
3/24/2021 5:45:00 AM 11.77 53.186 0.836 7.91 6.23 8.78
3/24/2021 6:00:00 AM 11.76 53.168 0.834 7.91 6.23 8.79
3/24/2021 6:15:00 AM 11.76 53.168 0.831 7.91 6.37 8.79
3/24/2021 6:30:00 AM 11.75 53.15 0.828 7.91 6.09 8.8
3/24/2021 6:45:00 AM 11.75 53.15 0.826 7.91 5.87 8.8
3/24/2021 7:00:00 AM 11.75 53.15 0.825 7.91 5.58 8.81
3/24/2021 7:15:00 AM 11.75 53.15 0.825 7.91 5.36 8.81
3/24/2021 7:30:00 AM 11.76 53.168 0.826 7.91 5.08 8.82
3/24/2021 7:45:00 AM 11.76 53.168 0.826 7.91 5.21 8.83
3/24/2021 8:00:00 AM 11.76 53.168 0.825 7.91 5.2 8.86
3/24/2021 8:15:00 AM 11.76 53.168 0.826 7.92 5.15 8.9
3/24/2021 8:30:00 AM 11.77 53.186 0.827 7.92 5.59 8.95
3/24/2021 8:45:00 AM 11.78 53.204 0.828 7.92 4.95 9.01
3/24/2021 9:00:00 AM 11.79 53.222 0.827 7.93 5.1 9.14
3/24/2021 9:15:00 AM 11.79 53.222 0.826 7.93 5.05 9.16
3/24/2021 9:30:00 AM 11.8 53.24 0.824 7.94 4.77 9.2
3/24/2021 9:45:00 AM 11.81 53.258 0.823 7.94 5 9.27
3/24/2021 10:00:00 AM 11.82 53.276 0.824 7.94 4.97 9.35
3/24/2021 10:15:00 AM 11.84 53.312 0.826 7.95 4.94 9.39
3/24/2021 10:30:00 AM 11.86 53.348 0.828 7.95 4.81 9.43
3/24/2021 10:45:00 AM 11.88 53.384 0.832 7.96 4.84 9.55
3/24/2021 11:00:00 AM 11.91 53.438 0.838 7.96 5.03 9.6
3/24/2021 11:15:00 AM 11.94 53.492 0.845 7.96 5.41 9.62
3/24/2021 11:30:00 AM 11.98 53.564 0.853 7.96 5.05 9.68
3/24/2021 11:45:00 AM 12.03 53.654 0.86 7.97 5.57 9.76
3/24/2021 12:00:00 PM 12.08 53.744 0.862 7.98 4.97 9.94
3/24/2021 12:15:00 PM 12.11 53.798 0.858 7.97 6.13 9.93
3/24/2021 12:30:00 PM 12.12 53.816 0.849 7.97 6.87 9.9
3/24/2021 12:45:00 PM 12.14 53.852 0.846 7.96 6.9 9.89
3/24/2021 1:00:00 PM 12.15 53.87 0.842 7.96 8.17 9.93
3/24/2021 1:15:00 PM 12.17 53.906 0.834 7.96 8.25 9.95
3/24/2021 1:30:00 PM 12.19 53.942 0.829 7.95 9.94 9.98
3/24/2021 1:45:00 PM 12.22 53.996 0.831 7.94 12.92 9.97
3/24/2021 2:00:00 PM 12.26 54.068 0.832 7.93 19.13 9.94
3/24/2021 2:15:00 PM 12.27 54.086 0.817 7.91 67.35 9.9
3/24/2021 2:30:00 PM 12.27 54.086 0.798 7.86 17.38 9.84
3/24/2021 2:45:00 PM 12.27 54.086 0.773 7.86 84.04 9.77
3/24/2021 3:00:00 PM 12.27 54.086 0.732 7.85 29.27 9.71
3/24/2021 3:15:00 PM 12.27 54.086 0.693 7.82 30.79 9.66
3/24/2021 3:30:00 PM 12.3 54.14 0.666 7.8 35.88 9.61
3/24/2021 3:45:00 PM 12.35 54.23 0.629 7.79 28.46 9.59
3/24/2021 4:00:00 PM 12.4 54.32 0.592 7.78 29.82 9.57
3/24/2021 4:15:00 PM 12.42 54.356 0.56 7.77 28.72 9.56
3/24/2021 4:30:00 PM 12.43 54.374 0.538 7.76 32.48 9.54
3/24/2021 4:45:00 PM 12.45 54.41 0.525 7.76 28.64 9.52
3/24/2021 5:00:00 PM 12.48 54.464 0.521 7.75 24.85 9.53
3/24/2021 5:15:00 PM 12.48 54.464 0.519 7.75 24.14 9.53
3/24/2021 5:30:00 PM 12.47 54.446 0.521 7.75 21.4 9.55
3/24/2021 5:45:00 PM 12.46 54.428 0.529 7.75 20.37 9.55
3/24/2021 6:00:00 PM 12.47 54.446 0.539 7.75 20.51 9.55
3/24/2021 6:15:00 PM 12.48 54.464 0.547 7.75 18.51 9.51
3/24/2021 6:30:00 PM 12.49 54.482 0.554 7.74 16.99 9.47
3/24/2021 6:45:00 PM 12.5 54.5 0.564 7.74 16.77 9.41
3/24/2021 7:00:00 PM 12.52 54.536 0.575 7.74 15.87 9.36
3/24/2021 7:15:00 PM 12.53 54.554 0.588 7.73 15.58 9.31
3/24/2021 7:30:00 PM 12.54 54.572 0.6 7.73 15.4 9.26
3/24/2021 7:45:00 PM 12.54 54.572 0.611 7.73 15.23 9.22
3/24/2021 8:00:00 PM 12.53 54.554 0.623 7.74 14.91 9.19
3/24/2021 8:15:00 PM 12.52 54.536 0.639 7.74 14.54 9.17
3/24/2021 8:30:00 PM 12.51 54.518 0.656 7.75 14.27 9.14
3/24/2021 8:45:00 PM 12.5 54.5 0.673 7.75 14.32 9.12
3/24/2021 9:00:00 PM 12.5 54.5 0.69 7.76 13.51 9.09
3/24/2021 9:15:00 PM 12.49 54.482 0.706 7.77 12.67 9.07
3/24/2021 9:30:00 PM 12.49 54.482 0.721 7.78 12.2 9.04
3/24/2021 9:45:00 PM 12.49 54.482 0.735 7.78 11.95 9.02
3/24/2021 10:00:00 PM 12.48 54.464 0.744 7.79 11.3 9.01
3/24/2021 10:15:00 PM 12.48 54.464 0.753 7.79 10.7 8.99
3/24/2021 10:30:00 PM 12.47 54.446 0.761 7.8 10.36 8.98
3/24/2021 10:45:00 PM 12.47 54.446 0.769 7.8 10.48 8.98
3/24/2021 11:00:00 PM 12.47 54.446 0.776 7.81 10.2 8.97
3/24/2021 11:15:00 PM 12.46 54.428 0.783 7.81 9.96 8.96
3/24/2021 11:30:00 PM 12.45 54.41 0.787 7.81 9.41 8.96
3/24/2021 11:45:00 PM 12.45 54.41 0.788 7.82 10.06 8.96
3/25/2021 12:00:00 AM 12.44 54.392 0.789 7.82 9.17 8.96
3/25/2021 12:15:00 AM 12.43 54.374 0.79 7.82 9.19 8.96
3/25/2021 12:30:00 AM 12.42 54.356 0.791 7.82 8.91 8.97
3/25/2021 12:45:00 AM 12.41 54.338 0.791 7.82 8.95 8.97
3/25/2021 1:00:00 AM 12.4 54.32 0.79 7.82 8.64 8.97
3/25/2021 1:15:00 AM 12.39 54.302 0.791 7.83 8.65 8.98
3/25/2021 1:30:00 AM 12.38 54.284 0.79 7.83 8.49 8.99
3/25/2021 1:45:00 AM 12.36 54.248 0.788 7.83 8.37 8.99
3/25/2021 2:00:00 AM 12.34 54.212 0.787 7.83 8.28 9
3/25/2021 2:15:00 AM 12.33 54.194 0.786 7.83 7.91 9.01
3/25/2021 2:30:00 AM 12.31 54.158 0.783 7.83 8.07 9.02
3/25/2021 2:45:00 AM 12.29 54.122 0.78 7.84 7.97 9.03
3/25/2021 3:00:00 AM 12.27 54.086 0.779 7.84 7.78 9.04
3/25/2021 3:15:00 AM 12.26 54.068 0.778 7.84 7.77 9.05
3/25/2021 3:30:00 AM 12.24 54.032 0.776 7.84 7.69 9.05
3/25/2021 3:45:00 AM 12.23 54.014 0.774 7.84 7.48 9.06
3/25/2021 4:00:00 AM 12.22 53.996 0.772 7.84 8.05 9.07
3/25/2021 4:15:00 AM 12.2 53.96 0.77 7.85 7.6 9.07
3/25/2021 4:30:00 AM 12.19 53.942 0.769 7.85 7.27 9.08
3/25/2021 4:45:00 AM 12.18 53.924 0.768 7.85 8.01 9.08
3/25/2021 5:00:00 AM 12.17 53.906 0.768 7.85 7.79 9.09
3/25/2021 5:15:00 AM 12.16 53.888 0.767 7.85 7.74 9.1
3/25/2021 5:30:00 AM 12.15 53.87 0.764 7.85 7.81 9.11
3/25/2021 5:45:00 AM 12.14 53.852 0.763 7.85 7.52 9.12
3/25/2021 6:00:00 AM 12.13 53.834 0.764 7.85 7.34 9.13
3/25/2021 6:15:00 AM 12.12 53.816 0.766 7.85 7.09 9.13
3/25/2021 6:30:00 AM 12.12 53.816 0.769 7.86 7.61 9.13
3/25/2021 6:45:00 AM 12.12 53.816 0.772 7.85 7.2 9.14
3/25/2021 7:00:00 AM 12.12 53.816 0.775 7.86 7.27 9.14
3/25/2021 7:15:00 AM 12.12 53.816 0.777 7.86 6.82 9.14
3/25/2021 7:30:00 AM 12.12 53.816 0.779 7.86 6.41 9.16
3/25/2021 7:45:00 AM 12.12 53.816 0.78 7.86 6.52 9.2
3/25/2021 8:00:00 AM 12.13 53.834 0.782 7.87 5.97 9.24
3/25/2021 8:15:00 AM 12.14 53.852 0.784 7.87 5.93 9.29
3/25/2021 8:30:00 AM 12.15 53.87 0.785 7.87 5.7 9.32
3/25/2021 8:45:00 AM 12.17 53.906 0.786 7.88 5.52 9.39
3/25/2021 9:00:00 AM 12.19 53.942 0.789 7.89 5.24 9.47
3/25/2021 9:15:00 AM 12.22 53.996 0.792 7.89 5.3 9.6
3/25/2021 9:30:00 AM 12.27 54.086 0.796 7.91 5.61 9.75
3/25/2021 9:45:00 AM 12.31 54.158 0.798 7.92 5.06 9.86
3/25/2021 10:00:00 AM 12.35 54.23 0.8 7.93 5.96 9.98
3/25/2021 10:15:00 AM 12.4 54.32 0.807 7.94 5.57 10.1
3/25/2021 10:30:00 AM 12.45 54.41 0.816 7.94 5.11 10.13
3/25/2021 10:45:00 AM 12.51 54.518 0.828 7.95 5.7 10.25
3/25/2021 11:00:00 AM 12.58 54.644 0.84 7.96 5.06 10.35
3/25/2021 11:15:00 AM 12.66 54.788 0.859 7.97 4.98 10.47
3/25/2021 11:30:00 AM 12.76 54.968 0.879 7.99 5.1 10.7
3/25/2021 11:45:00 AM 12.87 55.166 0.893 8.01 5.07 10.87
3/25/2021 12:00:00 PM 12.96 55.328 0.899 8.02 4.9 11.02
3/25/2021 12:15:00 PM 13.04 55.472 0.899 8.04 4.86 11.18
3/25/2021 12:30:00 PM 13.11 55.598 0.893 8.06 5.22 11.31
3/25/2021 12:45:00 PM 13.16 55.688 0.886 8.07 5.13 11.41
3/25/2021 1:00:00 PM 13.21 55.778 0.879 8.08 5 11.38
3/25/2021 1:15:00 PM 13.25 55.85 0.876 8.09 4.8 11.47
3/25/2021 1:30:00 PM 13.3 55.94 0.873 8.1 5.38 11.57
3/25/2021 1:45:00 PM 13.36 56.048 0.87 8.12 4.75 11.68
3/25/2021 2:00:00 PM 13.43 56.174 0.867 8.14 5.06 11.85
3/25/2021 2:15:00 PM 13.5 56.3 0.862 8.16 4.8 11.95
3/25/2021 2:30:00 PM 13.56 56.408 0.855 8.17 5.04 11.99
3/25/2021 2:45:00 PM 13.62 56.516 0.847 8.18 4.85 12.02
3/25/2021 3:00:00 PM 13.73 56.714 0.842 8.21 4.92 12.34
3/25/2021 3:15:00 PM 13.83 56.894 0.839 8.23 4.93 12.46
3/25/2021 3:30:00 PM 13.93 57.074 0.837 8.25 5.25 12.55
3/25/2021 3:45:00 PM 14.03 57.254 0.837 8.27 5.11 12.7
3/25/2021 4:00:00 PM 14.1 57.38 0.836 8.27 5.48 12.58
3/25/2021 4:15:00 PM 14.14 57.452 0.836 8.27 4.97 12.42
3/25/2021 4:30:00 PM 14.18 57.524 0.837 8.27 5.39 12.4
3/25/2021 4:45:00 PM 14.19 57.542 0.837 8.26 5.47 12.26
3/25/2021 5:00:00 PM 14.2 57.56 0.837 8.25 5.49 12
3/25/2021 5:15:00 PM 14.2 57.56 0.837 8.23 6.13 11.78
3/25/2021 5:30:00 PM 14.21 57.578 0.836 8.22 5.84 11.69
3/25/2021 5:45:00 PM 14.22 57.596 0.835 8.22 6.02 11.58
3/25/2021 6:00:00 PM 14.22 57.596 0.834 8.2 5.46 11.42
3/25/2021 6:15:00 PM 14.21 57.578 0.833 8.19 5.53 11.25
3/25/2021 6:30:00 PM 14.19 57.542 0.832 8.17 5.44 11.04
3/25/2021 6:45:00 PM 14.16 57.488 0.829 8.16 5.65 10.83
3/25/2021 7:00:00 PM 14.11 57.398 0.827 8.13 5.7 10.6
3/25/2021 7:15:00 PM 14.06 57.308 0.826 8.11 6.08 10.4
3/25/2021 7:30:00 PM 14.01 57.218 0.824 8.09 6 10.2
3/25/2021 7:45:00 PM 13.95 57.11 0.825 8.07 6.21 10.01
3/25/2021 8:00:00 PM 13.89 57.002 0.827 8.05 6.74 9.84
3/25/2021 8:15:00 PM 13.84 56.912 0.829 8.03 6.87 9.67
3/25/2021 8:30:00 PM 13.79 56.822 0.83 8.01 6.78 9.53
3/25/2021 8:45:00 PM 13.74 56.732 0.831 7.99 6.47 9.4
3/25/2021 9:00:00 PM 13.7 56.66 0.832 7.97 6.73 9.29
3/25/2021 9:15:00 PM 13.65 56.57 0.832 7.96 6.4 9.19
3/25/2021 9:30:00 PM 13.59 56.462 0.832 7.94 6.46 9.1
3/25/2021 9:45:00 PM 13.54 56.372 0.834 7.93 6.79 9.01
3/25/2021 10:00:00 PM 13.49 56.282 0.836 7.92 6.89 8.95
3/25/2021 10:15:00 PM 13.44 56.192 0.838 7.91 6.77 8.89
3/25/2021 10:30:00 PM 13.39 56.102 0.842 7.9 6.6 8.84
3/25/2021 10:45:00 PM 13.35 56.03 0.844 7.9 6.42 8.81
3/25/2021 11:00:00 PM 13.31 55.958 0.846 7.89 6.5 8.78
3/25/2021 11:15:00 PM 13.27 55.886 0.847 7.88 6.68 8.76
3/25/2021 11:30:00 PM 13.23 55.814 0.849 7.88 7.43 8.74
3/25/2021 11:45:00 PM 13.2 55.76 0.851 7.87 6.91 8.72
3/26/2021 12:00:00 AM 13.16 55.688 0.852 7.87 7.17 8.71
3/26/2021 12:15:00 AM 13.13 55.634 0.852 7.87 6.58 8.71
3/26/2021 12:30:00 AM 13.1 55.58 0.851 7.86 6.19 8.71
3/26/2021 12:45:00 AM 13.07 55.526 0.848 7.86 6.22 8.7
3/26/2021 1:00:00 AM 13.04 55.472 0.845 7.86 6.35 8.7
3/26/2021 1:15:00 AM 13.01 55.418 0.842 7.86 6.31 8.7
3/26/2021 1:30:00 AM 12.98 55.364 0.838 7.85 6.46 8.68
3/26/2021 1:45:00 AM 12.95 55.31 0.835 7.85 6.4 8.69
3/26/2021 2:00:00 AM 12.93 55.274 0.833 7.85 6.06 8.68
3/26/2021 2:15:00 AM 12.91 55.238 0.83 7.85 6.57 8.69
3/26/2021 2:30:00 AM 12.88 55.184 0.825 7.85 6.29 8.69
3/26/2021 2:45:00 AM 12.86 55.148 0.821 7.85 6.04 8.69
3/26/2021 3:00:00 AM 12.85 55.13 0.819 7.85 6.38 8.71
3/26/2021 3:15:00 AM 12.83 55.094 0.817 7.85 6.94 8.71
3/26/2021 3:30:00 AM 12.81 55.058 0.814 7.85 7.51 8.72
3/26/2021 3:45:00 AM 12.8 55.04 0.81 7.85 6.28 8.73
3/26/2021 4:00:00 AM 12.78 55.004 0.805 7.85 6.38 8.73
3/26/2021 4:15:00 AM 12.77 54.986 0.801 7.86 6.51 8.74
3/26/2021 4:30:00 AM 12.75 54.95 0.798 7.86 6.33 8.74
3/26/2021 4:45:00 AM 12.74 54.932 0.794 7.86 6.25 8.75
3/26/2021 5:00:00 AM 12.73 54.914 0.79 7.86 6.1 8.75
3/26/2021 5:15:00 AM 12.7 54.86 0.784 7.87 6.22 8.77
3/26/2021 5:30:00 AM 12.68 54.824 0.781 7.87 6.53 8.78
3/26/2021 5:45:00 AM 12.66 54.788 0.779 7.87 6.29 8.78
3/26/2021 6:00:00 AM 12.63 54.734 0.777 7.87 6.1 8.79
3/26/2021 6:15:00 AM 12.61 54.698 0.775 7.87 6.25 8.79
3/26/2021 6:30:00 AM 12.59 54.662 0.775 7.87 6.33 8.79
3/26/2021 6:45:00 AM 12.59 54.662 0.775 7.88 5.99 8.8
3/26/2021 7:00:00 AM 12.59 54.662 0.774 7.88 6 8.79
3/26/2021 7:15:00 AM 12.6 54.68 0.775 7.88 5.83 8.81
3/26/2021 7:30:00 AM 12.59 54.662 0.776 7.88 5.89 8.86
3/26/2021 7:45:00 AM 12.6 54.68 0.777 7.89 5.48 8.94
3/26/2021 8:00:00 AM 12.61 54.698 0.778 7.89 5.16 9.02
3/26/2021 8:15:00 AM 12.64 54.752 0.779 7.9 5.12 9.06
3/26/2021 8:30:00 AM 12.66 54.788 0.78 7.9 5.02 9.1
3/26/2021 8:45:00 AM 12.69 54.842 0.78 7.91 4.94 9.22
3/26/2021 9:00:00 AM 12.73 54.914 0.779 7.92 5.29 9.45
3/26/2021 9:15:00 AM 12.81 55.058 0.779 7.94 4.92 9.71
3/26/2021 9:30:00 AM 12.9 55.22 0.78 7.96 5.51 9.93
3/26/2021 9:45:00 AM 13.04 55.472 0.781 7.98 4.93 10.19
3/26/2021 10:00:00 AM 13.17 55.706 0.783 8 4.99 10.4
3/26/2021 10:15:00 AM 13.34 56.012 0.787 8.02 5.34 10.65
3/26/2021 10:30:00 AM 13.53 56.354 0.794 8.05 5.19 10.91
3/26/2021 10:45:00 AM 13.73 56.714 0.802 8.07 5.13 11.13
3/26/2021 11:00:00 AM 13.93 57.074 0.811 8.09 5.46 11.31
3/26/2021 11:15:00 AM 14.13 57.434 0.818 8.12 5.02 11.54
3/26/2021 11:30:00 AM 14.36 57.848 0.824 8.14 4.36 11.78
3/26/2021 11:45:00 AM 14.61 58.298 0.829 8.17 4.4 12.03
3/26/2021 12:00:00 PM 14.84 58.712 0.833 8.2 5.83 12.18
3/26/2021 12:15:00 PM 15.05 59.09 0.835 8.22 4.56 12.27
3/26/2021 12:30:00 PM 15.28 59.504 0.836 8.25 4.52 12.47
3/26/2021 12:45:00 PM 15.51 59.918 0.837 8.29 4.98 12.73
3/26/2021 1:00:00 PM 15.76 60.368 0.838 8.32 4.52 12.92
3/26/2021 1:15:00 PM 16 60.8 0.839 8.34 4.86 13.04
3/26/2021 1:30:00 PM 16.2 61.16 0.841 8.36 5.14 13.11
3/26/2021 1:45:00 PM 16.35 61.43 0.843 8.37 4.69 13.09
3/26/2021 2:00:00 PM 16.51 61.718 0.843 8.39 4.84 13.13
3/26/2021 2:15:00 PM 16.67 62.006 0.843 8.41 5.26 13.16
3/26/2021 2:30:00 PM 16.83 62.294 0.844 8.42 4.86 13.19
3/26/2021 2:45:00 PM 16.98 62.564 0.843 8.43 5.09 13.16
3/26/2021 3:00:00 PM 17.09 62.762 0.843 8.43 4.92 13.07
3/26/2021 3:15:00 PM 17.17 62.906 0.843 8.44 5.08 12.98
3/26/2021 3:30:00 PM 17.24 63.032 0.844 8.44 5.3 12.91
3/26/2021 3:45:00 PM 17.27 63.086 0.844 8.44 4.92 12.78
3/26/2021 4:00:00 PM 17.28 63.104 0.844 8.43 5.28 12.64
3/26/2021 4:15:00 PM 17.27 63.086 0.843 8.43 5.22 12.53
3/26/2021 4:30:00 PM 17.24 63.032 0.842 8.42 5.1 12.36
3/26/2021 4:45:00 PM 17.19 62.942 0.843 8.4 5.46 12.18
3/26/2021 5:00:00 PM 17.14 62.852 0.844 8.39 5.57 11.98
3/26/2021 5:15:00 PM 17.05 62.69 0.845 8.37 5.59 11.75
3/26/2021 5:30:00 PM 16.94 62.492 0.846 8.35 5.68 11.52
3/26/2021 5:45:00 PM 16.81 62.258 0.847 8.32 6.39 11.25
3/26/2021 6:00:00 PM 16.69 62.042 0.847 8.29 6.23 10.99
3/26/2021 6:15:00 PM 16.53 61.754 0.847 8.26 6.73 10.71
3/26/2021 6:30:00 PM 16.37 61.466 0.848 8.24 6.47 10.48
3/26/2021 6:45:00 PM 16.21 61.178 0.848 8.21 6.6 10.29
3/26/2021 7:00:00 PM 16.05 60.89 0.847 8.19 5.88 10.1
3/26/2021 7:15:00 PM 15.9 60.62 0.848 8.16 6.26 9.92
3/26/2021 7:30:00 PM 15.73 60.314 0.849 8.14 6.13 9.75
3/26/2021 7:45:00 PM 15.57 60.026 0.85 8.12 6.46 9.61
3/26/2021 8:00:00 PM 15.41 59.738 0.851 8.09 6.79 9.49
3/26/2021 8:15:00 PM 15.24 59.432 0.853 8.07 7.24 9.39
3/26/2021 8:30:00 PM 15.07 59.126 0.856 8.06 8.78 9.27
3/26/2021 8:45:00 PM 14.9 58.82 0.858 8.04 7.12 9.17
3/26/2021 9:00:00 PM 14.72 58.496 0.86 8.02 6.92 9.06
3/26/2021 9:15:00 PM 14.55 58.19 0.861 8 6.69 8.96
3/26/2021 9:30:00 PM 14.38 57.884 0.863 7.98 6.55 8.86
3/26/2021 9:45:00 PM 14.21 57.578 0.864 7.97 6.8 8.79
3/26/2021 10:00:00 PM 14.05 57.29 0.864 7.96 6.48 8.74
3/26/2021 10:15:00 PM 13.9 57.02 0.864 7.95 6.82 8.69
3/26/2021 10:30:00 PM 13.75 56.75 0.863 7.94 6.49 8.65
3/26/2021 10:45:00 PM 13.61 56.498 0.864 7.93 6.98 8.64
3/26/2021 11:00:00 PM 13.48 56.264 0.865 7.92 6.51 8.62
3/26/2021 11:15:00 PM 13.35 56.03 0.866 7.91 6.2 8.62
3/26/2021 11:30:00 PM 13.22 55.796 0.868 7.91 6.43 8.61
3/26/2021 11:45:00 PM 13.1 55.58 0.868 7.9 7.29 8.62
3/27/2021 12:00:00 AM 12.98 55.364 0.867 7.9 6.64 8.63
3/27/2021 12:15:00 AM 12.87 55.166 0.865 7.9 8.22 8.66
3/27/2021 12:30:00 AM 12.77 54.986 0.864 7.89 7.45 8.68
3/27/2021 12:45:00 AM 12.67 54.806 0.863 7.89 6.57 8.69
3/27/2021 1:00:00 AM 12.57 54.626 0.864 7.89 6.81 8.71
3/27/2021 1:15:00 AM 12.48 54.464 0.864 7.89 6.91 8.73
3/27/2021 1:30:00 AM 12.39 54.302 0.864 7.89 6.15 8.75
3/27/2021 1:45:00 AM 12.31 54.158 0.864 7.89 6.37 8.77
3/27/2021 2:00:00 AM 12.23 54.014 0.863 7.88 6.57 8.79
3/27/2021 2:15:00 AM 12.14 53.852 0.861 7.88 6.29 8.81
3/27/2021 2:30:00 AM 12.07 53.726 0.86 7.88 7.27 8.84
3/27/2021 2:45:00 AM 11.99 53.582 0.857 7.89 6.88 8.85
3/27/2021 3:00:00 AM 11.92 53.456 0.855 7.88 6.17 8.87
3/27/2021 3:15:00 AM 11.85 53.33 0.85 7.89 6.65 8.89
3/27/2021 3:30:00 AM 11.77 53.186 0.846 7.89 6.71 8.92
3/27/2021 3:45:00 AM 11.7 53.06 0.841 7.89 6.38 8.94
3/27/2021 4:00:00 AM 11.63 52.934 0.837 7.89 6.56 8.96
3/27/2021 4:15:00 AM 11.56 52.808 0.834 7.89 5.98 8.99
3/27/2021 4:30:00 AM 11.5 52.7 0.83 7.89 6.02 9.01
3/27/2021 4:45:00 AM 11.44 52.592 0.827 7.89 6.57 9.03
3/27/2021 5:00:00 AM 11.38 52.484 0.823 7.9 6.06 9.04
3/27/2021 5:15:00 AM 11.31 52.358 0.819 7.9 6.32 9.06
3/27/2021 5:30:00 AM 11.26 52.268 0.817 7.9 6.27 9.08
3/27/2021 5:45:00 AM 11.2 52.16 0.813 7.9 6.44 9.1
3/27/2021 6:00:00 AM 11.14 52.052 0.81 7.9 6.88 9.12
3/27/2021 6:15:00 AM 11.09 51.962 0.807 7.9 6.45 9.14
3/27/2021 6:30:00 AM 11.03 51.854 0.805 7.9 6.42 9.16
3/27/2021 6:45:00 AM 10.98 51.764 0.804 7.9 6.32 9.2
3/27/2021 7:00:00 AM 10.93 51.674 0.805 7.9 6.31 9.22
3/27/2021 7:15:00 AM 10.89 51.602 0.806 7.9 5.58 9.26
3/27/2021 7:30:00 AM 10.85 51.53 0.807 7.91 5.72 9.31
3/27/2021 7:45:00 AM 10.82 51.476 0.808 7.91 5.84 9.38
3/27/2021 8:00:00 AM 10.81 51.458 0.81 7.91 5.48 9.47
3/27/2021 8:15:00 AM 10.8 51.44 0.812 7.92 5.49 9.57
3/27/2021 8:30:00 AM 10.82 51.476 0.812 7.93 5.52 9.72
3/27/2021 8:45:00 AM 10.86 51.548 0.811 7.94 5.33 9.93
3/27/2021 9:00:00 AM 10.91 51.638 0.809 7.96 4.97 10.15
3/27/2021 9:15:00 AM 10.97 51.746 0.808 7.98 5.28 10.35
3/27/2021 9:30:00 AM 11.04 51.872 0.806 7.99 5.25 10.52
3/27/2021 9:45:00 AM 11.14 52.052 0.805 8.01 5.37 10.82
3/27/2021 10:00:00 AM 11.26 52.268 0.805 8.04 5.02 11.1
3/27/2021 10:15:00 AM 11.41 52.538 0.804 8.06 5.01 11.36
3/27/2021 10:30:00 AM 11.56 52.808 0.804 8.09 5.04 11.57
3/27/2021 10:45:00 AM 11.74 53.132 0.806 8.11 4.87 11.8
3/27/2021 11:00:00 AM 11.95 53.51 0.811 8.14 5.26 12.01
3/27/2021 11:15:00 AM 12.18 53.924 0.817 8.16 5.25 12.25
3/27/2021 11:30:00 AM 12.44 54.392 0.824 8.19 5.39 12.49
3/27/2021 11:45:00 AM 12.72 54.896 0.833 8.22 4.87 12.71
3/27/2021 12:00:00 PM 13.01 55.418 0.844 8.25 4.95 12.92
3/27/2021 12:15:00 PM 13.31 55.958 0.855 8.28 4.84 13.11
3/27/2021 12:30:00 PM 13.61 56.498 0.866 8.31 4.94 13.29
3/27/2021 12:45:00 PM 13.91 57.038 0.874 8.33 5 13.43
3/27/2021 1:00:00 PM 14.19 57.542 0.88 8.36 5.03 13.58
3/27/2021 1:15:00 PM 14.46 58.028 0.886 8.38 4.78 13.7
3/27/2021 1:30:00 PM 14.73 58.514 0.89 8.41 5.3 13.81
3/27/2021 1:45:00 PM 14.96 58.928 0.894 8.42 5.27 13.82
3/27/2021 2:00:00 PM 15.15 59.27 0.898 8.44 4.98 13.82
3/27/2021 2:15:00 PM 15.33 59.594 0.902 8.45 5.33 13.86
3/27/2021 2:30:00 PM 15.5 59.9 0.902 8.46 5.57 13.83
3/27/2021 2:45:00 PM 15.63 60.134 0.9 8.47 5.79 13.78
3/27/2021 3:00:00 PM 15.75 60.35 0.897 8.48 5.53 13.71
3/27/2021 3:15:00 PM 15.86 60.548 0.895 8.48 5.14 13.67
3/27/2021 3:30:00 PM 15.94 60.692 0.893 8.48 5.15 13.55
3/27/2021 3:45:00 PM 16 60.8 0.893 8.48 5.19 13.42
3/27/2021 4:00:00 PM 16.03 60.854 0.892 8.47 5.73 13.21
3/27/2021 4:15:00 PM 16.04 60.872 0.892 8.46 5.56 12.98
3/27/2021 4:30:00 PM 16.03 60.854 0.891 8.44 5.58 12.76
3/27/2021 4:45:00 PM 16 60.8 0.891 8.43 5.31 12.57
3/27/2021 5:00:00 PM 15.96 60.728 0.891 8.41 5.14 12.37
3/27/2021 5:15:00 PM 15.93 60.674 0.891 8.4 5.46 12.2
3/27/2021 5:30:00 PM 15.89 60.602 0.89 8.38 5.23 11.99
3/27/2021 5:45:00 PM 15.84 60.512 0.889 8.36 5.39 11.78
3/27/2021 6:00:00 PM 15.78 60.404 0.887 8.34 5.52 11.52
3/27/2021 6:15:00 PM 15.7 60.26 0.887 8.31 5.35 11.26
3/27/2021 6:30:00 PM 15.61 60.098 0.887 8.28 5.36 11.03
3/27/2021 6:45:00 PM 15.49 59.882 0.886 8.25 5.48 10.78
3/27/2021 7:00:00 PM 15.38 59.684 0.885 8.22 5.54 10.54
3/27/2021 7:15:00 PM 15.26 59.468 0.885 8.19 5.38 10.28
3/27/2021 7:30:00 PM 15.14 59.252 0.885 8.16 5.55 10.06
3/27/2021 7:45:00 PM 15.01 59.018 0.885 8.13 5.76 9.85
3/27/2021 8:00:00 PM 14.88 58.784 0.883 8.1 6.12 9.69
3/27/2021 8:15:00 PM 14.75 58.55 0.881 8.08 6.83 9.53
3/27/2021 8:30:00 PM 14.62 58.316 0.879 8.06 6.31 9.39
3/27/2021 8:45:00 PM 14.5 58.1 0.877 8.04 6.42 9.25
3/27/2021 9:00:00 PM 14.36 57.848 0.878 8.02 6.43 9.12
3/27/2021 9:15:00 PM 14.24 57.632 0.88 8 6.31 9.02
3/27/2021 9:30:00 PM 14.11 57.398 0.881 7.98 6.28 8.93
3/27/2021 9:45:00 PM 13.99 57.182 0.881 7.97 6.37 8.85
3/27/2021 10:00:00 PM 13.86 56.948 0.88 7.96 5.97 8.76
3/27/2021 10:15:00 PM 13.74 56.732 0.88 7.94 6.55 8.71
3/27/2021 10:30:00 PM 13.62 56.516 0.882 7.93 6.14 8.67
3/27/2021 10:45:00 PM 13.51 56.318 0.885 7.92 6.42 8.64
3/27/2021 11:00:00 PM 13.4 56.12 0.887 7.92 6.62 8.61
3/27/2021 11:15:00 PM 13.31 55.958 0.887 7.91 6.29 8.6
3/27/2021 11:30:00 PM 13.22 55.796 0.887 7.9 6.25 8.59
3/27/2021 11:45:00 PM 13.13 55.634 0.886 7.9 8.08 8.58
3/28/2021 12:00:00 AM 13.05 55.49 0.886 7.9 5.92 8.58
3/28/2021 12:15:00 AM 12.96 55.328 0.886 7.89 5.69 8.6
3/28/2021 12:30:00 AM 12.88 55.184 0.885 7.89 6.01 8.6
3/28/2021 12:45:00 AM 12.8 55.04 0.882 7.89 5.92 8.62
3/28/2021 1:00:00 AM 12.72 54.896 0.88 7.89 5.65 8.62
3/28/2021 1:15:00 AM 12.65 54.77 0.877 7.89 5.99 8.64
3/28/2021 1:30:00 AM 12.59 54.662 0.873 7.89 5.51 8.65
3/28/2021 1:45:00 AM 12.53 54.554 0.868 7.89 5.86 8.66
3/28/2021 2:00:00 AM 12.47 54.446 0.864 7.89 5.99 8.67
3/28/2021 2:15:00 AM 12.42 54.356 0.861 7.89 6.26 8.68
3/28/2021 2:30:00 AM 12.37 54.266 0.859 7.89 6.4 8.71
3/28/2021 2:45:00 AM 12.34 54.212 0.857 7.89 6.55 8.73
3/28/2021 3:00:00 AM 12.3 54.14 0.854 7.89 5.84 8.73
3/28/2021 3:15:00 AM 12.26 54.068 0.85 7.89 5.9 8.75
3/28/2021 3:30:00 AM 12.24 54.032 0.845 7.89 5.74 8.77
3/28/2021 3:45:00 AM 12.2 53.96 0.841 7.89 6.3 8.78
3/28/2021 4:00:00 AM 12.17 53.906 0.837 7.9 6.4 8.78
3/28/2021 4:15:00 AM 12.15 53.87 0.832 7.9 6.02 8.79
3/28/2021 4:30:00 AM 12.13 53.834 0.827 7.9 6.32 8.81
3/28/2021 4:45:00 AM 12.12 53.816 0.824 7.9 6.03 8.82
3/28/2021 5:00:00 AM 12.11 53.798 0.821 7.9 6.61 8.83
3/28/2021 5:15:00 AM 12.1 53.78 0.818 7.9 6.23 8.82
3/28/2021 5:30:00 AM 12.09 53.762 0.815 7.9 6.23 8.84
3/28/2021 5:45:00 AM 12.08 53.744 0.813 7.9 6.06 8.85
3/28/2021 6:00:00 AM 12.07 53.726 0.811 7.9 6.52 8.85
3/28/2021 6:15:00 AM 12.06 53.708 0.809 7.91 6.16 8.86
3/28/2021 6:30:00 AM 12.05 53.69 0.808 7.91 5.85 8.85
3/28/2021 6:45:00 AM 12.05 53.69 0.808 7.91 5.76 8.85
3/28/2021 7:00:00 AM 12.05 53.69 0.808 7.91 5.65 8.85
3/28/2021 7:15:00 AM 12.04 53.672 0.808 7.91 5.59 8.86
3/28/2021 7:30:00 AM 12.04 53.672 0.808 7.91 5.46 8.86
3/28/2021 7:45:00 AM 12.04 53.672 0.808 7.91 5.49 8.87
3/28/2021 8:00:00 AM 12.04 53.672 0.807 7.91 5.28 8.88
3/28/2021 8:15:00 AM 12.04 53.672 0.806 7.91 5.43 8.93
3/28/2021 8:30:00 AM 12.04 53.672 0.804 7.92 7.02 8.95
3/28/2021 8:45:00 AM 12.04 53.672 0.802 7.92 6.3 8.98
3/28/2021 9:00:00 AM 12.04 53.672 0.8 7.92 5.86 9.04
3/28/2021 9:15:00 AM 12.05 53.69 0.796 7.93 6.4 9.12
3/28/2021 9:30:00 AM 12.06 53.708 0.793 7.93 7.31 9.14
3/28/2021 9:45:00 AM 12.07 53.726 0.791 7.93 6.84 9.21
3/28/2021 10:00:00 AM 12.08 53.744 0.789 7.93 7.39 9.23
3/28/2021 10:15:00 AM 12.08 53.744 0.786 7.93 9.27 9.25
3/28/2021 10:30:00 AM 12.09 53.762 0.786 7.93 10.46 9.27
3/28/2021 10:45:00 AM 12.12 53.816 0.799 7.92 10.65 9.31
3/28/2021 11:00:00 AM 12.18 53.924 0.817 7.92 10.78 9.36
3/28/2021 11:15:00 AM 12.23 54.014 0.824 7.92 10.56 9.35
3/28/2021 11:30:00 AM 12.27 54.086 0.815 7.91 11.74 9.37
3/28/2021 11:45:00 AM 12.3 54.14 0.8 7.91 10.61 9.42
3/28/2021 12:00:00 PM 12.32 54.176 0.784 7.9 10 9.42
3/28/2021 12:15:00 PM 12.34 54.212 0.772 7.89 9.5 9.39
3/28/2021 12:30:00 PM 12.38 54.284 0.757 7.87 9.45 9.32
3/28/2021 12:45:00 PM 12.42 54.356 0.736 7.85 10.49 9.28
3/28/2021 1:00:00 PM 12.46 54.428 0.72 7.82 11.41 9.22
3/28/2021 1:15:00 PM 12.5 54.5 0.712 7.81 12.09 9.19
3/28/2021 1:30:00 PM 12.54 54.572 0.71 7.8 13.19 9.21
3/28/2021 1:45:00 PM 12.57 54.626 0.713 7.8 14.18 9.25
3/28/2021 2:00:00 PM 12.6 54.68 0.718 7.8 12.05 9.32
3/28/2021 2:15:00 PM 12.63 54.734 0.722 7.81 12.19 9.41
3/28/2021 2:30:00 PM 12.67 54.806 0.724 7.81 12.34 9.49
3/28/2021 2:45:00 PM 12.72 54.896 0.725 7.83 10.53 9.57
3/28/2021 3:00:00 PM 12.78 55.004 0.724 7.84 9.87 9.74
3/28/2021 3:15:00 PM 12.82 55.076 0.72 7.84 9.42 9.71
3/28/2021 3:30:00 PM 12.88 55.184 0.713 7.85 9.31 9.71
3/28/2021 3:45:00 PM 12.93 55.274 0.706 7.85 8.85 9.72
3/28/2021 4:00:00 PM 12.98 55.364 0.698 7.84 8.79 9.67
3/28/2021 4:15:00 PM 13.03 55.454 0.692 7.85 9.61 9.69
3/28/2021 4:30:00 PM 13.09 55.562 0.691 7.85 9.46 9.79
3/28/2021 4:45:00 PM 13.15 55.67 0.696 7.86 9.34 9.82
3/28/2021 5:00:00 PM 13.18 55.724 0.703 7.86 8.77 9.77
3/28/2021 5:15:00 PM 13.2 55.76 0.714 7.87 8.59 9.75
3/28/2021 5:30:00 PM 13.22 55.796 0.729 7.87 8.28 9.74
3/28/2021 5:45:00 PM 13.23 55.814 0.742 7.88 9.53 9.71
3/28/2021 6:00:00 PM 13.22 55.796 0.746 7.89 8.96 9.69
3/28/2021 6:15:00 PM 13.22 55.796 0.743 7.9 11.96 9.65
3/28/2021 6:30:00 PM 13.2 55.76 0.752 7.91 11.75 9.63
3/28/2021 6:45:00 PM 13.19 55.742 0.762 7.91 11.11 9.61
3/28/2021 7:00:00 PM 13.18 55.724 0.769 7.91 10.13 9.58
3/28/2021 7:15:00 PM 13.18 55.724 0.772 7.91 14.02 9.55
3/28/2021 7:30:00 PM 13.15 55.67 0.779 7.91 14.58 9.47
3/28/2021 7:45:00 PM 13.11 55.598 0.783 7.9 18.53 9.36
3/28/2021 8:00:00 PM 13.07 55.526 0.781 7.89 22.1 9.27
3/28/2021 8:15:00 PM 13.04 55.472 0.792 7.88 22.51 9.18
3/28/2021 8:30:00 PM 13.01 55.418 0.792 7.87 20.31 9.12
3/28/2021 8:45:00 PM 13 55.4 0.765 7.86 20.83 9.08
3/28/2021 9:00:00 PM 12.97 55.346 0.727 7.85 20.68 9.05
3/28/2021 9:15:00 PM 12.93 55.274 0.691 7.83 18.8 8.99
3/28/2021 9:30:00 PM 12.91 55.238 0.659 7.81 19.67 8.91
3/28/2021 9:45:00 PM 12.89 55.202 0.635 7.79 18.31 8.81
3/28/2021 10:00:00 PM 12.86 55.148 0.622 7.76 18.02 8.73
3/28/2021 10:15:00 PM 12.81 55.058 0.616 7.75 16.36 8.69
3/28/2021 10:30:00 PM 12.73 54.914 0.614 7.73 15.64 8.69
3/28/2021 10:45:00 PM 12.63 54.734 0.618 7.73 14.72 8.69
3/28/2021 11:00:00 PM 12.52 54.536 0.627 7.73 14.4 8.71
3/28/2021 11:15:00 PM 12.4 54.32 0.637 7.73 13.88 8.74
3/28/2021 11:30:00 PM 12.27 54.086 0.65 7.73 14.06 8.77
3/28/2021 11:45:00 PM 12.15 53.87 0.665 7.74 14.71 8.8
3/29/2021 12:00:00 AM 12.03 53.654 0.679 7.74 13.61 8.83
3/29/2021 12:15:00 AM 11.91 53.438 0.693 7.75 12.32 8.86
3/29/2021 12:30:00 AM 11.78 53.204 0.706 7.76 11.9 8.89
3/29/2021 12:45:00 AM 11.67 53.006 0.716 7.76 11.63 8.93
3/29/2021 1:00:00 AM 11.56 52.808 0.724 7.77 11.77 8.98
3/29/2021 1:15:00 AM 11.45 52.61 0.731 7.78 10.83 9.02
3/29/2021 1:30:00 AM 11.36 52.448 0.736 7.79 10.61 9.06
3/29/2021 1:45:00 AM 11.26 52.268 0.74 7.79 10.57 9.09
3/29/2021 2:00:00 AM 11.15 52.07 0.744 7.8 9.37 9.13
3/29/2021 2:15:00 AM 11.05 51.89 0.746 7.81 9.79 9.17
3/29/2021 2:30:00 AM 10.96 51.728 0.746 7.81 8.95 9.21
3/29/2021 2:45:00 AM 10.89 51.602 0.746 7.82 10.05 9.25
3/29/2021 3:00:00 AM 10.84 51.512 0.747 7.82 8.26 9.28
3/29/2021 3:15:00 AM 10.78 51.404 0.746 7.83 9.07 9.3
3/29/2021 3:30:00 AM 10.71 51.278 0.747 7.83 8.54 9.34
3/29/2021 3:45:00 AM 10.65 51.17 0.746 7.84 8.08 9.35
3/29/2021 4:00:00 AM 10.58 51.044 0.744 7.84 8.35 9.38
3/29/2021 4:15:00 AM 10.53 50.954 0.743 7.84 8.3 9.42
3/29/2021 4:30:00 AM 10.47 50.846 0.741 7.85 7.92 9.44
3/29/2021 4:45:00 AM 10.42 50.756 0.74 7.85 7.79 9.47
3/29/2021 5:00:00 AM 10.35 50.63 0.739 7.86 7.61 9.5
3/29/2021 5:15:00 AM 10.29 50.522 0.738 7.86 7.87 9.53
3/29/2021 5:30:00 AM 10.23 50.414 0.737 7.86 8.18 9.55
3/29/2021 5:45:00 AM 10.2 50.36 0.736 7.86 8.06 9.57
3/29/2021 6:00:00 AM 10.16 50.288 0.735 7.87 7.8 9.59
3/29/2021 6:15:00 AM 10.13 50.234 0.735 7.87 7.82 9.61
3/29/2021 6:30:00 AM 10.09 50.162 0.736 7.87 7.13 9.62
3/29/2021 6:45:00 AM 10.06 50.108 0.738 7.87 7.44 9.63
3/29/2021 7:00:00 AM 10.03 50.054 0.74 7.87 7.34 9.65
3/29/2021 7:15:00 AM 10 50 0.743 7.88 7.44 9.67
3/29/2021 7:30:00 AM 9.97 49.946 0.747 7.88 7.39 9.72
3/29/2021 7:45:00 AM 9.96 49.928 0.751 7.88 7.2 9.75
3/29/2021 8:00:00 AM 9.94 49.892 0.755 7.89 6.77 9.81
3/29/2021 8:15:00 AM 9.92 49.856 0.758 7.89 6.31 9.9
3/29/2021 8:30:00 AM 9.91 49.838 0.757 7.9 7.68 10.01
3/29/2021 8:45:00 AM 9.9 49.82 0.756 7.91 6.15 10.16
3/29/2021 9:00:00 AM 9.93 49.874 0.756 7.93 6.05 10.32
3/29/2021 9:15:00 AM 9.97 49.946 0.758 7.94 5.83 10.51
3/29/2021 9:30:00 AM 10.01 50.018 0.761 7.95 5.99 10.65
3/29/2021 9:45:00 AM 10.01 50.018 0.765 7.96 5.7 10.71
3/29/2021 10:00:00 AM 10.04 50.072 0.769 7.97 5.84 10.84
3/29/2021 10:15:00 AM 10.09 50.162 0.773 7.99 5.74 11.02
3/29/2021 10:30:00 AM 10.2 50.36 0.777 8.01 5.85 11.26
3/29/2021 10:45:00 AM 10.32 50.576 0.782 8.02 5.58 11.47
3/29/2021 11:00:00 AM 10.47 50.846 0.788 8.05 5.47 11.73
3/29/2021 11:15:00 AM 10.66 51.188 0.794 8.07 5.65 11.94
3/29/2021 11:30:00 AM 10.85 51.53 0.8 8.1 5.9 12.14
3/29/2021 11:45:00 AM 10.99 51.782 0.801 8.11 5.59 12.23
3/29/2021 12:00:00 PM 11.19 52.142 0.8 8.14 5.9 12.46
3/29/2021 12:15:00 PM 11.41 52.538 0.797 8.17 5.77 12.65
3/29/2021 12:30:00 PM 11.63 52.934 0.794 8.2 6.54 12.79
3/29/2021 12:45:00 PM 11.87 53.366 0.792 8.22 6.07 12.96
3/29/2021 1:00:00 PM 12.07 53.726 0.791 8.25 6.07 13.07
3/29/2021 1:15:00 PM 12.28 54.104 0.791 8.27 6.57 13.18
3/29/2021 1:30:00 PM 12.49 54.482 0.792 8.29 5.65 13.23
3/29/2021 1:45:00 PM 12.71 54.878 0.794 8.3 5.89 13.29
3/29/2021 2:00:00 PM 12.9 55.22 0.798 8.32 5.67 13.31
3/29/2021 2:15:00 PM 13.09 55.562 0.801 8.33 5.72 13.34
3/29/2021 2:30:00 PM 13.29 55.922 0.802 8.34 6.07 13.35
3/29/2021 2:45:00 PM 13.45 56.21 0.802 8.35 5.77 13.34
3/29/2021 3:00:00 PM 13.6 56.48 0.801 8.36 5.66 13.31
3/29/2021 3:15:00 PM 13.71 56.678 0.8 8.36 5.5 13.25
3/29/2021 3:30:00 PM 13.81 56.858 0.799 8.37 5.24 13.16
3/29/2021 3:45:00 PM 13.88 56.984 0.798 8.37 5.59 13.08
3/29/2021 4:00:00 PM 13.94 57.092 0.798 8.36 5.35 12.98
3/29/2021 4:15:00 PM 13.97 57.146 0.8 8.36 5.86 12.86
3/29/2021 4:30:00 PM 13.98 57.164 0.802 8.35 6.34 12.74
3/29/2021 4:45:00 PM 13.98 57.164 0.804 8.34 5.79 12.58
3/29/2021 5:00:00 PM 13.97 57.146 0.804 8.33 5.76 12.42
3/29/2021 5:15:00 PM 13.93 57.074 0.804 8.31 5.76 12.23
3/29/2021 5:30:00 PM 13.89 57.002 0.804 8.29 5.69 12.03
3/29/2021 5:45:00 PM 13.82 56.876 0.804 8.27 5.92 11.81
3/29/2021 6:00:00 PM 13.76 56.768 0.806 8.25 6.21 11.57
3/29/2021 6:15:00 PM 13.68 56.624 0.805 8.22 5.92 11.35
3/29/2021 6:30:00 PM 13.59 56.462 0.803 8.2 5.93 11.15
3/29/2021 6:45:00 PM 13.49 56.282 0.802 8.18 6.45 10.96
3/29/2021 7:00:00 PM 13.38 56.084 0.8 8.15 5.65 10.79
3/29/2021 7:15:00 PM 13.27 55.886 0.799 8.13 5.88 10.62
3/29/2021 7:30:00 PM 13.16 55.688 0.799 8.11 6 10.46
3/29/2021 7:45:00 PM 13.05 55.49 0.799 8.09 5.96 10.32
3/29/2021 8:00:00 PM 12.93 55.274 0.799 8.07 6.31 10.21
3/29/2021 8:15:00 PM 12.81 55.058 0.801 8.05 6.28 10.1
3/29/2021 8:30:00 PM 12.69 54.842 0.804 8.04 6.95 9.99
3/29/2021 8:45:00 PM 12.56 54.608 0.806 8.02 7.1 9.88
3/29/2021 9:00:00 PM 12.43 54.374 0.808 8 7.01 9.77
3/29/2021 9:15:00 PM 12.29 54.122 0.81 7.98 8.36 9.66
3/29/2021 9:30:00 PM 12.15 53.87 0.811 7.97 6.64 9.58
3/29/2021 9:45:00 PM 12.02 53.636 0.814 7.95 6.99 9.5
3/29/2021 10:00:00 PM 11.89 53.402 0.817 7.94 6.61 9.42
3/29/2021 10:15:00 PM 11.77 53.186 0.819 7.93 7.2 9.37
3/29/2021 10:30:00 PM 11.64 52.952 0.821 7.92 6.8 9.34
3/29/2021 10:45:00 PM 11.53 52.754 0.823 7.91 6.45 9.31
3/29/2021 11:00:00 PM 11.41 52.538 0.826 7.9 6.68 9.3
3/29/2021 11:15:00 PM 11.31 52.358 0.829 7.9 6.87 9.27
3/29/2021 11:30:00 PM 11.2 52.16 0.833 7.89 6.57 9.26
3/29/2021 11:45:00 PM 11.11 51.998 0.837 7.89 7.11 9.26
3/30/2021 12:00:00 AM 11.02 51.836 0.841 7.88 6.78 9.27
3/30/2021 12:15:00 AM 10.93 51.674 0.845 7.88 6.53 9.27
3/30/2021 12:30:00 AM 10.85 51.53 0.848 7.87 6.64 9.27
3/30/2021 12:45:00 AM 10.77 51.386 0.849 7.87 6.54 9.29
3/30/2021 1:00:00 AM 10.7 51.26 0.847 7.87 6.96 9.29
3/30/2021 1:15:00 AM 10.62 51.116 0.845 7.87 6.65 9.31
3/30/2021 1:30:00 AM 10.54 50.972 0.842 7.87 7.23 9.33
3/30/2021 1:45:00 AM 10.46 50.828 0.839 7.87 6.51 9.36
3/30/2021 2:00:00 AM 10.39 50.702 0.836 7.87 6.63 9.38
3/30/2021 2:15:00 AM 10.32 50.576 0.833 7.87 6.1 9.41
3/30/2021 2:30:00 AM 10.25 50.45 0.829 7.87 6.34 9.43
3/30/2021 2:45:00 AM 10.18 50.324 0.825 7.87 6.19 9.46
3/30/2021 3:00:00 AM 10.11 50.198 0.822 7.88 6.49 9.49
3/30/2021 3:15:00 AM 10.04 50.072 0.818 7.88 6.52 9.51
3/30/2021 3:30:00 AM 9.97 49.946 0.814 7.88 6.16 9.53
3/30/2021 3:45:00 AM 9.91 49.838 0.808 7.88 6.46 9.55
3/30/2021 4:00:00 AM 9.85 49.73 0.803 7.88 6.2 9.59
3/30/2021 4:15:00 AM 9.79 49.622 0.799 7.89 6.27 9.62
3/30/2021 4:30:00 AM 9.73 49.514 0.796 7.89 6.48 9.65
3/30/2021 4:45:00 AM 9.68 49.424 0.793 7.89 6.8 9.68
3/30/2021 5:00:00 AM 9.63 49.334 0.791 7.89 6.8 9.7
3/30/2021 5:15:00 AM 9.58 49.244 0.791 7.89 9.09 9.72
3/30/2021 5:30:00 AM 9.54 49.172 0.79 7.89 6.78 9.74
3/30/2021 5:45:00 AM 9.5 49.1 0.788 7.9 6.62 9.76
3/30/2021 6:00:00 AM 9.45 49.01 0.785 7.9 6.42 9.78
3/30/2021 6:15:00 AM 9.41 48.938 0.783 7.9 6.29 9.8
3/30/2021 6:30:00 AM 9.38 48.884 0.784 7.9 6.54 9.81
3/30/2021 6:45:00 AM 9.34 48.812 0.784 7.9 6.35 9.83
3/30/2021 7:00:00 AM 9.32 48.776 0.784 7.9 6.05 9.85
3/30/2021 7:15:00 AM 9.29 48.722 0.785 7.9 5.91 9.89
3/30/2021 7:30:00 AM 9.28 48.704 0.786 7.91 5.96 9.94
3/30/2021 7:45:00 AM 9.27 48.686 0.787 7.91 5.47 10.01
3/30/2021 8:00:00 AM 9.27 48.686 0.789 7.92 5.78 10.07
3/30/2021 8:15:00 AM 9.28 48.704 0.79 7.92 5.83 10.16
3/30/2021 8:30:00 AM 9.32 48.776 0.791 7.93 7.06 10.28
3/30/2021 8:45:00 AM 9.37 48.866 0.79 7.94 5.57 10.41
3/30/2021 9:00:00 AM 9.44 48.992 0.789 7.95 5.82 10.56
3/30/2021 9:15:00 AM 9.54 49.172 0.789 7.96 6.66 10.72
3/30/2021 9:30:00 AM 9.65 49.37 0.79 7.98 5.6 10.9
3/30/2021 9:45:00 AM 9.78 49.604 0.791 7.99 5.95 11.07
3/30/2021 10:00:00 AM 9.93 49.874 0.793 8.01 5.61 11.24
3/30/2021 10:15:00 AM 10.12 50.216 0.797 8.03 5.82 11.43
3/30/2021 10:30:00 AM 10.33 50.594 0.803 8.05 5.76 11.61
3/30/2021 10:45:00 AM 10.56 51.008 0.811 8.07 5.52 11.79
3/30/2021 11:00:00 AM 10.82 51.476 0.823 8.09 5.2 11.97
3/30/2021 11:15:00 AM 11.11 51.998 0.835 8.11 5.51 12.15
3/30/2021 11:30:00 AM 11.42 52.556 0.845 8.13 6.96 12.34
3/30/2021 11:45:00 AM 11.74 53.132 0.85 8.15 5.55 12.51
3/30/2021 12:00:00 PM 12.05 53.69 0.853 8.18 5.52 12.69
3/30/2021 12:15:00 PM 12.36 54.248 0.852 8.21 4.93 12.85
3/30/2021 12:30:00 PM 12.67 54.806 0.851 8.23 5.13 12.98
3/30/2021 12:45:00 PM 12.97 55.346 0.849 8.26 4.91 13.12
3/30/2021 1:00:00 PM 13.27 55.886 0.848 8.28 5.33 13.21
3/30/2021 1:15:00 PM 13.56 56.408 0.846 8.31 4.95 13.31
3/30/2021 1:30:00 PM 13.83 56.894 0.844 8.33 4.83 13.36
3/30/2021 1:45:00 PM 14.09 57.362 0.843 8.34 4.67 13.4
3/30/2021 2:00:00 PM 14.33 57.794 0.84 8.36 4.74 13.41
3/30/2021 2:15:00 PM 14.55 58.19 0.838 8.37 4.96 13.39
3/30/2021 2:30:00 PM 14.75 58.55 0.837 8.39 4.56 13.37
3/30/2021 2:45:00 PM 14.94 58.892 0.836 8.39 4.74 13.34
3/30/2021 3:00:00 PM 15.1 59.18 0.835 8.4 5.12 13.27
3/30/2021 3:15:00 PM 15.24 59.432 0.832 8.41 4.53 13.18
3/30/2021 3:30:00 PM 15.36 59.648 0.829 8.41 4.99 13.11
3/30/2021 3:45:00 PM 15.46 59.828 0.827 8.41 5.03 13
3/30/2021 4:00:00 PM 15.53 59.954 0.825 8.41 4.52 12.86
3/30/2021 4:15:00 PM 15.57 60.026 0.823 8.4 5.2 12.73
3/30/2021 4:30:00 PM 15.58 60.044 0.824 8.4 5.03 12.57
3/30/2021 4:45:00 PM 15.58 60.044 0.825 8.38 5.38 12.39
3/30/2021 5:00:00 PM 15.57 60.026 0.826 8.37 5.07 12.23
3/30/2021 5:15:00 PM 15.55 59.99 0.827 8.36 5.5 12.03
3/30/2021 5:30:00 PM 15.49 59.882 0.828 8.34 5.6 11.8
3/30/2021 5:45:00 PM 15.42 59.756 0.828 8.31 5.56 11.58
3/30/2021 6:00:00 PM 15.34 59.612 0.83 8.29 5.33 11.36
3/30/2021 6:15:00 PM 15.26 59.468 0.833 8.27 5.57 11.16
3/30/2021 6:30:00 PM 15.16 59.288 0.837 8.24 6.21 10.92
3/30/2021 6:45:00 PM 15.07 59.126 0.838 8.22 5.81 10.7
3/30/2021 7:00:00 PM 14.96 58.928 0.839 8.19 5.93 10.51
3/30/2021 7:15:00 PM 14.83 58.694 0.84 8.17 5.65 10.33
3/30/2021 7:30:00 PM 14.71 58.478 0.842 8.14 5.46 10.17
3/30/2021 7:45:00 PM 14.58 58.244 0.845 8.12 7.14 10.02
3/30/2021 8:00:00 PM 14.45 58.01 0.847 8.1 6.56 9.87
3/30/2021 8:15:00 PM 14.32 57.776 0.849 8.08 6.7 9.75
3/30/2021 8:30:00 PM 14.18 57.524 0.85 8.06 7.17 9.64
3/30/2021 8:45:00 PM 14.03 57.254 0.852 8.04 6.93 9.53
3/30/2021 9:00:00 PM 13.89 57.002 0.854 8.02 6.95 9.41
3/30/2021 9:15:00 PM 13.74 56.732 0.856 8.01 7.41 9.31
3/30/2021 9:30:00 PM 13.59 56.462 0.859 7.99 6.75 9.23
3/30/2021 9:45:00 PM 13.45 56.21 0.861 7.98 6.68 9.14
3/30/2021 10:00:00 PM 13.31 55.958 0.864 7.96 7.49 9.07
3/30/2021 10:15:00 PM 13.18 55.724 0.867 7.95 6.73 9
3/30/2021 10:30:00 PM 13.06 55.508 0.87 7.94 6.95 8.96
3/30/2021 10:45:00 PM 12.93 55.274 0.871 7.93 7 8.92
3/30/2021 11:00:00 PM 12.82 55.076 0.873 7.92 7.14 8.91
3/30/2021 11:15:00 PM 12.71 54.878 0.875 7.91 6.85 8.89
3/30/2021 11:30:00 PM 12.61 54.698 0.877 7.91 6.98 8.88
3/30/2021 11:45:00 PM 12.52 54.536 0.879 7.9 6.44 8.87
3/31/2021 12:00:00 AM 12.43 54.374 0.88 7.9 6.74 8.87
3/31/2021 12:15:00 AM 12.34 54.212 0.879 7.89 6.54 8.88
3/31/2021 12:30:00 AM 12.26 54.068 0.878 7.89 6.9 8.88
3/31/2021 12:45:00 AM 12.18 53.924 0.878 7.89 6.87 8.9
3/31/2021 1:00:00 AM 12.11 53.798 0.878 7.89 6.61 8.91
3/31/2021 1:15:00 AM 12.05 53.69 0.876 7.88 7.2 8.92
3/31/2021 1:30:00 AM 11.98 53.564 0.873 7.88 6.7 8.93
3/31/2021 1:45:00 AM 11.92 53.456 0.869 7.88 7.4 8.94
3/31/2021 2:00:00 AM 11.86 53.348 0.865 7.88 6.53 8.94
3/31/2021 2:15:00 AM 11.81 53.258 0.86 7.88 6.39 8.96
3/31/2021 2:30:00 AM 11.76 53.168 0.855 7.88 6.69 8.98
3/31/2021 2:45:00 AM 11.7 53.06 0.851 7.88 6.23 9
3/31/2021 3:00:00 AM 11.65 52.97 0.845 7.88 6.19 9.02
3/31/2021 3:15:00 AM 11.6 52.88 0.839 7.89 6.39 9.03
3/31/2021 3:30:00 AM 11.55 52.79 0.833 7.89 6.49 9.06
3/31/2021 3:45:00 AM 11.5 52.7 0.827 7.89 7.12 9.08
3/31/2021 4:00:00 AM 11.45 52.61 0.82 7.89 6.41 9.1
3/31/2021 4:15:00 AM 11.4 52.52 0.815 7.89 6.24 9.11
3/31/2021 4:30:00 AM 11.36 52.448 0.81 7.89 6.64 9.13
3/31/2021 4:45:00 AM 11.32 52.376 0.806 7.89 6.29 9.14
3/31/2021 5:00:00 AM 11.28 52.304 0.803 7.9 6.75 9.15
3/31/2021 5:15:00 AM 11.25 52.25 0.8 7.9 6.85 9.16
3/31/2021 5:30:00 AM 11.22 52.196 0.798 7.9 6.57 9.18
3/31/2021 5:45:00 AM 11.2 52.16 0.796 7.9 7.38 9.19
3/31/2021 6:00:00 AM 11.17 52.106 0.794 7.9 6.69 9.2
3/31/2021 6:15:00 AM 11.15 52.07 0.792 7.9 6.81 9.22
3/31/2021 6:30:00 AM 11.14 52.052 0.791 7.9 6.68 9.23
3/31/2021 6:45:00 AM 11.12 52.016 0.792 7.9 6.2 9.24
3/31/2021 7:00:00 AM 11.1 51.98 0.792 7.9 6.07 9.25
3/31/2021 7:15:00 AM 11.1 51.98 0.792 7.9 5.97 9.28
3/31/2021 7:30:00 AM 11.1 51.98 0.792 7.9 6.07 9.32
3/31/2021 7:45:00 AM 11.13 52.034 0.793 7.91 5.95 9.39
3/31/2021 8:00:00 AM 11.18 52.124 0.796 7.91 5.74 9.45
3/31/2021 8:15:00 AM 11.22 52.196 0.799 7.91 5.45 9.47
3/31/2021 8:30:00 AM 11.27 52.286 0.8 7.92 5.52 9.52
3/31/2021 8:45:00 AM 11.31 52.358 0.799 7.92 5.35 9.58
3/31/2021 9:00:00 AM 11.36 52.448 0.799 7.93 5.4 9.66
3/31/2021 9:15:00 AM 11.41 52.538 0.803 7.93 5.17 9.73
3/31/2021 9:30:00 AM 11.49 52.682 0.809 7.94 5.83 9.81
3/31/2021 9:45:00 AM 11.56 52.808 0.814 7.94 5.22 9.9
3/31/2021 10:00:00 AM 11.63 52.934 0.818 7.95 5.15 9.9
3/31/2021 10:15:00 AM 11.7 53.06 0.82 7.95 5.35 9.95
3/31/2021 10:30:00 AM 11.78 53.204 0.822 7.96 5.97 10.07
3/31/2021 10:45:00 AM 11.87 53.366 0.825 7.97 5.07 10.16
3/31/2021 11:00:00 AM 11.98 53.564 0.83 7.98 5.26 10.27
3/31/2021 11:15:00 AM 12.1 53.78 0.834 8 4.99 10.46
3/31/2021 11:30:00 AM 12.22 53.996 0.84 8.01 4.81 10.6
3/31/2021 11:45:00 AM 12.36 54.248 0.845 8.03 5.58 10.73
3/31/2021 12:00:00 PM 12.46 54.428 0.848 8.04 5.32 10.76
3/31/2021 12:15:00 PM 12.55 54.59 0.85 8.03 4.9 10.71
3/31/2021 12:30:00 PM 12.65 54.77 0.855 8.05 4.96 10.8
3/31/2021 12:45:00 PM 12.75 54.95 0.86 8.05 5.89 10.84
3/31/2021 1:00:00 PM 12.84 55.112 0.864 8.06 5.97 10.83
3/31/2021 1:15:00 PM 12.92 55.256 0.865 8.06 5.34 10.75
3/31/2021 1:30:00 PM 13.01 55.418 0.866 8.07 5.78 10.88
3/31/2021 1:45:00 PM 13.1 55.58 0.867 8.08 5.63 10.92
3/31/2021 2:00:00 PM 13.18 55.724 0.868 8.08 5.48 10.9
3/31/2021 2:15:00 PM 13.27 55.886 0.868 8.09 5.64 11
3/31/2021 2:30:00 PM 13.34 56.012 0.869 8.1 5.52 11.08
3/31/2021 2:45:00 PM 13.41 56.138 0.868 8.11 5.08 11.06
3/31/2021 3:00:00 PM 13.47 56.246 0.866 8.11 5.15 11.05
3/31/2021 3:15:00 PM 13.51 56.318 0.864 8.11 5.04 11.03
3/31/2021 3:30:00 PM 13.55 56.39 0.862 8.12 5.07 10.99
3/31/2021 3:45:00 PM 13.58 56.444 0.859 8.12 4.95 10.93
3/31/2021 4:00:00 PM 13.61 56.498 0.855 8.12 5.24 10.86
3/31/2021 4:15:00 PM 13.63 56.534 0.85 8.12 5.38 10.81
3/31/2021 4:30:00 PM 13.63 56.534 0.843 8.11 5.22 10.68
3/31/2021 4:45:00 PM 13.64 56.552 0.838 8.11 5.41 10.69
3/31/2021 5:00:00 PM 13.64 56.552 0.834 8.1 5.17 10.55
3/31/2021 5:15:00 PM 13.63 56.534 0.831 8.09 6.26 10.43
3/31/2021 5:30:00 PM 13.62 56.516 0.83 8.08 6.06 10.35
3/31/2021 5:45:00 PM 13.61 56.498 0.829 8.08 5.68 10.25
3/31/2021 6:00:00 PM 13.59 56.462 0.83 8.06 5.98 10.11
3/31/2021 6:15:00 PM 13.57 56.426 0.831 8.05 7.07 9.99
3/31/2021 6:30:00 PM 13.55 56.39 0.83 8.04 5.99 9.9
3/31/2021 6:45:00 PM 13.54 56.372 0.829 8.03 5.52 9.82
3/31/2021 7:00:00 PM 13.52 56.336 0.828 8.02 5.22 9.69
3/31/2021 7:15:00 PM 13.5 56.3 0.828 8 5.89 9.56
3/31/2021 7:30:00 PM 13.47 56.246 0.827 7.99 5.61 9.45
3/31/2021 7:45:00 PM 13.45 56.21 0.825 7.98 6.21 9.37
3/31/2021 8:00:00 PM 13.42 56.156 0.825 7.97 6.39 9.3
3/31/2021 8:15:00 PM 13.4 56.12 0.826 7.96 6.51 9.23
3/31/2021 8:30:00 PM 13.37 56.066 0.826 7.95 6.59 9.16
3/31/2021 8:45:00 PM 13.34 56.012 0.826 7.93 6.38 9.1
3/31/2021 9:00:00 PM 13.32 55.976 0.828 7.93 6.32 9.04
3/31/2021 9:15:00 PM 13.3 55.94 0.829 7.92 6.42 8.98
3/31/2021 9:30:00 PM 13.28 55.904 0.831 7.9 6.2 8.92
3/31/2021 9:45:00 PM 13.25 55.85 0.834 7.89 6.33 8.85
3/31/2021 10:00:00 PM 13.22 55.796 0.835 7.88 7.52 8.79
3/31/2021 10:15:00 PM 13.2 55.76 0.838 7.87 6.95 8.75
3/31/2021 10:30:00 PM 13.17 55.706 0.841 7.87 6.55 8.72
3/31/2021 10:45:00 PM 13.14 55.652 0.844 7.86 6.73 8.71
3/31/2021 11:00:00 PM 13.11 55.598 0.849 7.86 6.67 8.7
3/31/2021 11:15:00 PM 13.09 55.562 0.852 7.86 6.64 8.69
3/31/2021 11:30:00 PM 13.07 55.526 0.852 7.86 7.03 8.71
3/31/2021 11:45:00 PM 13.06 55.508 0.852 7.86 11.9 8.72
4/1/2021 12:00:00 AM 13.03 55.454 0.853 7.87 6.87 8.73
4/1/2021 12:15:00 AM 13 55.4 0.854 7.87 7.43 8.73
4/1/2021 12:30:00 AM 12.96 55.328 0.852 7.87 6.61 8.75
4/1/2021 12:45:00 AM 12.9 55.22 0.848 7.87 6.54 8.77
4/1/2021 1:00:00 AM 12.84 55.112 0.842 7.87 6.72 8.79
4/1/2021 1:15:00 AM 12.78 55.004 0.836 7.87 6.94 8.8
4/1/2021 1:30:00 AM 12.72 54.896 0.83 7.88 6.74 8.8
4/1/2021 1:45:00 AM 12.65 54.77 0.826 7.87 6.69 8.8
4/1/2021 2:00:00 AM 12.58 54.644 0.823 7.87 6.34 8.78
4/1/2021 2:15:00 AM 12.51 54.518 0.819 7.86 6.82 8.77
4/1/2021 2:30:00 AM 12.43 54.374 0.813 7.85 6.77 8.75
4/1/2021 2:45:00 AM 12.37 54.266 0.806 7.85 6.8 8.72
4/1/2021 3:00:00 AM 12.3 54.14 0.801 7.84 7.17 8.72
4/1/2021 3:15:00 AM 12.23 54.014 0.798 7.84 7.52 8.73
4/1/2021 3:30:00 AM 12.16 53.888 0.797 7.84 7.13 8.77
4/1/2021 3:45:00 AM 12.08 53.744 0.797 7.84 6.75 8.79
4/1/2021 4:00:00 AM 11.99 53.582 0.796 7.85 6.77 8.85
4/1/2021 4:15:00 AM 11.91 53.438 0.795 7.86 6.92 8.88
4/1/2021 4:30:00 AM 11.82 53.276 0.792 7.87 7.31 8.94
4/1/2021 4:45:00 AM 11.73 53.114 0.789 7.87 7.11 9
4/1/2021 5:00:00 AM 11.65 52.97 0.787 7.88 7.32 9.05
4/1/2021 5:15:00 AM 11.57 52.826 0.784 7.89 7.11 9.09
4/1/2021 5:30:00 AM 11.49 52.682 0.781 7.89 6.99 9.13
4/1/2021 5:45:00 AM 11.42 52.556 0.778 7.9 6.59 9.17
4/1/2021 6:00:00 AM 11.34 52.412 0.775 7.9 6.86 9.2
4/1/2021 6:15:00 AM 11.27 52.286 0.772 7.91 6.86 9.22
4/1/2021 6:30:00 AM 11.21 52.178 0.77 7.91 6.74 9.25
4/1/2021 6:45:00 AM 11.14 52.052 0.768 7.91 6.55 9.28
4/1/2021 7:00:00 AM 11.08 51.944 0.767 7.91 6.96 9.31
4/1/2021 7:15:00 AM 11.01 51.818 0.768 7.91 6.94 9.34
4/1/2021 7:30:00 AM 10.96 51.728 0.77 7.91 7 9.38
4/1/2021 7:45:00 AM 10.92 51.656 0.771 7.91 7.09 9.41
4/1/2021 8:00:00 AM 10.87 51.566 0.772 7.92 6.92 9.5
4/1/2021 8:15:00 AM 10.83 51.494 0.772 7.92 6.87 9.59
4/1/2021 8:30:00 AM 10.81 51.458 0.768 7.93 7.65 9.7
4/1/2021 8:45:00 AM 10.79 51.422 0.764 7.93 6.69 9.87
4/1/2021 9:00:00 AM 10.77 51.386 0.761 7.94 6.37 9.98
4/1/2021 9:15:00 AM 10.77 51.386 0.759 7.94 6.39 10.16
4/1/2021 9:30:00 AM 11.31 52.358 0.744 7.92 4.69 9.71
4/1/2021 9:45:00 AM 11.3 52.34 0.739 7.92 4.71 9.74
4/1/2021 10:00:00 AM 11.29 52.322 0.732 7.91 4.66 9.86
4/1/2021 10:15:00 AM 11.31 52.358 0.725 7.92 4.49 10.09
4/1/2021 10:30:00 AM 11.37 52.466 0.722 7.93 5.08 10.31
4/1/2021 10:45:00 AM 11.44 52.592 0.724 7.95 4.66 10.52
4/1/2021 11:00:00 AM 11.52 52.736 0.728 7.96 4.64 10.71
4/1/2021 11:15:00 AM 11.63 52.934 0.733 7.98 4.75 10.92
4/1/2021 11:30:00 AM 11.81 53.258 0.737 8.01 4.71 11.16
4/1/2021 11:45:00 AM 11.94 53.492 0.743 8.02 4.68 11.26
4/1/2021 12:00:00 PM 12.1 53.78 0.753 8.05 4.59 11.43
4/1/2021 12:15:00 PM 12.2 53.96 0.764 8.06 4.57 11.47
4/1/2021 12:30:00 PM 12.28 54.104 0.776 8.08 4.58 11.58
4/1/2021 12:45:00 PM 12.46 54.428 0.786 8.11 4.59 11.78
4/1/2021 1:00:00 PM 12.64 54.752 0.795 8.13 4.54 11.92
4/1/2021 1:15:00 PM 12.77 54.986 0.803 8.15 4.39 12.04
4/1/2021 1:30:00 PM 12.85 55.13 0.809 8.17 4.5 12.03
4/1/2021 1:45:00 PM 12.92 55.256 0.813 8.18 4.37 12.04
4/1/2021 2:00:00 PM 12.94 55.292 0.814 8.19 4.3 12.03
4/1/2021 2:15:00 PM 12.95 55.31 0.815 8.19 4.33 11.94
4/1/2021 2:30:00 PM 13 55.4 0.817 8.2 4.09 11.93
4/1/2021 2:45:00 PM 13.03 55.454 0.819 8.21 4.28 11.88
4/1/2021 3:00:00 PM 13.1 55.58 0.818 8.22 4.15 11.99
4/1/2021 3:15:00 PM 13.14 55.652 0.815 8.23 4.15 11.97
4/1/2021 3:30:00 PM 13.16 55.688 0.813 8.23 3.96 11.92
4/1/2021 3:45:00 PM 13.14 55.652 0.808 8.24 4.04 11.89
4/1/2021 4:00:00 PM 13.13 55.634 0.802 8.24 4.31 11.86
4/1/2021 4:15:00 PM 13.11 55.598 0.798 8.24 3.96 11.83
4/1/2021 4:30:00 PM 13.07 55.526 0.798 8.24 4.53 11.73
4/1/2021 4:45:00 PM 13.02 55.436 0.799 8.22 4.04 11.57
4/1/2021 5:00:00 PM 12.95 55.31 0.8 8.21 4.14 11.35
4/1/2021 5:15:00 PM 12.89 55.202 0.8 8.19 4.14 11.24
4/1/2021 5:30:00 PM 12.84 55.112 0.799 8.19 4.18 11.24
4/1/2021 5:45:00 PM 12.77 54.986 0.798 8.18 4.35 11.06
4/1/2021 6:00:00 PM 12.71 54.878 0.799 8.16 4.25 10.9
4/1/2021 6:15:00 PM 12.62 54.716 0.798 8.15 4.2 10.79
4/1/2021 6:30:00 PM 12.52 54.536 0.799 8.14 4.18 10.73
4/1/2021 6:45:00 PM 12.44 54.392 0.8 8.12 4.23 10.6
4/1/2021 7:00:00 PM 12.32 54.176 0.801 8.11 4.26 10.48
4/1/2021 7:15:00 PM 12.22 53.996 0.802 8.09 4.19 10.34
4/1/2021 7:30:00 PM 12.1 53.78 0.802 8.07 4.17 10.2
4/1/2021 7:45:00 PM 11.99 53.582 0.805 8.06 4.49 10.07
4/1/2021 8:00:00 PM 11.87 53.366 0.807 8.04 5.07 9.96
4/1/2021 8:15:00 PM 11.76 53.168 0.808 8.03 4.92 9.86
4/1/2021 8:30:00 PM 11.65 52.97 0.811 8.02 4.97 9.78
4/1/2021 8:45:00 PM 11.54 52.772 0.814 8 4.8 9.69
4/1/2021 9:00:00 PM 11.43 52.574 0.817 7.99 4.94 9.62
4/1/2021 9:15:00 PM 11.31 52.358 0.82 7.98 5.18 9.55
4/1/2021 9:30:00 PM 11.2 52.16 0.823 7.97 5.11 9.5
4/1/2021 9:45:00 PM 11.08 51.944 0.825 7.96 5.01 9.44
4/1/2021 10:00:00 PM 10.99 51.782 0.827 7.96 4.91 9.4
4/1/2021 10:15:00 PM 10.89 51.602 0.831 7.95 4.77 9.35
4/1/2021 10:30:00 PM 10.8 51.44 0.835 7.94 4.84 9.31
4/1/2021 10:45:00 PM 10.71 51.278 0.838 7.94 5.06 9.28
4/1/2021 11:00:00 PM 10.62 51.116 0.839 7.93 5 9.26
4/1/2021 11:15:00 PM 10.54 50.972 0.84 7.93 5.3 9.25
4/1/2021 11:30:00 PM 10.45 50.81 0.841 7.92 5.49 9.24
4/1/2021 11:45:00 PM 10.37 50.666 0.841 7.92 5.17 9.24
4/2/2021 12:00:00 AM 10.3 50.54 0.842 7.92 4.89 9.25
4/2/2021 12:15:00 AM 10.23 50.414 0.843 7.92 4.83 9.25
4/2/2021 12:30:00 AM 10.16 50.288 0.842 7.91 4.9 9.26
4/2/2021 12:45:00 AM 10.11 50.198 0.842 7.91 4.85 9.27
4/2/2021 1:00:00 AM 10.04 50.072 0.841 7.91 4.76 9.29
4/2/2021 1:15:00 AM 9.98 49.964 0.841 7.91 5.03 9.29
4/2/2021 1:30:00 AM 9.92 49.856 0.839 7.91 4.99 9.31
4/2/2021 1:45:00 AM 9.85 49.73 0.837 7.91 5.13 9.31
4/2/2021 2:00:00 AM 9.79 49.622 0.835 7.91 4.96 9.35
4/2/2021 2:15:00 AM 9.73 49.514 0.833 7.91 4.75 9.35
4/2/2021 2:30:00 AM 9.68 49.424 0.832 7.92 4.83 9.38
4/2/2021 2:45:00 AM 9.63 49.334 0.831 7.92 5.19 9.39
4/2/2021 3:00:00 AM 9.58 49.244 0.828 7.92 4.98 9.4
4/2/2021 3:15:00 AM 9.55 49.19 0.824 7.92 4.74 9.41
4/2/2021 3:30:00 AM 9.5 49.1 0.82 7.92 4.85 9.43
4/2/2021 3:45:00 AM 9.45 49.01 0.817 7.92 4.83 9.45
4/2/2021 4:00:00 AM 9.41 48.938 0.814 7.92 4.95 9.47
4/2/2021 4:15:00 AM 9.35 48.83 0.812 7.92 4.84 9.48
4/2/2021 4:30:00 AM 9.32 48.776 0.81 7.92 4.94 9.49
4/2/2021 4:45:00 AM 9.28 48.704 0.807 7.93 4.84 9.51
4/2/2021 5:00:00 AM 9.23 48.614 0.803 7.93 4.83 9.53
4/2/2021 5:15:00 AM 9.17 48.506 0.8 7.93 4.53 9.55
4/2/2021 5:30:00 AM 9.12 48.416 0.798 7.93 6.36 9.56
4/2/2021 5:45:00 AM 9.07 48.326 0.796 7.93 8.61 9.58
4/2/2021 6:00:00 AM 9.01 48.218 0.794 7.93 7.22 9.6
4/2/2021 6:15:00 AM 8.96 48.128 0.79 7.94 4.53 9.62
4/2/2021 6:30:00 AM 8.9 48.02 0.787 7.94 4.74 9.64
4/2/2021 6:45:00 AM 8.85 47.93 0.784 7.94 12.52 9.66
4/2/2021 7:00:00 AM 8.81 47.858 0.783 7.94 6.21 9.7
4/2/2021 7:15:00 AM 8.77 47.786 0.784 7.94 4.57 9.76
4/2/2021 7:30:00 AM 8.76 47.768 0.785 7.95 5.64 9.82
4/2/2021 7:45:00 AM 8.75 47.75 0.786 7.95 14.87 9.88
4/2/2021 8:00:00 AM 8.74 47.732 0.788 7.96 64.19 9.97
4/2/2021 8:15:00 AM 8.74 47.732 0.791 7.97 4.61 10.05
4/2/2021 8:30:00 AM 8.75 47.75 0.793 7.98 12.8 10.22
4/2/2021 8:45:00 AM 8.77 47.786 0.793 7.98 5 10.33
4/2/2021 9:00:00 AM 8.82 47.876 0.793 8 7.25 10.45
4/2/2021 9:15:00 AM 8.84 47.912 0.791 8 3.88 10.58
4/2/2021 9:30:00 AM 8.89 48.002 0.789 8.02 3.99 10.72
4/2/2021 9:45:00 AM 8.97 48.146 0.788 8.03 3.71 10.91
4/2/2021 10:00:00 AM 9.09 48.362 0.788 8.05 4.04 11.11
4/2/2021 10:15:00 AM 9.23 48.614 0.789 8.07 3.93 11.25
4/2/2021 10:30:00 AM 9.39 48.902 0.792 8.08 4.01 11.42
4/2/2021 10:45:00 AM 9.53 49.154 0.796 8.1 3.89 11.55
4/2/2021 11:00:00 AM 9.73 49.514 0.801 8.11 3.88 11.7
4/2/2021 11:15:00 AM 9.94 49.892 0.808 8.13 3.84 11.84
4/2/2021 11:30:00 AM 10.12 50.216 0.816 8.14 3.76 11.94
4/2/2021 11:45:00 AM 10.36 50.648 0.823 8.16 3.94 12.1
4/2/2021 12:00:00 PM 10.57 51.026 0.832 8.17 3.83 12.18
4/2/2021 12:15:00 PM 10.81 51.458 0.838 8.19 4.16 12.31
4/2/2021 12:30:00 PM 11.03 51.854 0.845 8.2 3.73 12.39
4/2/2021 12:45:00 PM 11.29 52.322 0.85 8.22 3.82 12.49
4/2/2021 1:00:00 PM 11.55 52.79 0.856 8.23 3.68 12.56
4/2/2021 1:15:00 PM 11.81 53.258 0.863 8.25 3.71 12.62
4/2/2021 1:30:00 PM 12.05 53.69 0.869 8.26 3.6 12.66
4/2/2021 1:45:00 PM 12.28 54.104 0.873 8.27 3.56 12.7
4/2/2021 2:00:00 PM 12.48 54.464 0.876 8.28 3.57 12.74
4/2/2021 2:15:00 PM 12.64 54.752 0.877 8.29 3.49 12.7
4/2/2021 2:30:00 PM 12.81 55.058 0.879 8.3 3.43 12.67
4/2/2021 2:45:00 PM 12.96 55.328 0.88 8.3 3.33 12.67
4/2/2021 3:00:00 PM 13.09 55.562 0.879 8.31 3.47 12.64
4/2/2021 3:15:00 PM 13.19 55.742 0.877 8.31 3.48 12.59
4/2/2021 3:30:00 PM 13.26 55.868 0.875 8.31 3.52 12.53
4/2/2021 3:45:00 PM 13.29 55.922 0.873 8.31 3.55 12.45
4/2/2021 4:00:00 PM 13.33 55.994 0.871 8.31 3.75 12.36
4/2/2021 4:15:00 PM 13.34 56.012 0.871 8.31 3.91 12.25
4/2/2021 4:30:00 PM 13.36 56.048 0.872 8.3 3.78 12.14
4/2/2021 4:45:00 PM 13.34 56.012 0.872 8.29 3.74 12.03
4/2/2021 5:00:00 PM 13.31 55.958 0.87 8.29 3.79 11.9
4/2/2021 5:15:00 PM 13.27 55.886 0.868 8.28 3.78 11.76
4/2/2021 5:30:00 PM 13.2 55.76 0.867 8.27 3.67 11.61
4/2/2021 5:45:00 PM 13.12 55.616 0.866 8.25 3.8 11.45
4/2/2021 6:00:00 PM 13.03 55.454 0.866 8.23 3.89 11.26
4/2/2021 6:15:00 PM 12.94 55.292 0.867 8.21 4.21 11.08
4/2/2021 6:30:00 PM 12.83 55.094 0.867 8.19 4.29 10.9
4/2/2021 6:45:00 PM 12.72 54.896 0.868 8.17 4.07 10.75
4/2/2021 7:00:00 PM 12.58 54.644 0.868 8.16 4.14 10.61
4/2/2021 7:15:00 PM 12.46 54.428 0.868 8.14 4.34 10.47
4/2/2021 7:30:00 PM 12.35 54.23 0.868 8.12 4.43 10.35
4/2/2021 7:45:00 PM 12.24 54.032 0.869 8.1 4.32 10.22
4/2/2021 8:00:00 PM 12.13 53.834 0.868 8.09 4.45 10.12
4/2/2021 8:15:00 PM 12.01 53.618 0.867 8.07 4.73 10.02
4/2/2021 8:30:00 PM 11.87 53.366 0.865 8.06 4.52 9.93
4/2/2021 8:45:00 PM 11.74 53.132 0.864 8.04 4.59 9.86
4/2/2021 9:00:00 PM 11.6 52.88 0.864 8.03 4.56 9.77
4/2/2021 9:15:00 PM 11.46 52.628 0.864 8.02 4.53 9.68
4/2/2021 9:30:00 PM 11.32 52.376 0.865 8 4.61 9.59
4/2/2021 9:45:00 PM 11.18 52.124 0.866 7.99 4.59 9.51
4/2/2021 10:00:00 PM 11.05 51.89 0.868 7.97 4.54 9.44
4/2/2021 10:15:00 PM 10.92 51.656 0.869 7.96 4.97 9.4
4/2/2021 10:30:00 PM 10.8 51.44 0.869 7.95 4.8 9.35
4/2/2021 10:45:00 PM 10.68 51.224 0.868 7.94 4.57 9.32
4/2/2021 11:00:00 PM 10.57 51.026 0.867 7.94 4.64 9.29
4/2/2021 11:15:00 PM 10.46 50.828 0.866 7.93 4.54 9.28
4/2/2021 11:30:00 PM 10.36 50.648 0.864 7.92 4.62 9.26
4/2/2021 11:45:00 PM 10.27 50.486 0.863 7.92 4.99 9.26
4/3/2021 12:00:00 AM 10.18 50.324 0.862 7.92 4.85 9.26
4/3/2021 12:15:00 AM 10.09 50.162 0.861 7.91 4.86 9.26
4/3/2021 12:30:00 AM 10.01 50.018 0.86 7.91 4.76 9.27
4/3/2021 12:45:00 AM 9.93 49.874 0.858 7.91 4.91 9.28
4/3/2021 1:00:00 AM 9.85 49.73 0.858 7.91 4.83 9.3
4/3/2021 1:15:00 AM 9.78 49.604 0.858 7.91 4.71 9.31
4/3/2021 1:30:00 AM 9.71 49.478 0.858 7.91 4.61 9.33
4/3/2021 1:45:00 AM 9.65 49.37 0.856 7.91 4.7 9.34
4/3/2021 2:00:00 AM 9.59 49.262 0.853 7.91 5.02 9.36
4/3/2021 2:15:00 AM 9.53 49.154 0.85 7.91 4.84 9.37
4/3/2021 2:30:00 AM 9.47 49.046 0.847 7.91 4.63 9.4
4/3/2021 2:45:00 AM 9.4 48.92 0.844 7.91 4.79 9.42
4/3/2021 3:00:00 AM 9.34 48.812 0.843 7.91 4.63 9.43
4/3/2021 3:15:00 AM 9.29 48.722 0.841 7.91 4.72 9.46
4/3/2021 3:30:00 AM 9.22 48.596 0.837 7.91 4.57 9.48
4/3/2021 3:45:00 AM 9.16 48.488 0.831 7.91 4.7 9.5
4/3/2021 4:00:00 AM 9.1 48.38 0.826 7.91 4.8 9.53
4/3/2021 4:15:00 AM 9.04 48.272 0.82 7.92 5.02 9.55
4/3/2021 4:30:00 AM 8.98 48.164 0.815 7.92 4.9 9.57
4/3/2021 4:45:00 AM 8.93 48.074 0.81 7.92 4.55 9.6
4/3/2021 5:00:00 AM 8.88 47.984 0.806 7.92 4.72 9.62
4/3/2021 5:15:00 AM 8.84 47.912 0.803 7.92 4.91 9.64
4/3/2021 5:30:00 AM 8.79 47.822 0.801 7.92 5.13 9.65
4/3/2021 5:45:00 AM 8.75 47.75 0.798 7.93 4.51 9.67
4/3/2021 6:00:00 AM 8.71 47.678 0.795 7.93 4.53 9.71
4/3/2021 6:15:00 AM 8.67 47.606 0.791 7.93 4.35 9.7
4/3/2021 6:30:00 AM 8.63 47.534 0.789 7.93 4.2 9.71
4/3/2021 6:45:00 AM 8.6 47.48 0.788 7.93 4.3 9.74
4/3/2021 7:00:00 AM 8.57 47.426 0.788 7.93 4.03 9.77
4/3/2021 7:15:00 AM 8.56 47.408 0.789 7.93 4.03 9.83
4/3/2021 7:30:00 AM 8.55 47.39 0.79 7.94 4.11 9.87
4/3/2021 7:45:00 AM 8.54 47.372 0.79 7.94 4.21 9.95
4/3/2021 8:00:00 AM 8.54 47.372 0.791 7.95 4.04 10.02
4/3/2021 8:15:00 AM 8.56 47.408 0.793 7.95 4.51 10.09
4/3/2021 8:30:00 AM 8.61 47.498 0.794 7.96 4.26 10.22
4/3/2021 8:45:00 AM 8.66 47.588 0.793 7.97 3.9 10.31
4/3/2021 9:00:00 AM 8.72 47.696 0.792 7.98 4.06 10.44
4/3/2021 9:15:00 AM 8.8 47.84 0.79 7.99 3.83 10.6
4/3/2021 9:30:00 AM 8.9 48.02 0.789 8.01 4.08 10.74
4/3/2021 9:45:00 AM 9.02 48.236 0.788 8.02 3.91 10.87
4/3/2021 10:00:00 AM 9.15 48.47 0.788 8.03 4.07 11.02
4/3/2021 10:15:00 AM 9.32 48.776 0.787 8.05 3.89 11.18
4/3/2021 10:30:00 AM 9.51 49.118 0.788 8.06 3.69 11.32
4/3/2021 10:45:00 AM 9.71 49.478 0.79 8.08 4.16 11.46
4/3/2021 11:00:00 AM 9.94 49.892 0.795 8.09 3.87 11.6
4/3/2021 11:15:00 AM 10.19 50.342 0.8 8.11 3.59 11.76
4/3/2021 11:30:00 AM 10.46 50.828 0.805 8.13 3.77 11.9
4/3/2021 11:45:00 AM 10.75 51.35 0.812 8.14 3.62 12.03
4/3/2021 12:00:00 PM 11.05 51.89 0.819 8.16 3.63 12.17
4/3/2021 12:15:00 PM 11.35 52.43 0.825 8.18 3.63 12.28
4/3/2021 12:30:00 PM 11.66 52.988 0.832 8.19 3.6 12.37
4/3/2021 12:45:00 PM 11.97 53.546 0.838 8.21 3.45 12.45
4/3/2021 1:00:00 PM 12.29 54.122 0.842 8.22 3.5 12.52
4/3/2021 1:15:00 PM 12.59 54.662 0.844 8.24 3.44 12.57
4/3/2021 1:30:00 PM 12.87 55.166 0.847 8.25 3.45 12.6
4/3/2021 1:45:00 PM 13.14 55.652 0.85 8.26 3.5 12.61
4/3/2021 2:00:00 PM 13.38 56.084 0.853 8.27 3.37 12.62
4/3/2021 2:15:00 PM 13.6 56.48 0.857 8.28 3.4 12.61
4/3/2021 2:30:00 PM 13.73 56.714 0.859 8.28 3.47 12.54
4/3/2021 2:45:00 PM 13.92 57.056 0.861 8.28 3.44 12.52
4/3/2021 3:00:00 PM 14.09 57.362 0.863 8.29 3.43 12.5
4/3/2021 3:15:00 PM 14.21 57.578 0.865 8.29 3.69 12.41
4/3/2021 3:30:00 PM 14.34 57.812 0.866 8.29 3.81 12.35
4/3/2021 3:45:00 PM 14.43 57.974 0.865 8.29 3.95 12.27
4/3/2021 4:00:00 PM 14.46 58.028 0.863 8.29 3.92 12.15
4/3/2021 4:15:00 PM 14.48 58.064 0.861 8.29 3.81 12.06
4/3/2021 4:30:00 PM 14.49 58.082 0.861 8.28 3.96 11.95
4/3/2021 4:45:00 PM 14.48 58.064 0.861 8.27 4.01 11.85
4/3/2021 5:00:00 PM 14.43 57.974 0.861 8.26 3.63 11.71
4/3/2021 5:15:00 PM 14.42 57.956 0.86 8.26 3.58 11.61
4/3/2021 5:30:00 PM 14.4 57.92 0.858 8.25 3.81 11.53
4/3/2021 5:45:00 PM 14.36 57.848 0.856 8.24 3.87 11.35
4/3/2021 6:00:00 PM 14.31 57.758 0.854 8.22 3.94 11.21
4/3/2021 6:15:00 PM 14.2 57.56 0.854 8.21 3.91 11.01
4/3/2021 6:30:00 PM 14.11 57.398 0.854 8.19 4.11 10.84
4/3/2021 6:45:00 PM 14 57.2 0.855 8.17 4.05 10.7
4/3/2021 7:00:00 PM 13.89 57.002 0.855 8.15 3.95 10.53
4/3/2021 7:15:00 PM 13.79 56.822 0.854 8.13 4.06 10.36
4/3/2021 7:30:00 PM 13.66 56.588 0.853 8.11 4.28 10.21
4/3/2021 7:45:00 PM 13.53 56.354 0.854 8.1 4.25 10.07
4/3/2021 8:00:00 PM 13.4 56.12 0.856 8.08 4.25 9.95
4/3/2021 8:15:00 PM 13.27 55.886 0.857 8.06 4.56 9.85
4/3/2021 8:30:00 PM 13.14 55.652 0.857 8.05 4.54 9.76
4/3/2021 8:45:00 PM 13.01 55.418 0.856 8.03 4.55 9.66
4/3/2021 9:00:00 PM 12.87 55.166 0.855 8.02 4.51 9.58
4/3/2021 9:15:00 PM 12.74 54.932 0.855 8.01 4.76 9.48
4/3/2021 9:30:00 PM 12.61 54.698 0.857 7.99 4.88 9.38
4/3/2021 9:45:00 PM 12.5 54.5 0.857 7.98 5.08 9.29
4/3/2021 10:00:00 PM 12.38 54.284 0.858 7.96 4.88 9.2
4/3/2021 10:15:00 PM 12.26 54.068 0.858 7.95 5.3 9.13
4/3/2021 10:30:00 PM 12.16 53.888 0.858 7.94 4.72 9.06
4/3/2021 10:45:00 PM 12.05 53.69 0.857 7.93 5.39 9.01
4/3/2021 11:00:00 PM 11.96 53.528 0.857 7.92 4.89 8.96
4/3/2021 11:15:00 PM 11.87 53.366 0.858 7.91 4.53 8.93
4/3/2021 11:30:00 PM 11.79 53.222 0.859 7.9 4.51 8.9
4/3/2021 11:45:00 PM 11.71 53.078 0.859 7.89 5.01 8.88
4/4/2021 12:00:00 AM 11.65 52.97 0.857 7.89 4.93 8.87
4/4/2021 12:15:00 AM 11.59 52.862 0.855 7.89 4.86 8.86
4/4/2021 12:30:00 AM 11.54 52.772 0.854 7.88 5.19 8.86
4/4/2021 12:45:00 AM 11.49 52.682 0.854 7.88 5.44 8.86
4/4/2021 1:00:00 AM 11.44 52.592 0.854 7.88 5.25 8.85
4/4/2021 1:15:00 AM 11.4 52.52 0.853 7.87 4.92 8.85
4/4/2021 1:30:00 AM 11.36 52.448 0.852 7.87 4.83 8.85
4/4/2021 1:45:00 AM 11.32 52.376 0.85 7.87 5.08 8.85
4/4/2021 2:00:00 AM 11.28 52.304 0.849 7.87 5.1 8.86
4/4/2021 2:15:00 AM 11.24 52.232 0.847 7.87 4.6 8.88
4/4/2021 2:30:00 AM 11.21 52.178 0.844 7.87 4.8 8.86
4/4/2021 2:45:00 AM 11.18 52.124 0.84 7.87 4.77 8.89
4/4/2021 3:00:00 AM 11.14 52.052 0.835 7.87 5.31 8.88
4/4/2021 3:15:00 AM 11.11 51.998 0.831 7.87 4.97 8.9
4/4/2021 3:30:00 AM 11.08 51.944 0.826 7.87 4.95 8.92
4/4/2021 3:45:00 AM 11.06 51.908 0.823 7.87 5 8.91
4/4/2021 4:00:00 AM 11.03 51.854 0.822 7.87 4.79 8.92
4/4/2021 4:15:00 AM 11.01 51.818 0.82 7.87 5.18 8.94
4/4/2021 4:30:00 AM 10.98 51.764 0.817 7.87 5.99 8.93
4/4/2021 4:45:00 AM 10.95 51.71 0.811 7.87 5.47 8.96
4/4/2021 5:00:00 AM 10.92 51.656 0.808 7.87 5.24 8.95
4/4/2021 5:15:00 AM 10.89 51.602 0.805 7.88 5.49 8.97
4/4/2021 5:30:00 AM 10.87 51.566 0.803 7.88 5.38 8.98
4/4/2021 5:45:00 AM 10.84 51.512 0.801 7.88 5.83 8.99
4/4/2021 6:00:00 AM 10.82 51.476 0.797 7.88 4.81 9
4/4/2021 6:15:00 AM 10.79 51.422 0.792 7.88 4.74 9.01
4/4/2021 6:30:00 AM 10.76 51.368 0.787 7.89 4.72 9.03
4/4/2021 6:45:00 AM 10.73 51.314 0.784 7.89 4.43 9.04
4/4/2021 7:00:00 AM 10.7 51.26 0.783 7.89 4.37 9.06
4/4/2021 7:15:00 AM 10.69 51.242 0.783 7.89 4.8 9.09
4/4/2021 7:30:00 AM 10.68 51.224 0.783 7.89 4.63 9.12
4/4/2021 7:45:00 AM 10.68 51.224 0.783 7.9 4.24 9.17
4/4/2021 8:00:00 AM 10.68 51.224 0.782 7.9 4.26 9.24
4/4/2021 8:15:00 AM 10.69 51.242 0.782 7.91 4.26 9.34
4/4/2021 8:30:00 AM 10.71 51.278 0.783 7.91 4.01 9.42
4/4/2021 8:45:00 AM 10.74 51.332 0.784 7.92 3.8 9.54
4/4/2021 9:00:00 AM 10.77 51.386 0.784 7.93 3.8 9.67
4/4/2021 9:15:00 AM 10.84 51.512 0.783 7.94 3.85 9.87
4/4/2021 9:30:00 AM 10.94 51.692 0.782 7.96 4.04 10.07
4/4/2021 9:45:00 AM 11.04 51.872 0.78 7.98 4.13 10.23
4/4/2021 10:00:00 AM 11.14 52.052 0.779 7.99 4.04 10.37
4/4/2021 10:15:00 AM 11.27 52.286 0.779 8 4.07 10.54
4/4/2021 10:30:00 AM 11.44 52.592 0.78 8.02 4.28 10.71
4/4/2021 10:45:00 AM 11.62 52.916 0.784 8.04 3.83 10.88
4/4/2021 11:00:00 AM 11.83 53.294 0.788 8.05 4.08 11.03
4/4/2021 11:15:00 AM 12.05 53.69 0.793 8.07 4.2 11.19
4/4/2021 11:30:00 AM 12.29 54.122 0.798 8.08 4.08 11.34
4/4/2021 11:45:00 AM 12.54 54.572 0.804 8.1 4.26 11.49
4/4/2021 12:00:00 PM 12.82 55.076 0.81 8.12 3.96 11.64
4/4/2021 12:15:00 PM 13.09 55.562 0.817 8.14 4.23 11.78
4/4/2021 12:30:00 PM 13.38 56.084 0.823 8.16 3.87 11.91
4/4/2021 12:45:00 PM 13.67 56.606 0.83 8.18 3.69 12.03
4/4/2021 1:00:00 PM 13.96 57.128 0.835 8.19 5.06 12.12
4/4/2021 1:15:00 PM 14.26 57.668 0.839 8.21 3.89 12.2
4/4/2021 1:30:00 PM 14.53 58.154 0.84 8.23 3.7 12.26
4/4/2021 1:45:00 PM 14.78 58.604 0.84 8.24 3.85 12.3
4/4/2021 2:00:00 PM 15.03 59.054 0.842 8.26 3.86 12.32
4/4/2021 2:15:00 PM 15.24 59.432 0.845 8.27 3.98 12.31
4/4/2021 2:30:00 PM 15.45 59.81 0.848 8.27 3.78 12.29
4/4/2021 2:45:00 PM 15.63 60.134 0.852 8.28 3.99 12.26
4/4/2021 3:00:00 PM 15.79 60.422 0.855 8.29 3.95 12.23
4/4/2021 3:15:00 PM 15.94 60.692 0.857 8.29 3.99 12.17
4/4/2021 3:30:00 PM 16.08 60.944 0.858 8.29 4.06 12.1
4/4/2021 3:45:00 PM 16.22 61.196 0.86 8.3 4.01 12.08
4/4/2021 4:00:00 PM 16.3 61.34 0.86 8.29 3.99 11.92
4/4/2021 4:15:00 PM 16.37 61.466 0.859 8.29 3.98 11.85
4/4/2021 4:30:00 PM 16.37 61.466 0.858 8.28 3.95 11.65
4/4/2021 4:45:00 PM 16.32 61.376 0.857 8.26 4.03 11.37
4/4/2021 5:00:00 PM 16.31 61.358 0.856 8.26 3.97 11.31
4/4/2021 5:15:00 PM 16.25 61.25 0.855 8.25 4.21 11.18
4/4/2021 5:30:00 PM 16.2 61.16 0.854 8.24 4.19 11.02
4/4/2021 5:45:00 PM 16.16 61.088 0.852 8.23 4.2 10.84
4/4/2021 6:00:00 PM 16.11 60.998 0.851 8.21 4.34 10.67
4/4/2021 6:15:00 PM 16.02 60.836 0.85 8.19 4.43 10.44
4/4/2021 6:30:00 PM 15.93 60.674 0.849 8.17 4.56 10.27
4/4/2021 6:45:00 PM 15.82 60.476 0.849 8.15 4.48 10.09
4/4/2021 7:00:00 PM 15.7 60.26 0.85 8.13 4.57 9.94
4/4/2021 7:15:00 PM 15.56 60.008 0.85 8.11 4.5 9.78
4/4/2021 7:30:00 PM 15.42 59.756 0.849 8.09 4.54 9.64
4/4/2021 7:45:00 PM 15.27 59.486 0.848 8.08 4.62 9.49
4/4/2021 8:00:00 PM 15.13 59.234 0.846 8.06 5.03 9.36
4/4/2021 8:15:00 PM 14.99 58.982 0.845 8.04 5.14 9.26
4/4/2021 8:30:00 PM 14.84 58.712 0.844 8.03 5.16 9.17
4/4/2021 8:45:00 PM 14.69 58.442 0.845 8.01 5.41 9.08
4/4/2021 9:00:00 PM 14.54 58.172 0.845 8 5.3 9
4/4/2021 9:15:00 PM 14.37 57.866 0.846 7.99 5.49 8.93
4/4/2021 9:30:00 PM 14.2 57.56 0.846 7.97 5.33 8.84
4/4/2021 9:45:00 PM 14.04 57.272 0.846 7.96 5.59 8.76
4/4/2021 10:00:00 PM 13.87 56.966 0.846 7.95 5.67 8.7
4/4/2021 10:15:00 PM 13.72 56.696 0.846 7.94 5.15 8.64
4/4/2021 10:30:00 PM 13.56 56.408 0.847 7.93 5.14 8.6
4/4/2021 10:45:00 PM 13.41 56.138 0.848 7.92 5.26 8.56
4/4/2021 11:00:00 PM 13.27 55.886 0.848 7.91 5.19 8.53
4/4/2021 11:15:00 PM 13.14 55.652 0.848 7.9 5.37 8.51
4/4/2021 11:30:00 PM 13.01 55.418 0.848 7.9 5.05 8.49
4/4/2021 11:45:00 PM 12.9 55.22 0.848 7.89 5.03 8.49
4/5/2021 12:00:00 AM 12.79 55.022 0.849 7.89 4.92 8.49
4/5/2021 12:15:00 AM 12.69 54.842 0.85 7.88 4.94 8.49
4/5/2021 12:30:00 AM 12.59 54.662 0.851 7.88 5.04 8.49
4/5/2021 12:45:00 AM 12.5 54.5 0.851 7.88 5.17 8.5
4/5/2021 1:00:00 AM 12.4 54.32 0.852 7.88 5.02 8.52
4/5/2021 1:15:00 AM 12.31 54.158 0.854 7.87 5.03 8.53
4/5/2021 1:30:00 AM 12.22 53.996 0.855 7.87 5.07 8.55
4/5/2021 1:45:00 AM 12.13 53.834 0.855 7.87 5.02 8.55
4/5/2021 2:00:00 AM 12.04 53.672 0.853 7.87 5.03 8.57
4/5/2021 2:15:00 AM 11.96 53.528 0.849 7.87 5.21 8.6
4/5/2021 2:30:00 AM 11.87 53.366 0.846 7.87 4.98 8.62
4/5/2021 2:45:00 AM 11.79 53.222 0.843 7.88 5.14 8.64
4/5/2021 3:00:00 AM 11.7 53.06 0.841 7.88 5.38 8.67
4/5/2021 3:15:00 AM 11.62 52.916 0.837 7.88 5.38 8.69
4/5/2021 3:30:00 AM 11.53 52.754 0.832 7.88 5.18 8.71
4/5/2021 3:45:00 AM 11.45 52.61 0.827 7.88 5.39 8.74
4/5/2021 4:00:00 AM 11.37 52.466 0.822 7.89 5.31 8.77
4/5/2021 4:15:00 AM 11.29 52.322 0.816 7.89 5.48 8.81
4/5/2021 4:30:00 AM 11.22 52.196 0.811 7.89 5.29 8.83
4/5/2021 4:45:00 AM 11.14 52.052 0.806 7.89 5.3 8.86
4/5/2021 5:00:00 AM 11.07 51.926 0.801 7.9 5.07 8.9
4/5/2021 5:15:00 AM 11 51.8 0.798 7.9 5.15 8.92
4/5/2021 5:30:00 AM 10.93 51.674 0.795 7.9 5.2 8.94
4/5/2021 5:45:00 AM 10.86 51.548 0.792 7.9 5.56 8.96
4/5/2021 6:00:00 AM 10.8 51.44 0.79 7.9 5.42 8.99
4/5/2021 6:15:00 AM 10.74 51.332 0.786 7.9 5.44 9.02
4/5/2021 6:30:00 AM 10.68 51.224 0.784 7.91 5.12 9.03
4/5/2021 6:45:00 AM 10.63 51.134 0.782 7.91 5.24 9.06
4/5/2021 7:00:00 AM 10.59 51.062 0.781 7.91 5.17 9.1
4/5/2021 7:15:00 AM 10.56 51.008 0.781 7.91 5.07 9.15
4/5/2021 7:30:00 AM 10.54 50.972 0.783 7.92 4.72 9.21
4/5/2021 7:45:00 AM 10.53 50.954 0.783 7.92 4.67 9.29
4/5/2021 8:00:00 AM 10.53 50.954 0.785 7.93 4.78 9.37
4/5/2021 8:15:00 AM 10.55 50.99 0.786 7.93 4.47 9.46
4/5/2021 8:30:00 AM 10.6 51.08 0.786 7.94 4.44 9.58
4/5/2021 8:45:00 AM 10.66 51.188 0.787 7.95 4.46 9.7
4/5/2021 9:00:00 AM 10.73 51.314 0.788 7.96 4.34 9.84
4/5/2021 9:15:00 AM 10.81 51.458 0.788 7.97 4.32 9.99
4/5/2021 9:30:00 AM 10.91 51.638 0.787 7.99 4.27 10.13
4/5/2021 9:45:00 AM 11.04 51.872 0.788 8 4.36 10.29
4/5/2021 10:00:00 AM 11.19 52.142 0.789 8.01 4.53 10.43
4/5/2021 10:15:00 AM 11.37 52.466 0.791 8.03 4.38 10.6
4/5/2021 10:30:00 AM 11.57 52.826 0.792 8.04 4.72 10.75
4/5/2021 10:45:00 AM 11.78 53.204 0.796 8.06 4.51 10.91
4/5/2021 11:00:00 AM 12 53.6 0.801 8.08 4.5 11.06
4/5/2021 11:15:00 AM 12.25 54.05 0.808 8.09 4.61 11.2
4/5/2021 11:30:00 AM 12.5 54.5 0.815 8.11 4.56 11.35
4/5/2021 11:45:00 AM 12.76 54.968 0.824 8.13 4.19 11.48
4/5/2021 12:00:00 PM 13.05 55.49 0.831 8.15 4.45 11.62
4/5/2021 12:15:00 PM 13.34 56.012 0.837 8.17 4.29 11.76
4/5/2021 12:30:00 PM 13.64 56.552 0.841 8.19 4.04 11.87
4/5/2021 12:45:00 PM 13.95 57.11 0.847 8.2 4.07 11.96
4/5/2021 1:00:00 PM 14.26 57.668 0.854 8.22 4.56 12.05
4/5/2021 1:15:00 PM 14.55 58.19 0.861 8.23 4.59 12.1
4/5/2021 1:30:00 PM 14.78 58.604 0.865 8.25 4.42 12.11
4/5/2021 1:45:00 PM 14.99 58.982 0.865 8.26 4.33 12.14
4/5/2021 2:00:00 PM 15.23 59.414 0.864 8.27 4.01 12.18
4/5/2021 2:15:00 PM 15.43 59.774 0.861 8.29 4.15 12.19
4/5/2021 2:30:00 PM 15.64 60.152 0.858 8.29 3.91 12.17
4/5/2021 2:45:00 PM 15.81 60.458 0.858 8.3 4.26 12.14
4/5/2021 3:00:00 PM 15.97 60.746 0.86 8.31 4.04 12.1
4/5/2021 3:15:00 PM 16.12 61.016 0.862 8.31 4.51 12.03
4/5/2021 3:30:00 PM 16.23 61.214 0.863 8.31 4.4 11.96
4/5/2021 3:45:00 PM 16.33 61.394 0.863 8.31 4.44 11.89
4/5/2021 4:00:00 PM 16.37 61.466 0.862 8.3 4.28 11.77
4/5/2021 4:15:00 PM 16.36 61.448 0.86 8.3 4.42 11.62
4/5/2021 4:30:00 PM 16.37 61.466 0.86 8.3 4.53 11.56
4/5/2021 4:45:00 PM 16.37 61.466 0.861 8.29 4.82 11.45
4/5/2021 5:00:00 PM 16.36 61.448 0.861 8.28 4.2 11.31
4/5/2021 5:15:00 PM 16.33 61.394 0.861 8.27 4.51 11.15
4/5/2021 5:30:00 PM 16.29 61.322 0.86 8.26 4.49 10.99
4/5/2021 5:45:00 PM 16.22 61.196 0.861 8.24 4.66 10.74
4/5/2021 6:00:00 PM 16.15 61.07 0.861 8.22 4.97 10.57
4/5/2021 6:15:00 PM 16.05 60.89 0.862 8.2 4.57 10.41
4/5/2021 6:30:00 PM 15.95 60.71 0.861 8.18 4.77 10.23
4/5/2021 6:45:00 PM 15.88 60.584 0.86 8.17 4.66 10.1
4/5/2021 7:00:00 PM 15.79 60.422 0.859 8.15 4.88 9.95
4/5/2021 7:15:00 PM 15.7 60.26 0.859 8.13 4.97 9.79
4/5/2021 7:30:00 PM 15.6 60.08 0.857 8.11 7.51 9.63
4/5/2021 7:45:00 PM 15.48 59.864 0.857 8.09 5.39 9.5
4/5/2021 8:00:00 PM 15.36 59.648 0.858 8.07 5.87 9.38
4/5/2021 8:15:00 PM 15.23 59.414 0.861 8.06 5.29 9.27
4/5/2021 8:30:00 PM 15.09 59.162 0.863 8.04 5.33 9.16
4/5/2021 8:45:00 PM 14.96 58.928 0.865 8.02 5.73 9.05
4/5/2021 9:00:00 PM 14.83 58.694 0.866 8 5.61 8.95
4/5/2021 9:15:00 PM 14.7 58.46 0.866 7.98 5.52 8.84
4/5/2021 9:30:00 PM 14.57 58.226 0.867 7.97 5.36 8.74
4/5/2021 9:45:00 PM 14.45 58.01 0.867 7.95 5.35 8.66
4/5/2021 10:00:00 PM 14.33 57.794 0.867 7.94 5.34 8.59
4/5/2021 10:15:00 PM 14.21 57.578 0.868 7.93 5.49 8.52
4/5/2021 10:30:00 PM 14.09 57.362 0.869 7.91 5.37 8.46
4/5/2021 10:45:00 PM 13.98 57.164 0.87 7.9 5.47 8.4
4/5/2021 11:00:00 PM 13.87 56.966 0.87 7.89 5.48 8.35
4/5/2021 11:15:00 PM 13.77 56.786 0.871 7.88 5.19 8.32
4/5/2021 11:30:00 PM 13.69 56.642 0.873 7.88 5.12 8.29
4/5/2021 11:45:00 PM 13.6 56.48 0.875 7.87 5.08 8.27
4/6/2021 12:00:00 AM 13.53 56.354 0.877 7.86 5.23 8.25
4/6/2021 12:15:00 AM 13.46 56.228 0.877 7.86 5.13 8.23
4/6/2021 12:30:00 AM 13.41 56.138 0.878 7.85 5.3 8.23
4/6/2021 12:45:00 AM 13.36 56.048 0.879 7.85 5.23 8.23
4/6/2021 1:00:00 AM 13.31 55.958 0.88 7.85 5.34 8.22
4/6/2021 1:15:00 AM 13.27 55.886 0.88 7.84 5.37 8.22
4/6/2021 1:30:00 AM 13.22 55.796 0.877 7.84 5.37 8.22
4/6/2021 1:45:00 AM 13.18 55.724 0.874 7.84 5.62 8.23
4/6/2021 2:00:00 AM 13.14 55.652 0.871 7.85 5.23 8.24
4/6/2021 2:15:00 AM 13.1 55.58 0.868 7.85 5.12 8.25
4/6/2021 2:30:00 AM 13.05 55.49 0.865 7.85 4.92 8.26
4/6/2021 2:45:00 AM 13.01 55.418 0.861 7.85 5.13 8.27
4/6/2021 3:00:00 AM 12.97 55.346 0.856 7.85 5.29 8.28
4/6/2021 3:15:00 AM 12.93 55.274 0.852 7.85 5.68 8.29
4/6/2021 3:30:00 AM 12.88 55.184 0.847 7.85 5.52 8.31
4/6/2021 3:45:00 AM 12.81 55.058 0.843 7.86 5.64 8.33
4/6/2021 4:00:00 AM 12.73 54.914 0.839 7.86 5.43 8.35
4/6/2021 4:15:00 AM 12.65 54.77 0.835 7.86 6.04 8.36
4/6/2021 4:30:00 AM 12.58 54.644 0.832 7.87 5.92 8.38
4/6/2021 4:45:00 AM 12.5 54.5 0.828 7.87 6.09 8.41
4/6/2021 5:00:00 AM 12.43 54.374 0.824 7.87 6.39 8.43
4/6/2021 5:15:00 AM 12.35 54.23 0.82 7.87 5.64 8.46
4/6/2021 5:30:00 AM 12.27 54.086 0.816 7.87 6.21 8.48
4/6/2021 5:45:00 AM 12.2 53.96 0.812 7.88 6.32 8.5
4/6/2021 6:00:00 AM 12.11 53.798 0.808 7.88 6.06 8.53
4/6/2021 6:15:00 AM 12.04 53.672 0.804 7.88 5.86 8.56
4/6/2021 6:30:00 AM 11.96 53.528 0.801 7.89 5.46 8.59
4/6/2021 6:45:00 AM 11.89 53.402 0.799 7.89 5.47 8.62
4/6/2021 7:00:00 AM 11.82 53.276 0.797 7.89 5.17 8.67
4/6/2021 7:15:00 AM 11.76 53.168 0.798 7.89 5.13 8.74
4/6/2021 7:30:00 AM 11.71 53.078 0.801 7.9 5 8.8
4/6/2021 7:45:00 AM 11.67 53.006 0.803 7.9 5.02 8.89
4/6/2021 8:00:00 AM 11.65 52.97 0.805 7.91 4.76 8.98
4/6/2021 8:15:00 AM 11.63 52.934 0.807 7.92 4.72 9.09
4/6/2021 8:30:00 AM 11.65 52.97 0.808 7.93 4.73 9.22
4/6/2021 8:45:00 AM 11.69 53.042 0.809 7.94 4.7 9.35
4/6/2021 9:00:00 AM 11.74 53.132 0.81 7.95 4.88 9.49
4/6/2021 9:15:00 AM 11.81 53.258 0.81 7.96 4.53 9.64
4/6/2021 9:30:00 AM 11.9 53.42 0.809 7.97 4.48 9.8
4/6/2021 9:45:00 AM 11.99 53.582 0.809 7.98 4.83 9.97
4/6/2021 10:00:00 AM 12.11 53.798 0.809 7.99 4.73 10.13
4/6/2021 10:15:00 AM 12.27 54.086 0.81 8.01 5.06 10.32
4/6/2021 10:30:00 AM 12.44 54.392 0.815 8.03 4.84 10.47
4/6/2021 10:45:00 AM 12.64 54.752 0.822 8.04 4.96 10.62
4/6/2021 11:00:00 AM 12.85 55.13 0.831 8.06 4.85 10.77
4/6/2021 11:15:00 AM 13.1 55.58 0.842 8.07 4.83 10.92
4/6/2021 11:30:00 AM 13.37 56.066 0.852 8.08 4.68 11.07
4/6/2021 11:45:00 AM 13.65 56.57 0.863 8.1 4.75 11.21
4/6/2021 12:00:00 PM 13.96 57.128 0.872 8.12 4.34 11.34
4/6/2021 12:15:00 PM 14.26 57.668 0.876 8.14 4.46 11.46
4/6/2021 12:30:00 PM 14.56 58.208 0.878 8.16 4.6 11.58
4/6/2021 12:45:00 PM 14.86 58.748 0.878 8.17 4.5 11.67
4/6/2021 1:00:00 PM 15.15 59.27 0.878 8.19 4.72 11.77
4/6/2021 1:15:00 PM 15.44 59.792 0.877 8.21 4.5 11.83
4/6/2021 1:30:00 PM 15.71 60.278 0.879 8.22 4.23 11.89
4/6/2021 1:45:00 PM 15.96 60.728 0.884 8.24 4.1 11.9
4/6/2021 2:00:00 PM 16.2 61.16 0.89 8.24 4.4 11.91
4/6/2021 2:15:00 PM 16.43 61.574 0.896 8.25 4.53 11.9
4/6/2021 2:30:00 PM 16.64 61.952 0.899 8.26 4.41 11.9
4/6/2021 2:45:00 PM 16.83 62.294 0.901 8.26 4.56 11.86
4/6/2021 3:00:00 PM 16.98 62.564 0.903 8.27 4.28 11.81
4/6/2021 3:15:00 PM 17.12 62.816 0.904 8.27 4.75 11.73
4/6/2021 3:30:00 PM 17.23 63.014 0.902 8.27 4.56 11.67
4/6/2021 3:45:00 PM 17.31 63.158 0.901 8.27 4.55 11.57
4/6/2021 4:00:00 PM 17.37 63.266 0.899 8.27 4.49 11.48
4/6/2021 4:15:00 PM 17.4 63.32 0.895 8.27 4.54 11.37
4/6/2021 4:30:00 PM 17.4 63.32 0.891 8.26 4.59 11.24
4/6/2021 4:45:00 PM 17.38 63.284 0.885 8.26 4.4 11.12
4/6/2021 5:00:00 PM 17.34 63.212 0.879 8.25 4.95 10.97
4/6/2021 5:15:00 PM 17.3 63.14 0.873 8.25 4.66 10.82
4/6/2021 5:30:00 PM 17.24 63.032 0.869 8.24 4.84 10.66
4/6/2021 5:45:00 PM 17.17 62.906 0.866 8.22 4.74 10.48
4/6/2021 6:00:00 PM 17.09 62.762 0.865 8.2 4.55 10.29
4/6/2021 6:15:00 PM 17 62.6 0.865 8.19 4.5 10.11
4/6/2021 6:30:00 PM 16.91 62.438 0.865 8.17 4.44 9.93
4/6/2021 6:45:00 PM 16.82 62.276 0.865 8.15 4.67 9.77
4/6/2021 7:00:00 PM 16.71 62.078 0.864 8.13 4.8 9.6
4/6/2021 7:15:00 PM 16.59 61.862 0.863 8.11 4.81 9.46
4/6/2021 7:30:00 PM 16.46 61.628 0.864 8.09 4.95 9.32
4/6/2021 7:45:00 PM 16.31 61.358 0.864 8.08 5.39 9.2
4/6/2021 8:00:00 PM 16.17 61.106 0.866 8.06 5.18 9.08
4/6/2021 8:15:00 PM 16.02 60.836 0.869 8.04 5.4 8.96
4/6/2021 8:30:00 PM 15.87 60.566 0.872 8.02 5.64 8.86
4/6/2021 8:45:00 PM 15.72 60.296 0.874 8.01 5.74 8.78
4/6/2021 9:00:00 PM 15.56 60.008 0.876 7.99 5.82 8.68
4/6/2021 9:15:00 PM 15.41 59.738 0.879 7.97 5.76 8.59
4/6/2021 9:30:00 PM 15.25 59.45 0.881 7.96 5.61 8.5
4/6/2021 9:45:00 PM 15.1 59.18 0.883 7.94 5.77 8.42
4/6/2021 10:00:00 PM 14.95 58.91 0.884 7.93 5.42 8.34
4/6/2021 10:15:00 PM 14.81 58.658 0.885 7.91 5.47 8.28
4/6/2021 10:30:00 PM 14.67 58.406 0.885 7.9 5.61 8.21
4/6/2021 10:45:00 PM 14.55 58.19 0.886 7.89 5.79 8.16
4/6/2021 11:00:00 PM 14.43 57.974 0.888 7.88 5.41 8.11
4/6/2021 11:15:00 PM 14.32 57.776 0.89 7.87 5.12 8.08
4/6/2021 11:30:00 PM 14.21 57.578 0.89 7.86 5.61 8.05
4/6/2021 11:45:00 PM 14.11 57.398 0.891 7.86 5.12 8.04
4/7/2021 12:00:00 AM 14.01 57.218 0.891 7.85 5.8 8.02
4/7/2021 12:15:00 AM 13.92 57.056 0.892 7.85 5.57 8.02
4/7/2021 12:30:00 AM 13.84 56.912 0.892 7.84 5.15 8.02
4/7/2021 12:45:00 AM 13.76 56.768 0.891 7.84 5.35 8.02
4/7/2021 1:00:00 AM 13.69 56.642 0.891 7.84 5.23 8.03
4/7/2021 1:15:00 AM 13.62 56.516 0.892 7.84 5.33 8.04
4/7/2021 1:30:00 AM 13.57 56.426 0.893 7.84 5.84 8.04
4/7/2021 1:45:00 AM 13.51 56.318 0.891 7.83 5.19 8.05
4/7/2021 2:00:00 AM 13.46 56.228 0.887 7.84 5.56 8.06
4/7/2021 2:15:00 AM 13.41 56.138 0.881 7.84 5.55 8.08
4/7/2021 2:30:00 AM 13.35 56.03 0.876 7.84 5.4 8.09
4/7/2021 2:45:00 AM 13.28 55.904 0.872 7.84 5.63 8.11
4/7/2021 3:00:00 AM 13.22 55.796 0.869 7.84 5.45 8.13
4/7/2021 3:15:00 AM 13.16 55.688 0.865 7.84 5.84 8.14
4/7/2021 3:30:00 AM 13.11 55.598 0.861 7.84 5.63 8.16
4/7/2021 3:45:00 AM 13.07 55.526 0.856 7.85 5.41 8.18
4/7/2021 4:00:00 AM 13.02 55.436 0.85 7.85 5.55 8.2
4/7/2021 4:15:00 AM 12.99 55.382 0.844 7.85 6.01 8.22
4/7/2021 4:30:00 AM 12.94 55.292 0.838 7.85 6.03 8.24
4/7/2021 4:45:00 AM 12.91 55.238 0.833 7.85 5.77 8.26
4/7/2021 5:00:00 AM 12.87 55.166 0.829 7.86 6.32 8.27
4/7/2021 5:15:00 AM 12.83 55.094 0.824 7.86 5.7 8.29
4/7/2021 5:30:00 AM 12.78 55.004 0.821 7.86 6.14 8.31
4/7/2021 5:45:00 AM 12.73 54.914 0.818 7.86 6.24 8.33
4/7/2021 6:00:00 AM 12.67 54.806 0.816 7.86 7.35 8.35
4/7/2021 6:15:00 AM 12.61 54.698 0.813 7.87 6.63 8.37
4/7/2021 6:30:00 AM 12.56 54.608 0.81 7.87 5.69 8.4
4/7/2021 6:45:00 AM 12.51 54.518 0.808 7.87 5.51 8.42
4/7/2021 7:00:00 AM 12.47 54.446 0.806 7.87 5.56 8.47
4/7/2021 7:15:00 AM 12.45 54.41 0.805 7.88 5.37 8.56
4/7/2021 7:30:00 AM 12.43 54.374 0.805 7.89 5.41 8.67
4/7/2021 7:45:00 AM 12.43 54.374 0.806 7.89 5.14 8.76
4/7/2021 8:00:00 AM 12.44 54.392 0.809 7.9 5 8.86
4/7/2021 8:15:00 AM 12.45 54.41 0.812 7.91 5.02 8.95
4/7/2021 8:30:00 AM 12.5 54.5 0.815 7.92 4.96 9.11
4/7/2021 8:45:00 AM 12.55 54.59 0.817 7.93 4.85 9.26
4/7/2021 9:00:00 AM 12.61 54.698 0.818 7.94 5.35 9.39
4/7/2021 9:15:00 AM 12.68 54.824 0.818 7.96 5.25 9.56
4/7/2021 9:30:00 AM 12.72 54.896 0.817 7.96 4.96 9.62
4/7/2021 9:45:00 AM 12.75 54.95 0.816 7.97 4.68 9.63
4/7/2021 10:00:00 AM 12.79 55.022 0.816 7.97 4.82 9.69
4/7/2021 10:15:00 AM 12.87 55.166 0.817 7.99 5.7 9.88
4/7/2021 10:30:00 AM 12.95 55.31 0.821 8 4.73 10.1
4/7/2021 10:45:00 AM 13.14 55.652 0.83 8.02 5.09 10.35
4/7/2021 11:00:00 AM 13.24 55.832 0.843 8.03 4.9 10.33
4/7/2021 11:15:00 AM 13.36 56.048 0.857 8.03 4.83 10.25
4/7/2021 11:30:00 AM 13.45 56.21 0.869 8.03 4.32 10.31
4/7/2021 11:45:00 AM 13.53 56.354 0.879 8.04 4.84 10.31
4/7/2021 12:00:00 PM 13.61 56.498 0.888 8.04 4.76 10.31
4/7/2021 12:15:00 PM 13.7 56.66 0.894 8.05 4.96 10.4
4/7/2021 12:30:00 PM 13.82 56.876 0.895 8.08 4.75 10.64
4/7/2021 12:45:00 PM 14.08 57.344 0.893 8.11 4.89 10.95
4/7/2021 1:00:00 PM 14.35 57.83 0.892 8.13 4.8 11.12
4/7/2021 1:15:00 PM 14.63 58.334 0.89 8.14 4.63 11.19
4/7/2021 1:30:00 PM 14.88 58.784 0.887 8.16 4.49 11.28
4/7/2021 1:45:00 PM 15.03 59.054 0.883 8.17 4.67 11.31
4/7/2021 2:00:00 PM 15.16 59.288 0.879 8.17 4.63 11.29
4/7/2021 2:15:00 PM 15.41 59.738 0.876 8.19 4.67 11.46
4/7/2021 2:30:00 PM 15.59 60.062 0.875 8.21 4.54 11.49
4/7/2021 2:45:00 PM 15.78 60.404 0.875 8.21 4.7 11.44
4/7/2021 3:00:00 PM 15.95 60.71 0.876 8.21 4.79 11.37
4/7/2021 3:15:00 PM 16.11 60.998 0.877 8.21 4.52 11.33
4/7/2021 3:30:00 PM 16.27 61.286 0.879 8.21 4.52 11.3
4/7/2021 3:45:00 PM 16.42 61.556 0.878 8.21 5.23 11.27
4/7/2021 4:00:00 PM 16.56 61.808 0.877 8.22 4.67 11.23
4/7/2021 4:15:00 PM 16.68 62.024 0.874 8.23 4.56 11.2
4/7/2021 4:30:00 PM 16.76 62.168 0.873 8.23 4.74 11.16
4/7/2021 4:45:00 PM 16.79 62.222 0.873 8.23 4.79 11.05
4/7/2021 5:00:00 PM 16.82 62.276 0.872 8.23 4.84 10.95
4/7/2021 5:15:00 PM 16.82 62.276 0.87 8.23 4.89 10.83
4/7/2021 5:30:00 PM 16.81 62.258 0.868 8.22 4.73 10.7
4/7/2021 5:45:00 PM 16.79 62.222 0.865 8.21 4.83 10.55
4/7/2021 6:00:00 PM 16.77 62.186 0.864 8.2 4.98 10.38
4/7/2021 6:15:00 PM 16.73 62.114 0.863 8.19 5.17 10.19
4/7/2021 6:30:00 PM 16.69 62.042 0.863 8.17 5.09 10.03
4/7/2021 6:45:00 PM 16.64 61.952 0.862 8.16 4.98 9.86
4/7/2021 7:00:00 PM 16.57 61.826 0.862 8.14 5.11 9.71
4/7/2021 7:15:00 PM 16.5 61.7 0.864 8.12 5.04 9.56
4/7/2021 7:30:00 PM 16.42 61.556 0.868 8.11 5.22 9.41
4/7/2021 7:45:00 PM 16.33 61.394 0.87 8.09 4.99 9.26
4/7/2021 8:00:00 PM 16.24 61.232 0.87 8.07 5.33 9.13
4/7/2021 8:15:00 PM 16.15 61.07 0.869 8.06 5.59 9.03
4/7/2021 8:30:00 PM 16.06 60.908 0.869 8.04 5.61 8.92
4/7/2021 8:45:00 PM 15.97 60.746 0.87 8.03 6.08 8.81
4/7/2021 9:00:00 PM 15.86 60.548 0.872 8.01 5.97 8.73
4/7/2021 9:15:00 PM 15.73 60.314 0.876 8 5.66 8.63
4/7/2021 9:30:00 PM 15.61 60.098 0.878 7.98 5.93 8.54
4/7/2021 9:45:00 PM 15.5 59.9 0.879 7.96 5.95 8.44
4/7/2021 10:00:00 PM 15.38 59.684 0.881 7.95 5.9 8.35
4/7/2021 10:15:00 PM 15.27 59.486 0.885 7.93 5.81 8.26
4/7/2021 10:30:00 PM 15.16 59.288 0.888 7.92 5.84 8.19
4/7/2021 10:45:00 PM 15.05 59.09 0.892 7.91 5.65 8.12
4/7/2021 11:00:00 PM 14.95 58.91 0.897 7.9 5.75 8.06
4/7/2021 11:15:00 PM 14.84 58.712 0.9 7.89 5.68 8.02
4/7/2021 11:30:00 PM 14.72 58.496 0.902 7.88 6.01 7.98
4/7/2021 11:45:00 PM 14.6 58.28 0.904 7.87 5.74 7.95
4/8/2021 12:00:00 AM 14.49 58.082 0.906 7.87 5.85 7.94
4/8/2021 12:15:00 AM 14.38 57.884 0.909 7.86 5.94 7.93
4/8/2021 12:30:00 AM 14.28 57.704 0.913 7.86 5.87 7.93
4/8/2021 12:45:00 AM 14.18 57.524 0.916 7.85 5.84 7.93
4/8/2021 1:00:00 AM 14.08 57.344 0.919 7.85 5.98 7.93
4/8/2021 1:15:00 AM 13.99 57.182 0.921 7.85 5.98 7.94
4/8/2021 1:30:00 AM 13.89 57.002 0.921 7.85 6.3 7.96
4/8/2021 1:45:00 AM 13.8 56.84 0.92 7.85 6.67 7.97
4/8/2021 2:00:00 AM 13.72 56.696 0.917 7.85 6.84 7.98
4/8/2021 2:15:00 AM 13.63 56.534 0.913 7.85 6.29 8
4/8/2021 2:30:00 AM 13.54 56.372 0.909 7.85 6.49 8.02
4/8/2021 2:45:00 AM 13.46 56.228 0.904 7.85 7.05 8.04
4/8/2021 3:00:00 AM 13.36 56.048 0.899 7.86 8.01 8.07
4/8/2021 3:15:00 AM 13.27 55.886 0.894 7.86 7.37 8.1
4/8/2021 3:30:00 AM 13.18 55.724 0.888 7.86 7.58 8.13
4/8/2021 3:45:00 AM 13.09 55.562 0.882 7.86 7.32 8.16
4/8/2021 4:00:00 AM 13 55.4 0.875 7.87 6.89 8.19
4/8/2021 4:15:00 AM 12.91 55.238 0.871 7.87 6.83 8.22
4/8/2021 4:30:00 AM 12.82 55.076 0.865 7.87 6.9 8.26
4/8/2021 4:45:00 AM 12.73 54.914 0.859 7.88 6.33 8.29
4/8/2021 5:00:00 AM 12.64 54.752 0.853 7.88 6.57 8.32
4/8/2021 5:15:00 AM 12.56 54.608 0.846 7.88 6.19 8.35
4/8/2021 5:30:00 AM 12.48 54.464 0.841 7.88 6.62 8.38
4/8/2021 5:45:00 AM 12.4 54.32 0.837 7.89 6.42 8.42
4/8/2021 6:00:00 AM 12.33 54.194 0.834 7.89 6.13 8.44
4/8/2021 6:15:00 AM 12.26 54.068 0.832 7.89 6.28 8.47
4/8/2021 6:30:00 AM 12.19 53.942 0.83 7.89 5.98 8.5
4/8/2021 6:45:00 AM 12.12 53.816 0.828 7.9 6.16 8.53
4/8/2021 7:00:00 AM 12.07 53.726 0.826 7.9 5.95 8.6
4/8/2021 7:15:00 AM 12.04 53.672 0.824 7.9 5.92 8.68
4/8/2021 7:30:00 AM 12.03 53.654 0.823 7.91 6.12 8.78
4/8/2021 7:45:00 AM 12.03 53.654 0.822 7.92 5.56 8.87
4/8/2021 8:00:00 AM 12.02 53.636 0.822 7.92 5.29 8.96
4/8/2021 8:15:00 AM 12.04 53.672 0.823 7.93 5.3 9.11
4/8/2021 8:30:00 AM 12.06 53.708 0.827 7.94 5.22 9.2
4/8/2021 8:45:00 AM 12.1 53.78 0.83 7.95 5.57 9.28
4/8/2021 9:00:00 AM 12.15 53.87 0.831 7.96 5.27 9.42
4/8/2021 9:15:00 AM 12.22 53.996 0.83 7.97 5.32 9.57
4/8/2021 9:30:00 AM 12.32 54.176 0.829 7.98 5.21 9.72
4/8/2021 9:45:00 AM 12.43 54.374 0.828 7.99 5.22 9.86
4/8/2021 10:00:00 AM 12.57 54.626 0.828 8 5.25 10.02
4/8/2021 10:15:00 AM 12.75 54.95 0.829 8.02 5.29 10.16
4/8/2021 10:30:00 AM 12.94 55.292 0.832 8.03 4.98 10.3
4/8/2021 10:45:00 AM 13.16 55.688 0.838 8.05 5.14 10.47
4/8/2021 11:00:00 AM 13.39 56.102 0.848 8.06 5.23 10.6
4/8/2021 11:15:00 AM 13.63 56.534 0.861 8.07 4.83 10.69
4/8/2021 11:30:00 AM 13.91 57.038 0.876 8.08 5.57 10.84
4/8/2021 11:45:00 AM 14.2 57.56 0.889 8.1 4.87 10.97
4/8/2021 12:00:00 PM 14.51 58.118 0.898 8.11 4.74 11.08
4/8/2021 12:15:00 PM 14.82 58.676 0.903 8.13 4.6 11.19
4/8/2021 12:30:00 PM 15.12 59.216 0.905 8.14 4.99 11.29
4/8/2021 12:45:00 PM 15.42 59.756 0.905 8.16 4.71 11.4
4/8/2021 1:00:00 PM 15.72 60.296 0.904 8.18 4.67 11.46
4/8/2021 1:15:00 PM 16.01 60.818 0.9 8.19 4.97 11.53
4/8/2021 1:30:00 PM 16.28 61.304 0.897 8.21 4.73 11.59
4/8/2021 1:45:00 PM 16.53 61.754 0.898 8.22 4.77 11.62
4/8/2021 2:00:00 PM 16.79 62.222 0.903 8.23 4.87 11.64
4/8/2021 2:15:00 PM 17.03 62.654 0.91 8.24 4.91 11.63
4/8/2021 2:30:00 PM 17.25 63.05 0.917 8.24 5.94 11.6
4/8/2021 2:45:00 PM 17.44 63.392 0.921 8.25 5.09 11.58
4/8/2021 3:00:00 PM 17.6 63.68 0.922 8.25 4.93 11.52
4/8/2021 3:15:00 PM 17.73 63.914 0.921 8.25 5.38 11.47
4/8/2021 3:30:00 PM 17.84 64.112 0.92 8.26 4.95 11.39
4/8/2021 3:45:00 PM 17.92 64.256 0.915 8.26 5.09 11.3
4/8/2021 4:00:00 PM 17.98 64.364 0.91 8.26 4.81 11.22
4/8/2021 4:15:00 PM 18.02 64.436 0.908 8.26 5.05 11.12
4/8/2021 4:30:00 PM 18.04 64.472 0.906 8.25 5.01 11
4/8/2021 4:45:00 PM 18.02 64.436 0.904 8.25 5.25 10.87
4/8/2021 5:00:00 PM 17.98 64.364 0.899 8.24 4.95 10.75
4/8/2021 5:15:00 PM 17.93 64.274 0.893 8.24 5.29 10.61
4/8/2021 5:30:00 PM 17.86 64.148 0.886 8.23 5.18 10.47
4/8/2021 5:45:00 PM 17.78 64.004 0.882 8.22 5.69 10.32
4/8/2021 6:00:00 PM 17.69 63.842 0.879 8.21 5.19 10.14
4/8/2021 6:15:00 PM 17.58 63.644 0.878 8.19 5.19 9.97
4/8/2021 6:30:00 PM 17.46 63.428 0.878 8.18 5.25 9.8
4/8/2021 6:45:00 PM 17.34 63.212 0.879 8.16 5.07 9.64
4/8/2021 7:00:00 PM 17.21 62.978 0.881 8.15 5.26 9.49
4/8/2021 7:15:00 PM 17.08 62.744 0.881 8.13 5.19 9.35
4/8/2021 7:30:00 PM 16.94 62.492 0.881 8.11 5.23 9.22
4/8/2021 7:45:00 PM 16.8 62.24 0.88 8.1 5.18 9.09
4/8/2021 8:00:00 PM 16.66 61.988 0.88 8.08 5.51 8.98
4/8/2021 8:15:00 PM 16.51 61.718 0.88 8.07 6.04 8.9
4/8/2021 8:30:00 PM 16.36 61.448 0.881 8.05 6.15 8.8
4/8/2021 8:45:00 PM 16.21 61.178 0.883 8.04 6.46 8.73
4/8/2021 9:00:00 PM 16.05 60.89 0.886 8.02 6.82 8.64
4/8/2021 9:15:00 PM 15.88 60.584 0.888 8.01 6.49 8.55
4/8/2021 9:30:00 PM 15.72 60.296 0.892 7.99 6.48 8.47
4/8/2021 9:45:00 PM 15.55 59.99 0.898 7.98 6.49 8.39
4/8/2021 10:00:00 PM 15.38 59.684 0.903 7.96 6.71 8.31
4/8/2021 10:15:00 PM 15.22 59.396 0.908 7.95 6.63 8.24
4/8/2021 10:30:00 PM 15.06 59.108 0.91 7.94 6.42 8.18
4/8/2021 10:45:00 PM 14.91 58.838 0.912 7.93 6.37 8.13
4/8/2021 11:00:00 PM 14.76 58.568 0.915 7.91 6.31 8.07
4/8/2021 11:15:00 PM 14.62 58.316 0.919 7.91 6.12 8.05
4/8/2021 11:30:00 PM 14.48 58.064 0.921 7.9 6.25 8.02
4/8/2021 11:45:00 PM 14.35 57.83 0.922 7.89 6.14 8
4/9/2021 12:00:00 AM 14.22 57.596 0.923 7.89 6.51 7.99
4/9/2021 12:15:00 AM 14.1 57.38 0.925 7.88 6.16 7.99
4/9/2021 12:30:00 AM 13.99 57.182 0.926 7.88 6.29 7.99
4/9/2021 12:45:00 AM 13.89 57.002 0.928 7.87 6.48 8
4/9/2021 1:00:00 AM 13.79 56.822 0.929 7.87 6.21 8.01
4/9/2021 1:15:00 AM 13.71 56.678 0.929 7.87 6.9 8.01
4/9/2021 1:30:00 AM 13.62 56.516 0.928 7.87 7.11 8.04
4/9/2021 1:45:00 AM 13.54 56.372 0.926 7.87 7.44 8.04
4/9/2021 2:00:00 AM 13.46 56.228 0.925 7.87 7.02 8.06
4/9/2021 2:15:00 AM 13.38 56.084 0.923 7.87 7.18 8.08
4/9/2021 2:30:00 AM 13.31 55.958 0.919 7.87 6.24 8.1
4/9/2021 2:45:00 AM 13.24 55.832 0.914 7.87 6.19 8.12
4/9/2021 3:00:00 AM 13.17 55.706 0.908 7.87 6.16 8.15
4/9/2021 3:15:00 AM 13.1 55.58 0.902 7.87 6.39 8.17
4/9/2021 3:30:00 AM 13.04 55.472 0.895 7.88 6.41 8.19
4/9/2021 3:45:00 AM 12.99 55.382 0.888 7.88 7.17 8.21
4/9/2021 4:00:00 AM 12.94 55.292 0.881 7.88 7.09 8.24
4/9/2021 4:15:00 AM 12.9 55.22 0.874 7.88 6.73 8.25
4/9/2021 4:30:00 AM 12.86 55.148 0.867 7.88 6.62 8.28
4/9/2021 4:45:00 AM 12.83 55.094 0.861 7.89 6.48 8.3
4/9/2021 5:00:00 AM 12.79 55.022 0.854 7.89 6.64 8.32
4/9/2021 5:15:00 AM 12.76 54.968 0.847 7.89 6.27 8.33
4/9/2021 5:30:00 AM 12.73 54.914 0.842 7.89 6.24 8.37
4/9/2021 5:45:00 AM 12.71 54.878 0.837 7.89 6.13 8.37
4/9/2021 6:00:00 AM 12.68 54.824 0.836 7.89 6.43 8.39
4/9/2021 6:15:00 AM 12.66 54.788 0.833 7.9 6.68 8.41
4/9/2021 6:30:00 AM 12.64 54.752 0.83 7.9 6.66 8.42
4/9/2021 6:45:00 AM 12.62 54.716 0.827 7.9 6.49 8.43
4/9/2021 7:00:00 AM 12.61 54.698 0.824 7.9 6.4 8.45
4/9/2021 7:15:00 AM 12.6 54.68 0.821 7.9 5.82 8.5
4/9/2021 7:30:00 AM 12.6 54.68 0.819 7.91 5.62 8.53
4/9/2021 7:45:00 AM 12.61 54.698 0.819 7.91 5.86 8.63
4/9/2021 8:00:00 AM 12.64 54.752 0.82 7.92 5.75 8.74
4/9/2021 8:15:00 AM 12.67 54.806 0.822 7.93 5.78 8.83
4/9/2021 8:30:00 AM 12.71 54.878 0.826 7.93 5.59 8.91
4/9/2021 8:45:00 AM 12.75 54.95 0.828 7.94 5.36 8.99
4/9/2021 9:00:00 AM 12.79 55.022 0.83 7.95 6.04 9.06
4/9/2021 9:15:00 AM 12.82 55.076 0.828 7.95 5.29 9.11
4/9/2021 9:30:00 AM 12.84 55.112 0.827 7.95 5.3 9.06
4/9/2021 9:45:00 AM 12.86 55.148 0.827 7.95 5.42 9.12
4/9/2021 10:00:00 AM 12.88 55.184 0.827 7.96 5.35 9.18
4/9/2021 10:15:00 AM 12.92 55.256 0.83 7.97 5.31 9.33
4/9/2021 10:30:00 AM 12.96 55.328 0.834 7.97 5.07 9.37
4/9/2021 10:45:00 AM 13 55.4 0.839 7.97 5.08 9.39
4/9/2021 11:00:00 AM 13.03 55.454 0.845 7.98 5.04 9.4
4/9/2021 11:15:00 AM 13.09 55.562 0.856 7.99 5.19 9.53
4/9/2021 11:30:00 AM 13.15 55.67 0.868 7.99 5.22 9.64
4/9/2021 11:45:00 AM 13.23 55.814 0.883 8 5.12 9.73
4/9/2021 12:00:00 PM 13.32 55.976 0.895 8.01 5.22 9.85
4/9/2021 12:15:00 PM 13.42 56.156 0.902 8.02 5.26 9.99
4/9/2021 12:30:00 PM 13.51 56.318 0.906 8.04 5.17 10.12
4/9/2021 12:45:00 PM 13.59 56.462 0.908 8.05 4.99 10.18
4/9/2021 1:00:00 PM 13.66 56.588 0.908 8.05 5.27 10.18
4/9/2021 1:15:00 PM 13.73 56.714 0.907 8.06 5 10.25
4/9/2021 1:30:00 PM 13.77 56.786 0.906 8.06 4.96 10.23
4/9/2021 1:45:00 PM 13.83 56.894 0.907 8.07 5 10.27
4/9/2021 2:00:00 PM 13.9 57.02 0.904 8.08 5.03 10.38
4/9/2021 2:15:00 PM 13.96 57.128 0.899 8.09 5.03 10.44
4/9/2021 2:30:00 PM 14.01 57.218 0.895 8.1 4.72 10.45
4/9/2021 2:45:00 PM 14.05 57.29 0.892 8.1 5.02 10.42
4/9/2021 3:00:00 PM 14.09 57.362 0.891 8.1 4.85 10.42
4/9/2021 3:15:00 PM 14.12 57.416 0.891 8.1 5.01 10.37
4/9/2021 3:30:00 PM 14.15 57.47 0.89 8.1 4.85 10.34
4/9/2021 3:45:00 PM 14.16 57.488 0.889 8.1 4.83 10.31
4/9/2021 4:00:00 PM 14.19 57.542 0.889 8.11 5.06 10.31
4/9/2021 4:15:00 PM 14.19 57.542 0.888 8.11 5.03 10.27
4/9/2021 4:30:00 PM 14.2 57.56 0.887 8.1 5.1 10.17
4/9/2021 4:45:00 PM 14.19 57.542 0.886 8.1 4.94 10.13
4/9/2021 5:00:00 PM 14.19 57.542 0.884 8.1 5.05 10.04
4/9/2021 5:15:00 PM 14.18 57.524 0.883 8.09 5.38 9.95
4/9/2021 5:30:00 PM 14.17 57.506 0.881 8.09 5.09 9.89
4/9/2021 5:45:00 PM 14.16 57.488 0.878 8.08 5.19 9.85
4/9/2021 6:00:00 PM 14.14 57.452 0.877 8.08 4.9 9.74
4/9/2021 6:15:00 PM 14.12 57.416 0.875 8.07 5.03 9.67
4/9/2021 6:30:00 PM 14.09 57.362 0.874 8.06 5.26 9.59
4/9/2021 6:45:00 PM 14.07 57.326 0.874 8.06 5.36 9.51
4/9/2021 7:00:00 PM 14.04 57.272 0.875 8.04 5.52 9.4
4/9/2021 7:15:00 PM 14.02 57.236 0.875 8.03 5.46 9.3
4/9/2021 7:30:00 PM 14 57.2 0.876 8.02 5.48 9.23
4/9/2021 7:45:00 PM 13.97 57.146 0.876 8.01 5.46 9.11
4/9/2021 8:00:00 PM 13.93 57.074 0.88 8 5.97 9.01
4/9/2021 8:15:00 PM 13.9 57.02 0.883 7.99 6.24 8.93
4/9/2021 8:30:00 PM 13.87 56.966 0.886 7.98 6.09 8.85
4/9/2021 8:45:00 PM 13.84 56.912 0.891 7.97 5.74 8.79
4/9/2021 9:00:00 PM 13.81 56.858 0.894 7.96 6.3 8.72
4/9/2021 9:15:00 PM 13.78 56.804 0.896 7.95 6.07 8.66
4/9/2021 9:30:00 PM 13.75 56.75 0.898 7.95 6.14 8.6
4/9/2021 9:45:00 PM 13.72 56.696 0.901 7.94 5.85 8.56
4/9/2021 10:00:00 PM 13.69 56.642 0.904 7.93 6.5 8.52
4/9/2021 10:15:00 PM 13.66 56.588 0.906 7.92 5.96 8.47
4/9/2021 10:30:00 PM 13.63 56.534 0.908 7.92 6.13 8.44
4/9/2021 10:45:00 PM 13.6 56.48 0.911 7.91 6.54 8.4
4/9/2021 11:00:00 PM 13.58 56.444 0.913 7.91 6.76 8.37
4/9/2021 11:15:00 PM 13.55 56.39 0.913 7.9 6.65 8.35
4/9/2021 11:30:00 PM 13.52 56.336 0.914 7.9 7.37 8.32
4/9/2021 11:45:00 PM 13.49 56.282 0.915 7.9 7.04 8.3
4/10/2021 12:00:00 AM 13.46 56.228 0.917 7.9 6.47 8.29
4/10/2021 12:15:00 AM 13.44 56.192 0.918 7.89 6.7 8.28
4/10/2021 12:30:00 AM 13.42 56.156 0.918 7.89 6.24 8.28
4/10/2021 12:45:00 AM 13.39 56.102 0.917 7.89 6.09 8.27
4/10/2021 1:00:00 AM 13.37 56.066 0.916 7.89 6.02 8.27
4/10/2021 1:15:00 AM 13.35 56.03 0.916 7.89 5.91 8.26
4/10/2021 1:30:00 AM 13.33 55.994 0.915 7.89 5.84 8.26
4/10/2021 1:45:00 AM 13.31 55.958 0.914 7.89 5.72 8.27
4/10/2021 2:00:00 AM 13.29 55.922 0.911 7.89 5.74 8.27
4/10/2021 2:15:00 AM 13.26 55.868 0.908 7.89 5.68 8.27
4/10/2021 2:30:00 AM 13.24 55.832 0.903 7.89 6 8.28
4/10/2021 2:45:00 AM 13.22 55.796 0.9 7.89 6.03 8.29
4/10/2021 3:00:00 AM 13.2 55.76 0.898 7.89 5.84 8.29
4/10/2021 3:15:00 AM 13.18 55.724 0.896 7.89 6.14 8.31
4/10/2021 3:30:00 AM 13.16 55.688 0.894 7.89 6.12 8.3
4/10/2021 3:45:00 AM 13.15 55.67 0.891 7.89 6.06 8.31
4/10/2021 4:00:00 AM 13.13 55.634 0.887 7.89 6.21 8.32
4/10/2021 4:15:00 AM 13.12 55.616 0.883 7.89 6.17 8.32
4/10/2021 4:30:00 AM 13.1 55.58 0.878 7.89 6.25 8.33
4/10/2021 4:45:00 AM 13.09 55.562 0.874 7.89 6.52 8.34
4/10/2021 5:00:00 AM 13.07 55.526 0.869 7.89 6.45 8.34
4/10/2021 5:15:00 AM 13.05 55.49 0.863 7.89 6.65 8.36
4/10/2021 5:30:00 AM 13.04 55.472 0.858 7.89 6.41 8.36
4/10/2021 5:45:00 AM 13.02 55.436 0.854 7.9 6.6 8.37
4/10/2021 6:00:00 AM 13.01 55.418 0.849 7.9 7.23 8.37
4/10/2021 6:15:00 AM 12.99 55.382 0.845 7.9 7.4 8.39
4/10/2021 6:30:00 AM 12.98 55.364 0.84 7.9 6.35 8.4
4/10/2021 6:45:00 AM 12.96 55.328 0.835 7.9 6.47 8.42
4/10/2021 7:00:00 AM 12.95 55.31 0.831 7.9 5.97 8.46
4/10/2021 7:15:00 AM 12.94 55.292 0.828 7.91 5.9 8.49
4/10/2021 7:30:00 AM 12.93 55.274 0.826 7.91 5.93 8.54
4/10/2021 7:45:00 AM 12.94 55.292 0.827 7.91 5.69 8.59
4/10/2021 8:00:00 AM 12.95 55.31 0.826 7.91 5.58 8.67
4/10/2021 8:15:00 AM 12.98 55.364 0.828 7.92 5.38 8.8
4/10/2021 8:30:00 AM 13 55.4 0.828 7.91 5.54 8.84
4/10/2021 8:45:00 AM 13.03 55.454 0.83 7.91 5.38 8.86
4/10/2021 9:00:00 AM 13.07 55.526 0.831 7.9 5.19 8.9
4/10/2021 9:15:00 AM 13.1 55.58 0.831 7.9 5.54 8.97
4/10/2021 9:30:00 AM 13.15 55.67 0.833 7.9 5.54 9.03
4/10/2021 9:45:00 AM 13.19 55.742 0.832 7.9 5.45 9.12
4/10/2021 10:00:00 AM 13.24 55.832 0.831 7.9 5.55 9.22
4/10/2021 10:15:00 AM 13.29 55.922 0.829 7.91 5.44 9.36
4/10/2021 10:30:00 AM 13.38 56.084 0.827 7.93 5.5 9.6
4/10/2021 10:45:00 AM 13.45 56.21 0.828 7.94 5.25 9.65
4/10/2021 11:00:00 AM 13.52 56.336 0.837 7.94 5.36 9.7
4/10/2021 11:15:00 AM 13.6 56.48 0.852 7.95 5.27 9.82
4/10/2021 11:30:00 AM 13.67 56.606 0.867 7.95 5.22 9.77
4/10/2021 11:45:00 AM 13.76 56.768 0.88 7.96 5.26 9.87
4/10/2021 12:00:00 PM 13.86 56.948 0.888 7.98 5.55 10.07
4/10/2021 12:15:00 PM 13.96 57.128 0.896 7.99 5.52 10.13
4/10/2021 12:30:00 PM 14.07 57.326 0.903 8 5.54 10.24
4/10/2021 12:45:00 PM 14.17 57.506 0.908 8.01 5.17 10.34
4/10/2021 1:00:00 PM 14.25 57.65 0.909 8.02 5.32 10.35
4/10/2021 1:15:00 PM 14.3 57.74 0.91 8.02 5.17 10.3
4/10/2021 1:30:00 PM 14.36 57.848 0.914 8.03 5.2 10.33
4/10/2021 1:45:00 PM 14.42 57.956 0.922 8.03 5.33 10.37
4/10/2021 2:00:00 PM 14.52 58.136 0.928 8.05 6 10.5
4/10/2021 2:15:00 PM 14.65 58.37 0.931 8.06 5.52 10.68
4/10/2021 2:30:00 PM 14.79 58.622 0.93 8.08 5.4 10.81
4/10/2021 2:45:00 PM 14.91 58.838 0.925 8.09 5.52 10.81
4/10/2021 3:00:00 PM 15.03 59.054 0.919 8.1 5.27 10.87
4/10/2021 3:15:00 PM 15.17 59.306 0.914 8.11 5.3 10.98
4/10/2021 3:30:00 PM 15.3 59.54 0.911 8.13 5.16 11.05
4/10/2021 3:45:00 PM 15.37 59.666 0.911 8.12 5.11 10.91
4/10/2021 4:00:00 PM 15.45 59.81 0.91 8.12 5.5 10.84
4/10/2021 4:15:00 PM 15.53 59.954 0.908 8.13 5.52 10.89
4/10/2021 4:30:00 PM 15.56 60.008 0.907 8.12 5.46 10.8
4/10/2021 4:45:00 PM 15.59 60.062 0.906 8.12 5.34 10.75
4/10/2021 5:00:00 PM 15.62 60.116 0.905 8.13 5.18 10.74
4/10/2021 5:15:00 PM 15.63 60.134 0.904 8.13 5.31 10.69
4/10/2021 5:30:00 PM 15.66 60.188 0.902 8.12 5.77 10.6
4/10/2021 5:45:00 PM 15.69 60.242 0.901 8.12 5.44 10.51
4/10/2021 6:00:00 PM 15.71 60.278 0.901 8.12 5.34 10.41
4/10/2021 6:15:00 PM 15.72 60.296 0.903 8.11 5.53 10.29
4/10/2021 6:30:00 PM 15.71 60.278 0.904 8.1 6.25 10.19
4/10/2021 6:45:00 PM 15.69 60.242 0.905 8.1 5.77 10.06
4/10/2021 7:00:00 PM 15.66 60.188 0.907 8.09 5.9 9.92
4/10/2021 7:15:00 PM 15.61 60.098 0.908 8.07 5.95 9.79
4/10/2021 7:30:00 PM 15.55 59.99 0.911 8.06 6.04 9.64
4/10/2021 7:45:00 PM 15.48 59.864 0.911 8.05 6.2 9.51
4/10/2021 8:00:00 PM 15.4 59.72 0.912 8.04 5.97 9.38
4/10/2021 8:15:00 PM 15.32 59.576 0.911 8.03 7.16 9.25
4/10/2021 8:30:00 PM 15.24 59.432 0.91 8.02 6.4 9.16
4/10/2021 8:45:00 PM 15.16 59.288 0.91 8 6.26 9.06
4/10/2021 9:00:00 PM 15.07 59.126 0.913 7.99 6.68 8.95
4/10/2021 9:15:00 PM 14.99 58.982 0.916 7.98 6.59 8.84
4/10/2021 9:30:00 PM 14.91 58.838 0.92 7.96 6.46 8.73
4/10/2021 9:45:00 PM 14.82 58.676 0.921 7.95 6.56 8.61
4/10/2021 10:00:00 PM 14.73 58.514 0.921 7.94 6.53 8.51
4/10/2021 10:15:00 PM 14.64 58.352 0.922 7.92 6.63 8.41
4/10/2021 10:30:00 PM 14.55 58.19 0.922 7.91 6.71 8.32
4/10/2021 10:45:00 PM 14.46 58.028 0.921 7.9 6.43 8.23
4/10/2021 11:00:00 PM 14.37 57.866 0.923 7.89 6.52 8.16
4/10/2021 11:15:00 PM 14.29 57.722 0.925 7.88 6.53 8.11
4/10/2021 11:30:00 PM 14.22 57.596 0.924 7.87 6.41 8.05
4/10/2021 11:45:00 PM 14.14 57.452 0.926 7.86 6.52 8.02
4/11/2021 12:00:00 AM 14.07 57.326 0.926 7.86 6.38 7.99
4/11/2021 12:15:00 AM 14 57.2 0.928 7.85 6.61 7.97
4/11/2021 12:30:00 AM 13.93 57.074 0.929 7.85 6.55 7.95
4/11/2021 12:45:00 AM 13.87 56.966 0.929 7.85 6.68 7.93
4/11/2021 1:00:00 AM 13.82 56.876 0.927 7.84 6.49 7.93
4/11/2021 1:15:00 AM 13.78 56.804 0.926 7.84 6.61 7.92
4/11/2021 1:30:00 AM 13.74 56.732 0.924 7.84 6.6 7.93
4/11/2021 1:45:00 AM 13.69 56.642 0.921 7.84 6.69 7.93
4/11/2021 2:00:00 AM 13.66 56.588 0.919 7.84 6.77 7.93
4/11/2021 2:15:00 AM 13.62 56.516 0.917 7.84 6.87 7.94
4/11/2021 2:30:00 AM 13.59 56.462 0.915 7.84 6.69 7.95
4/11/2021 2:45:00 AM 13.57 56.426 0.913 7.84 7.04 7.95
4/11/2021 3:00:00 AM 13.55 56.39 0.91 7.84 7.19 7.95
4/11/2021 3:15:00 AM 13.53 56.354 0.905 7.84 6.75 7.97
4/11/2021 3:30:00 AM 13.51 56.318 0.899 7.84 6.7 7.97
4/11/2021 3:45:00 AM 13.49 56.282 0.893 7.84 7.29 7.98
4/11/2021 4:00:00 AM 13.47 56.246 0.888 7.84 7.27 7.99
4/11/2021 4:15:00 AM 13.46 56.228 0.884 7.84 7.16 8
4/11/2021 4:30:00 AM 13.45 56.21 0.879 7.84 7.3 8.01
4/11/2021 4:45:00 AM 13.44 56.192 0.875 7.84 7.28 8.02
4/11/2021 5:00:00 AM 13.43 56.174 0.87 7.84 7.42 8.02
4/11/2021 5:15:00 AM 13.43 56.174 0.863 7.84 7.46 8.01
4/11/2021 5:30:00 AM 13.42 56.156 0.855 7.84 7.67 8.02
4/11/2021 5:45:00 AM 13.41 56.138 0.847 7.85 7.86 8.03
4/11/2021 6:00:00 AM 13.41 56.138 0.838 7.85 7.62 8.04
4/11/2021 6:15:00 AM 13.4 56.12 0.831 7.85 7.77 8.05
4/11/2021 6:30:00 AM 13.4 56.12 0.822 7.85 7.99 8.07
4/11/2021 6:45:00 AM 13.4 56.12 0.812 7.85 8.36 8.09
4/11/2021 7:00:00 AM 13.41 56.138 0.803 7.85 9.41 8.11
4/11/2021 7:15:00 AM 13.42 56.156 0.796 7.85 9.69 8.12
4/11/2021 7:30:00 AM 13.43 56.174 0.792 7.85 10.07 8.15
4/11/2021 7:45:00 AM 13.45 56.21 0.783 7.85 12.2 8.19
4/11/2021 8:00:00 AM 13.48 56.264 0.771 7.85 12.96 8.2
4/11/2021 8:15:00 AM 13.48 56.264 0.771 7.84 14.93 8.2
4/11/2021 8:30:00 AM 13.49 56.282 0.765 7.83 17.38 8.21
4/11/2021 8:45:00 AM 13.51 56.318 0.756 7.81 21.32 8.18
4/11/2021 9:00:00 AM 13.53 56.354 0.751 7.77 23.59 8.11
4/11/2021 9:15:00 AM 13.56 56.408 0.659 7.74 33.53 8
4/11/2021 9:30:00 AM 13.61 56.498 0.698 7.69 36.66 7.97
4/11/2021 9:45:00 AM 13.67 56.606 0.651 7.67 36.31 7.96
4/11/2021 10:00:00 AM 13.79 56.822 0.609 7.64 27.51 7.94
4/11/2021 10:15:00 AM 13.93 57.074 0.567 7.63 31.35 7.97
4/11/2021 10:30:00 AM 14.04 57.272 0.527 7.62 31.09 8.02
4/11/2021 10:45:00 AM 14.15 57.47 0.496 7.62 27.22 8.04
4/11/2021 11:00:00 AM 14.24 57.632 0.482 7.61 29.09 8.03
4/11/2021 11:15:00 AM 14.32 57.776 0.483 7.61 24.16 8.05
4/11/2021 11:30:00 AM 14.39 57.902 0.49 7.62 22.92 8.1
4/11/2021 11:45:00 AM 14.44 57.992 0.499 7.63 18.88 8.15
4/11/2021 12:00:00 PM 14.46 58.028 0.508 7.64 16.79 8.18
4/11/2021 12:15:00 PM 14.49 58.082 0.515 7.65 15.72 8.28
4/11/2021 12:30:00 PM 14.51 58.118 0.525 7.66 14.48 8.35
4/11/2021 12:45:00 PM 14.52 58.136 0.539 7.66 13.94 8.33
4/11/2021 1:00:00 PM 14.52 58.136 0.558 7.67 12.68 8.36
4/11/2021 1:15:00 PM 14.56 58.208 0.578 7.68 12.25 8.46
4/11/2021 1:30:00 PM 14.63 58.334 0.597 7.7 12.38 8.64
4/11/2021 1:45:00 PM 14.67 58.406 0.617 7.71 11.96 8.59
4/11/2021 2:00:00 PM 14.69 58.442 0.637 7.72 12.42 8.62
4/11/2021 2:15:00 PM 14.71 58.478 0.658 7.73 12.29 8.69
4/11/2021 2:30:00 PM 14.78 58.604 0.679 7.75 12.43 8.86
4/11/2021 2:45:00 PM 14.96 58.928 0.696 7.78 11.46 9.21
4/11/2021 3:00:00 PM 15.05 59.09 0.712 7.79 11.86 9.15
4/11/2021 3:15:00 PM 15.12 59.216 0.726 7.8 10.41 9.19
4/11/2021 3:30:00 PM 15.16 59.288 0.736 7.81 9.99 9.21
4/11/2021 3:45:00 PM 15.31 59.558 0.746 7.84 9.81 9.48
4/11/2021 4:00:00 PM 15.46 59.828 0.755 7.85 9.83 9.54
4/11/2021 4:15:00 PM 15.55 59.99 0.764 7.85 9.37 9.46
4/11/2021 4:30:00 PM 15.66 60.188 0.77 7.87 9.15 9.61
4/11/2021 4:45:00 PM 15.65 60.17 0.775 7.87 8.57 9.51
4/11/2021 5:00:00 PM 15.7 60.26 0.779 7.88 8.67 9.56
4/11/2021 5:15:00 PM 15.73 60.314 0.783 7.89 8.6 9.48
4/11/2021 5:30:00 PM 15.77 60.386 0.789 7.9 8.58 9.46
4/11/2021 5:45:00 PM 15.81 60.458 0.794 7.91 8.57 9.52
4/11/2021 6:00:00 PM 15.81 60.458 0.798 7.91 8.37 9.46
4/11/2021 6:15:00 PM 15.8 60.44 0.802 7.91 8.39 9.37
4/11/2021 6:30:00 PM 15.76 60.368 0.804 7.91 7.8 9.28
4/11/2021 6:45:00 PM 15.72 60.296 0.806 7.9 7.63 9.2
4/11/2021 7:00:00 PM 15.68 60.224 0.808 7.9 7.73 9.1
4/11/2021 7:15:00 PM 15.64 60.152 0.808 7.9 7.93 9.01
4/11/2021 7:30:00 PM 15.61 60.098 0.807 7.89 7.53 8.93
4/11/2021 7:45:00 PM 15.59 60.062 0.808 7.89 7.63 8.86
4/11/2021 8:00:00 PM 15.58 60.044 0.81 7.88 7.68 8.78
4/11/2021 8:15:00 PM 15.56 60.008 0.81 7.88 7.74 8.72
4/11/2021 8:30:00 PM 15.54 59.972 0.808 7.87 8.23 8.64
4/11/2021 8:45:00 PM 15.5 59.9 0.807 7.87 8 8.55
4/11/2021 9:00:00 PM 15.45 59.81 0.808 7.86 8.19 8.45
4/11/2021 9:15:00 PM 15.38 59.684 0.805 7.85 8.59 8.38
4/11/2021 9:30:00 PM 15.31 59.558 0.806 7.85 8.62 8.28
4/11/2021 9:45:00 PM 15.23 59.414 0.809 7.84 8.7 8.21
4/11/2021 10:00:00 PM 15.16 59.288 0.812 7.83 8.18 8.13
4/11/2021 10:15:00 PM 15.07 59.126 0.814 7.82 8.42 8.06
4/11/2021 10:30:00 PM 14.99 58.982 0.816 7.82 8.35 8.01
4/11/2021 10:45:00 PM 14.9 58.82 0.817 7.81 8.33 7.97
4/11/2021 11:00:00 PM 14.69 58.442 0.79 7.84 13.05 8.16
4/11/2021 11:15:00 PM 14.19 57.542 0.626 7.84 45.69 8.46
4/11/2021 11:30:00 PM 14.13 57.434 0.661 7.83 46.12 8.36
4/11/2021 11:45:00 PM 14.09 57.362 0.684 7.81 45.48 8.32
4/12/2021 12:00:00 AM 13.95 57.11 0.638 7.81 153.09 8.53
4/12/2021 12:15:00 AM 13.66 56.588 0.548 7.77 214.69 8.7
4/12/2021 12:30:00 AM 13.37 56.066 0.486 7.76 273.8 8.79
4/12/2021 12:45:00 AM 13.3 55.94 0.451 7.73 201.31 8.79
4/12/2021 1:00:00 AM 13.14 55.652 0.342 7.68 196.37 8.83
4/12/2021 1:15:00 AM 13.01 55.418 0.255 7.66 160.67 8.9
4/12/2021 1:30:00 AM 12.97 55.346 0.231 7.63 154.42 8.87
4/12/2021 1:45:00 AM 12.94 55.292 0.227 7.61 173.77 8.83
4/12/2021 2:00:00 AM 12.91 55.238 0.228 7.59 149 8.77
4/12/2021 2:15:00 AM 12.89 55.202 0.226 7.6 130.06 8.72
4/12/2021 2:30:00 AM 12.87 55.166 0.226 7.59 121.06 8.67
4/12/2021 2:45:00 AM 12.86 55.148 0.232 7.58 109.55 8.63
4/12/2021 3:00:00 AM 12.84 55.112 0.242 7.57 81.12 8.58
4/12/2021 3:15:00 AM 12.83 55.094 0.257 7.56 87.87 8.52
4/12/2021 3:30:00 AM 12.82 55.076 0.274 7.55 66.9 8.47
4/12/2021 3:45:00 AM 12.82 55.076 0.293 7.55 67.58 8.45
4/12/2021 4:00:00 AM 12.81 55.058 0.315 7.56 61.34 8.44
4/12/2021 4:15:00 AM 12.81 55.058 0.335 7.57 63.81 8.44
4/12/2021 4:30:00 AM 12.8 55.04 0.354 7.58 51.64 8.44
4/12/2021 4:45:00 AM 12.8 55.04 0.374 7.58 48.95 8.44
4/12/2021 5:00:00 AM 12.8 55.04 0.394 7.59 48.73 8.42
4/12/2021 5:15:00 AM 12.8 55.04 0.413 7.6 45.85 8.43
4/12/2021 5:30:00 AM 12.79 55.022 0.43 7.61 41.85 8.44
4/12/2021 5:45:00 AM 12.78 55.004 0.447 7.61 39.09 8.45
4/12/2021 6:00:00 AM 12.76 54.968 0.461 7.62 38.26 8.45
4/12/2021 6:15:00 AM 12.75 54.95 0.475 7.63 34.35 8.47
4/12/2021 6:30:00 AM 12.73 54.914 0.489 7.64 34.36 8.47
4/12/2021 6:45:00 AM 12.73 54.914 0.501 7.64 34.15 8.48
4/12/2021 7:00:00 AM 12.72 54.896 0.512 7.65 31.41 8.49
4/12/2021 7:15:00 AM 12.71 54.878 0.522 7.65 29.9 8.51
4/12/2021 7:30:00 AM 12.69 54.842 0.53 7.66 28.02 8.53
4/12/2021 7:45:00 AM 12.68 54.824 0.538 7.67 27.54 8.55
4/12/2021 8:00:00 AM 12.67 54.806 0.545 7.67 29.02 8.57
4/12/2021 8:15:00 AM 12.67 54.806 0.553 7.68 25.46 8.6
4/12/2021 8:30:00 AM 12.67 54.806 0.56 7.68 24.35 8.63
4/12/2021 8:45:00 AM 12.66 54.788 0.568 7.69 20.12 8.65
4/12/2021 9:00:00 AM 12.67 54.806 0.576 7.7 21.68 8.69
4/12/2021 9:15:00 AM 12.67 54.806 0.584 7.7 21.05 8.71
4/12/2021 9:30:00 AM 12.69 54.842 0.594 7.71 20.26 8.76
4/12/2021 9:45:00 AM 12.71 54.878 0.605 7.72 18.81 8.8
4/12/2021 10:00:00 AM 12.74 54.932 0.616 7.72 18.64 8.82
4/12/2021 10:15:00 AM 12.76 54.968 0.624 7.73 16.9 8.88
4/12/2021 10:30:00 AM 12.79 55.022 0.63 7.73 17.43 8.92
4/12/2021 10:45:00 AM 12.8 55.04 0.636 7.74 16.69 8.94
4/12/2021 11:00:00 AM 12.82 55.076 0.642 7.74 16.13 8.99
4/12/2021 11:15:00 AM 12.84 55.112 0.645 7.75 15.28 9.02
4/12/2021 11:30:00 AM 12.87 55.166 0.647 7.76 14.48 9.12
4/12/2021 11:45:00 AM 12.9 55.22 0.649 7.77 14.97 9.16
4/12/2021 12:00:00 PM 12.92 55.256 0.653 7.78 14.6 9.2
4/12/2021 12:15:00 PM 12.95 55.31 0.656 7.78 13.6 9.23
4/12/2021 12:30:00 PM 12.96 55.328 0.659 7.78 13.63 9.23
4/12/2021 12:45:00 PM 12.96 55.328 0.661 7.79 13.42 9.26
4/12/2021 1:00:00 PM 12.99 55.382 0.664 7.8 12.85 9.34
4/12/2021 1:15:00 PM 13.02 55.436 0.669 7.81 12.78 9.39
4/12/2021 1:30:00 PM 13.09 55.562 0.673 7.82 12.41 9.5
4/12/2021 1:45:00 PM 13.17 55.706 0.676 7.82 12.16 9.55
4/12/2021 2:00:00 PM 13.24 55.832 0.677 7.83 11.62 9.56
4/12/2021 2:15:00 PM 13.24 55.832 0.679 7.83 11.42 9.51
4/12/2021 2:30:00 PM 13.26 55.868 0.681 7.83 11.19 9.56
4/12/2021 2:45:00 PM 13.28 55.904 0.683 7.84 11.19 9.58
4/12/2021 3:00:00 PM 13.29 55.922 0.685 7.84 10.28 9.55
4/12/2021 3:15:00 PM 13.29 55.922 0.685 7.84 10.39 9.53
4/12/2021 3:30:00 PM 13.29 55.922 0.684 7.84 10.15 9.53
4/12/2021 3:45:00 PM 13.3 55.94 0.683 7.85 10.33 9.57
4/12/2021 4:00:00 PM 13.31 55.958 0.683 7.85 10.12 9.56
4/12/2021 4:15:00 PM 13.3 55.94 0.685 7.85 10.06 9.54
4/12/2021 4:30:00 PM 13.29 55.922 0.685 7.85 9.74 9.52
4/12/2021 4:45:00 PM 13.28 55.904 0.685 7.85 9.71 9.5
4/12/2021 5:00:00 PM 13.27 55.886 0.686 7.85 9.83 9.48
4/12/2021 5:15:00 PM 13.26 55.868 0.687 7.85 9.46 9.44
4/12/2021 5:30:00 PM 13.23 55.814 0.687 7.85 9.62 9.41
4/12/2021 5:45:00 PM 13.21 55.778 0.688 7.84 9.38 9.36
4/12/2021 6:00:00 PM 13.18 55.724 0.69 7.84 9.32 9.31
4/12/2021 6:15:00 PM 13.16 55.688 0.693 7.84 9.4 9.27
4/12/2021 6:30:00 PM 13.13 55.634 0.695 7.84 9.32 9.25
4/12/2021 6:45:00 PM 13.09 55.562 0.695 7.83 9.16 9.21
4/12/2021 7:00:00 PM 13.05 55.49 0.696 7.83 9.16 9.16
4/12/2021 7:15:00 PM 13.01 55.418 0.697 7.83 8.98 9.13
4/12/2021 7:30:00 PM 12.97 55.346 0.699 7.83 9.2 9.09
4/12/2021 7:45:00 PM 12.94 55.292 0.702 7.82 8.75 9.05
4/12/2021 8:00:00 PM 12.9 55.22 0.706 7.82 9.2 9.02
4/12/2021 8:15:00 PM 12.86 55.148 0.709 7.81 9.5 8.99
4/12/2021 8:30:00 PM 12.82 55.076 0.711 7.81 10.33 8.96
4/12/2021 8:45:00 PM 12.79 55.022 0.714 7.81 9.87 8.94
4/12/2021 9:00:00 PM 12.75 54.95 0.716 7.8 9.24 8.92
4/12/2021 9:15:00 PM 12.72 54.896 0.718 7.8 9.68 8.91
4/12/2021 9:30:00 PM 12.69 54.842 0.72 7.8 10.44 8.9
4/12/2021 9:45:00 PM 12.66 54.788 0.721 7.8 9.7 8.88
4/12/2021 10:00:00 PM 12.63 54.734 0.723 7.8 10.32 8.88
4/12/2021 10:15:00 PM 12.61 54.698 0.726 7.8 9.95 8.88
4/12/2021 10:30:00 PM 12.58 54.644 0.727 7.8 9.64 8.87
4/12/2021 10:45:00 PM 12.56 54.608 0.728 7.8 9.18 8.87
4/12/2021 11:00:00 PM 12.54 54.572 0.729 7.8 9.63 8.87
4/12/2021 11:15:00 PM 12.52 54.536 0.73 7.8 9.53 8.87
4/12/2021 11:30:00 PM 12.5 54.5 0.732 7.8 9.16 8.87
4/12/2021 11:45:00 PM 12.48 54.464 0.733 7.8 9.34 8.87
4/13/2021 12:00:00 AM 12.47 54.446 0.734 7.8 9.32 8.89
4/13/2021 12:15:00 AM 12.45 54.41 0.734 7.8 8.98 8.89
4/13/2021 12:30:00 AM 12.43 54.374 0.733 7.8 9.62 8.89
4/13/2021 12:45:00 AM 12.42 54.356 0.732 7.8 10.11 8.9
4/13/2021 1:00:00 AM 12.4 54.32 0.73 7.8 9.18 8.9
4/13/2021 1:15:00 AM 12.38 54.284 0.729 7.8 8.86 8.91
4/13/2021 1:30:00 AM 12.36 54.248 0.727 7.8 9.09 8.92
4/13/2021 1:45:00 AM 12.35 54.23 0.725 7.8 9.49 8.92
4/13/2021 2:00:00 AM 12.33 54.194 0.723 7.81 9.06 8.93
4/13/2021 2:15:00 AM 12.31 54.158 0.72 7.81 9.66 8.93
4/13/2021 2:30:00 AM 12.3 54.14 0.719 7.81 9.11 8.93
4/13/2021 2:45:00 AM 12.28 54.104 0.717 7.81 9.23 8.95
4/13/2021 3:00:00 AM 12.26 54.068 0.714 7.81 9.3 8.95
4/13/2021 3:15:00 AM 12.25 54.05 0.711 7.81 9.29 8.96
4/13/2021 3:30:00 AM 12.23 54.014 0.707 7.81 8.98 8.96
4/13/2021 3:45:00 AM 12.22 53.996 0.704 7.81 9.23 8.97
4/13/2021 4:00:00 AM 12.2 53.96 0.701 7.81 9.07 8.99
4/13/2021 4:15:00 AM 12.19 53.942 0.699 7.82 8.75 8.99
4/13/2021 4:30:00 AM 12.17 53.906 0.695 7.82 9.22 9
4/13/2021 4:45:00 AM 12.16 53.888 0.693 7.82 9.35 9
4/13/2021 5:00:00 AM 12.15 53.87 0.692 7.82 9.2 9.01
4/13/2021 5:15:00 AM 12.14 53.852 0.691 7.82 8.94 9.02
4/13/2021 5:30:00 AM 12.13 53.834 0.687 7.82 9.99 9.01
4/13/2021 5:45:00 AM 12.12 53.816 0.686 7.82 8.61 9.02
4/13/2021 6:00:00 AM 12.11 53.798 0.686 7.82 8.88 9.03
4/13/2021 6:15:00 AM 12.11 53.798 0.686 7.82 7.99 9.03
4/13/2021 6:30:00 AM 12.11 53.798 0.687 7.82 8.45 9.03
4/13/2021 6:45:00 AM 12.1 53.78 0.689 7.82 7.73 9.03
4/13/2021 7:00:00 AM 12.1 53.78 0.69 7.82 7.89 9.05
4/13/2021 7:15:00 AM 12.1 53.78 0.691 7.83 7.66 9.08
4/13/2021 7:30:00 AM 12.1 53.78 0.692 7.83 7.8 9.11
4/13/2021 7:45:00 AM 12.1 53.78 0.693 7.83 7.72 9.15
4/13/2021 8:00:00 AM 12.11 53.798 0.693 7.84 7.63 9.2
4/13/2021 8:15:00 AM 12.13 53.834 0.692 7.84 7.09 9.25
4/13/2021 8:30:00 AM 12.15 53.87 0.692 7.85 7.5 9.32
4/13/2021 8:45:00 AM 12.17 53.906 0.692 7.85 7.3 9.4
4/13/2021 9:00:00 AM 12.21 53.978 0.692 7.86 7.58 9.51
4/13/2021 9:15:00 AM 12.26 54.068 0.694 7.87 7.11 9.59
4/13/2021 9:30:00 AM 12.3 54.14 0.696 7.88 7.22 9.64
4/13/2021 9:45:00 AM 12.35 54.23 0.699 7.88 7.11 9.68
4/13/2021 10:00:00 AM 12.43 54.374 0.703 7.89 7.2 9.79
4/13/2021 10:15:00 AM 12.52 54.536 0.709 7.9 7.22 9.91
4/13/2021 10:30:00 AM 12.63 54.734 0.713 7.91 7.35 9.98
4/13/2021 10:45:00 AM 12.77 54.986 0.718 7.92 7.39 10.09
4/13/2021 11:00:00 AM 12.96 55.328 0.725 7.93 7.14 10.21
4/13/2021 11:15:00 AM 13.17 55.706 0.731 7.94 7.47 10.28
4/13/2021 11:30:00 AM 13.38 56.084 0.736 7.95 7.75 10.29
4/13/2021 11:45:00 AM 13.55 56.39 0.737 7.95 6.94 10.27
4/13/2021 12:00:00 PM 13.68 56.624 0.737 7.95 7.37 10.23
4/13/2021 12:15:00 PM 13.83 56.894 0.737 7.96 7.01 10.32
4/13/2021 12:30:00 PM 14.06 57.308 0.738 7.97 6.9 10.39
4/13/2021 12:45:00 PM 14.23 57.614 0.738 7.98 7.37 10.38
4/13/2021 1:00:00 PM 14.53 58.154 0.737 7.99 6.89 10.52
4/13/2021 1:15:00 PM 14.75 58.55 0.736 8 6.74 10.54
4/13/2021 1:30:00 PM 14.95 58.91 0.736 8.01 6.56 10.54
4/13/2021 1:45:00 PM 15.07 59.126 0.736 8 7.13 10.45
4/13/2021 2:00:00 PM 15.24 59.432 0.736 8.01 6.6 10.47
4/13/2021 2:15:00 PM 15.33 59.594 0.735 8.01 6.49 10.36
4/13/2021 2:30:00 PM 15.38 59.684 0.731 8.01 6.99 10.28
4/13/2021 2:45:00 PM 15.33 59.594 0.728 8 6.89 10.18
4/13/2021 3:00:00 PM 15.24 59.432 0.726 7.99 6.71 10.02
4/13/2021 3:15:00 PM 15.19 59.342 0.727 7.99 7.13 10.01
4/13/2021 3:30:00 PM 15.19 59.342 0.726 7.99 6.86 9.98
4/13/2021 3:45:00 PM 15.21 59.378 0.727 7.98 6.33 9.9
4/13/2021 4:00:00 PM 15.26 59.468 0.727 7.98 6.26 9.83
4/13/2021 4:15:00 PM 15.34 59.612 0.728 7.98 6.46 9.9
4/13/2021 4:30:00 PM 15.42 59.756 0.728 7.98 6.18 9.83
4/13/2021 4:45:00 PM 15.49 59.882 0.729 7.98 6.18 9.88
4/13/2021 5:00:00 PM 15.5 59.9 0.728 7.98 6.59 9.85
4/13/2021 5:15:00 PM 15.49 59.882 0.726 7.98 6.51 9.77
4/13/2021 5:30:00 PM 15.41 59.738 0.725 7.96 6.38 9.53
4/13/2021 5:45:00 PM 15.35 59.63 0.725 7.95 6.26 9.47
4/13/2021 6:00:00 PM 15.26 59.468 0.725 7.95 6.59 9.45
4/13/2021 6:15:00 PM 15.21 59.378 0.725 7.94 6.95 9.38
4/13/2021 6:30:00 PM 15.18 59.324 0.725 7.93 6.46 9.33
4/13/2021 6:45:00 PM 15.15 59.27 0.724 7.93 6.77 9.28
4/13/2021 7:00:00 PM 15.1 59.18 0.724 7.92 6.57 9.22
4/13/2021 7:15:00 PM 15.01 59.018 0.725 7.91 6.74 9.15
4/13/2021 7:30:00 PM 14.91 58.838 0.726 7.91 6.67 9.08
4/13/2021 7:45:00 PM 14.8 58.64 0.727 7.9 6.65 9.04
4/13/2021 8:00:00 PM 14.71 58.478 0.728 7.89 7.54 8.98
4/13/2021 8:15:00 PM 14.61 58.298 0.727 7.88 7.47 8.94
4/13/2021 8:30:00 PM 14.52 58.136 0.728 7.88 7.39 8.9
4/13/2021 8:45:00 PM 14.43 57.974 0.729 7.87 7.22 8.86
4/13/2021 9:00:00 PM 14.33 57.794 0.73 7.86 8.03 8.81
4/13/2021 9:15:00 PM 14.22 57.596 0.732 7.86 8.08 8.77
4/13/2021 9:30:00 PM 14.12 57.416 0.733 7.85 7.93 8.74
4/13/2021 9:45:00 PM 14.01 57.218 0.734 7.84 8.04 8.71
4/13/2021 10:00:00 PM 13.91 57.038 0.735 7.84 6.53 8.69
4/13/2021 10:15:00 PM 13.81 56.858 0.736 7.83 8.61 8.67
4/13/2021 10:30:00 PM 13.72 56.696 0.736 7.83 15.4 8.66
4/13/2021 10:45:00 PM 13.62 56.516 0.737 7.83 8.26 8.66
4/13/2021 11:00:00 PM 13.53 56.354 0.737 7.82 13.64 8.67
4/13/2021 11:15:00 PM 13.44 56.192 0.737 7.82 8.03 8.67
4/13/2021 11:30:00 PM 13.36 56.048 0.738 7.82 7.95 8.68
4/13/2021 11:45:00 PM 13.28 55.904 0.74 7.82 8.28 8.68
4/14/2021 12:00:00 AM 13.21 55.778 0.743 7.81 8.11 8.69
4/14/2021 12:15:00 AM 13.14 55.652 0.745 7.81 7.66 8.71
4/14/2021 12:30:00 AM 13.08 55.544 0.745 7.81 7.82 8.72
4/14/2021 12:45:00 AM 13.01 55.418 0.744 7.81 8.12 8.74
4/14/2021 1:00:00 AM 12.94 55.292 0.743 7.81 8.11 8.76
4/14/2021 1:15:00 AM 12.88 55.184 0.741 7.81 7.84 8.76
4/14/2021 1:30:00 AM 12.81 55.058 0.739 7.81 7.96 8.78
4/14/2021 1:45:00 AM 12.74 54.932 0.737 7.81 7.88 8.8
4/14/2021 2:00:00 AM 12.67 54.806 0.735 7.82 7.71 8.82
4/14/2021 2:15:00 AM 12.6 54.68 0.732 7.82 7.93 8.84
4/14/2021 2:30:00 AM 12.54 54.572 0.728 7.82 8.21 8.85
4/14/2021 2:45:00 AM 12.47 54.446 0.724 7.82 8.16 8.88
4/14/2021 3:00:00 AM 12.41 54.338 0.721 7.82 7.94 8.88
4/14/2021 3:15:00 AM 12.35 54.23 0.717 7.83 8.04 8.92
4/14/2021 3:30:00 AM 12.29 54.122 0.714 7.83 7.7 8.93
4/14/2021 3:45:00 AM 12.23 54.014 0.711 7.83 8.31 8.95
4/14/2021 4:00:00 AM 12.18 53.924 0.71 7.83 8.43 8.95
4/14/2021 4:15:00 AM 12.13 53.834 0.708 7.83 8.03 8.98
4/14/2021 4:30:00 AM 12.08 53.744 0.706 7.83 8.35 8.99
4/14/2021 4:45:00 AM 12.03 53.654 0.704 7.84 8.21 9.01
4/14/2021 5:00:00 AM 11.98 53.564 0.704 7.84 8.15 9.02
4/14/2021 5:15:00 AM 11.93 53.474 0.703 7.84 8.05 9.04
4/14/2021 5:30:00 AM 11.89 53.402 0.703 7.84 8.76 9.06
4/14/2021 5:45:00 AM 11.85 53.33 0.703 7.84 8.13 9.07
4/14/2021 6:00:00 AM 11.82 53.276 0.704 7.84 7.95 9.08
4/14/2021 6:15:00 AM 11.8 53.24 0.704 7.84 7.83 9.09
4/14/2021 6:30:00 AM 11.78 53.204 0.705 7.84 8.4 9.1
4/14/2021 6:45:00 AM 11.77 53.186 0.705 7.84 7.99 9.12
4/14/2021 7:00:00 AM 11.76 53.168 0.707 7.84 7.74 9.15
4/14/2021 7:15:00 AM 11.76 53.168 0.709 7.85 8.03 9.19
4/14/2021 7:30:00 AM 11.77 53.186 0.711 7.85 7.53 9.23
4/14/2021 7:45:00 AM 11.78 53.204 0.712 7.85 7.62 9.27
4/14/2021 8:00:00 AM 11.8 53.24 0.713 7.86 8.03 9.34
4/14/2021 8:15:00 AM 11.84 53.312 0.715 7.86 7.07 9.43
4/14/2021 8:30:00 AM 11.89 53.402 0.715 7.87 7.3 9.45
4/14/2021 8:45:00 AM 11.95 53.51 0.714 7.88 7.18 9.54
4/14/2021 9:00:00 AM 12 53.6 0.714 7.88 7.7 9.6
4/14/2021 9:15:00 AM 12.07 53.726 0.715 7.89 7.53 9.68
4/14/2021 9:30:00 AM 12.18 53.924 0.719 7.9 7.27 9.82
4/14/2021 9:45:00 AM 12.31 54.158 0.722 7.91 7.76 9.91
4/14/2021 10:00:00 AM 12.44 54.392 0.727 7.92 7.25 9.98
4/14/2021 10:15:00 AM 12.57 54.626 0.732 7.93 7.31 10
4/14/2021 10:30:00 AM 12.7 54.86 0.738 7.94 7.14 10.09
4/14/2021 10:45:00 AM 12.87 55.166 0.745 7.95 7.33 10.17
4/14/2021 11:00:00 AM 12.99 55.382 0.752 7.95 6.91 10.15
4/14/2021 11:15:00 AM 13.12 55.616 0.757 7.95 6.58 10.13
4/14/2021 11:30:00 AM 13.2 55.76 0.761 7.95 7.08 10.06
4/14/2021 11:45:00 AM 13.3 55.94 0.763 7.95 7.08 10.07
4/14/2021 12:00:00 PM 13.42 56.156 0.764 7.97 6.62 10.19
4/14/2021 12:15:00 PM 13.54 56.372 0.762 7.97 6.93 10.19
4/14/2021 12:30:00 PM 13.66 56.588 0.76 7.99 6.84 10.25
4/14/2021 12:45:00 PM 13.84 56.912 0.752 8 6.6 10.34
4/14/2021 1:00:00 PM 13.97 57.146 0.749 8.01 6.63 10.3
4/14/2021 1:15:00 PM 14.06 57.308 0.748 8.01 6.55 10.22
4/14/2021 1:30:00 PM 14.12 57.416 0.749 8.01 6.56 10.15
4/14/2021 1:45:00 PM 14.17 57.506 0.751 8 6.37 10.06
4/14/2021 2:00:00 PM 14.2 57.56 0.755 8 6.15 10.01
4/14/2021 2:15:00 PM 14.26 57.668 0.757 8 6.05 10.05
4/14/2021 2:30:00 PM 14.34 57.812 0.757 8.01 6.18 10.13
4/14/2021 2:45:00 PM 14.41 57.938 0.755 8.01 6.58 10.09
4/14/2021 3:00:00 PM 14.46 58.028 0.754 8 6.35 9.97
4/14/2021 3:15:00 PM 14.51 58.118 0.753 8.01 6.25 9.98
4/14/2021 3:30:00 PM 14.54 58.172 0.752 8 6.39 9.92
4/14/2021 3:45:00 PM 14.56 58.208 0.753 7.99 6.17 9.81
4/14/2021 4:00:00 PM 14.56 58.208 0.754 7.99 6.09 9.75
4/14/2021 4:15:00 PM 14.56 58.208 0.754 7.99 6.12 9.69
4/14/2021 4:30:00 PM 14.54 58.172 0.756 7.98 6.56 9.62
4/14/2021 4:45:00 PM 14.55 58.19 0.757 7.98 6.33 9.64
4/14/2021 5:00:00 PM 14.57 58.226 0.756 7.99 6.5 9.69
4/14/2021 5:15:00 PM 14.58 58.244 0.756 7.99 6.39 9.66
4/14/2021 5:30:00 PM 14.59 58.262 0.756 7.98 6.54 9.62
4/14/2021 5:45:00 PM 14.58 58.244 0.755 7.97 6.54 9.54
4/14/2021 6:00:00 PM 14.55 58.19 0.754 7.97 6.51 9.45
4/14/2021 6:15:00 PM 14.51 58.118 0.752 7.96 6.77 9.39
4/14/2021 6:30:00 PM 14.47 58.046 0.751 7.96 6.47 9.35
4/14/2021 6:45:00 PM 14.43 57.974 0.75 7.95 6.83 9.3
4/14/2021 7:00:00 PM 14.38 57.884 0.749 7.95 6.68 9.25
4/14/2021 7:15:00 PM 14.34 57.812 0.75 7.94 6.61 9.19
4/14/2021 7:30:00 PM 14.29 57.722 0.751 7.93 6.4 9.13
4/14/2021 7:45:00 PM 14.25 57.65 0.752 7.92 6.39 9.07
4/14/2021 8:00:00 PM 14.21 57.578 0.754 7.92 6.6 9.03
4/14/2021 8:15:00 PM 14.15 57.47 0.756 7.91 8.82 8.98
4/14/2021 8:30:00 PM 14.1 57.38 0.758 7.9 7.43 8.95
4/14/2021 8:45:00 PM 14.04 57.272 0.761 7.9 7.34 8.9
4/14/2021 9:00:00 PM 13.97 57.146 0.763 7.89 7.74 8.85
4/14/2021 9:15:00 PM 13.92 57.056 0.765 7.88 7.71 8.81
4/14/2021 9:30:00 PM 13.86 56.948 0.766 7.88 7.67 8.78
4/14/2021 9:45:00 PM 13.79 56.822 0.768 7.87 7.74 8.74
4/14/2021 10:00:00 PM 13.73 56.714 0.77 7.87 7.66 8.71
4/14/2021 10:15:00 PM 13.66 56.588 0.771 7.86 8.22 8.7
4/14/2021 10:30:00 PM 13.6 56.48 0.773 7.86 8.03 8.68
4/14/2021 10:45:00 PM 13.53 56.354 0.775 7.86 7.7 8.68
4/14/2021 11:00:00 PM 13.47 56.246 0.779 7.85 7.92 8.66
4/14/2021 11:15:00 PM 13.43 56.174 0.784 7.85 8.15 8.66
4/14/2021 11:30:00 PM 13.37 56.066 0.788 7.85 7.72 8.65
4/14/2021 11:45:00 PM 13.32 55.976 0.79 7.85 7.68 8.66
4/15/2021 12:00:00 AM 13.26 55.868 0.791 7.85 7.9 8.66
4/15/2021 12:15:00 AM 13.2 55.76 0.792 7.84 8 8.66
4/15/2021 12:30:00 AM 13.14 55.652 0.793 7.84 7.99 8.67
4/15/2021 12:45:00 AM 13.09 55.562 0.794 7.84 8.09 8.67
4/15/2021 1:00:00 AM 13.04 55.472 0.795 7.84 8.4 8.68
4/15/2021 1:15:00 AM 13 55.4 0.794 7.84 8.3 8.68
4/15/2021 1:30:00 AM 12.97 55.346 0.793 7.84 8.11 8.69
4/15/2021 1:45:00 AM 12.93 55.274 0.79 7.84 8.02 8.7
4/15/2021 2:00:00 AM 12.88 55.184 0.787 7.85 8.03 8.71
4/15/2021 2:15:00 AM 12.84 55.112 0.784 7.85 8.2 8.72
4/15/2021 2:30:00 AM 12.79 55.022 0.78 7.85 7.97 8.73
4/15/2021 2:45:00 AM 12.74 54.932 0.777 7.85 7.85 8.74
4/15/2021 3:00:00 AM 12.69 54.842 0.774 7.85 8.55 8.76
4/15/2021 3:15:00 AM 12.64 54.752 0.769 7.85 8.31 8.77
4/15/2021 3:30:00 AM 12.61 54.698 0.765 7.85 8.16 8.79
4/15/2021 3:45:00 AM 12.58 54.644 0.762 7.85 7.79 8.79
4/15/2021 4:00:00 AM 12.56 54.608 0.759 7.85 8.6 8.81
4/15/2021 4:15:00 AM 12.53 54.554 0.756 7.86 8.21 8.81
4/15/2021 4:30:00 AM 12.5 54.5 0.753 7.86 8.4 8.83
4/15/2021 4:45:00 AM 12.48 54.464 0.75 7.86 8.38 8.84
4/15/2021 5:00:00 AM 12.46 54.428 0.748 7.86 8.52 8.85
4/15/2021 5:15:00 AM 12.45 54.41 0.746 7.86 8.71 8.84
4/15/2021 5:30:00 AM 12.44 54.392 0.744 7.86 8.71 8.85
4/15/2021 5:45:00 AM 12.43 54.374 0.742 7.86 8.76 8.86
4/15/2021 6:00:00 AM 12.43 54.374 0.74 7.86 8.1 8.86
4/15/2021 6:15:00 AM 12.43 54.374 0.74 7.86 8.12 8.87
4/15/2021 6:30:00 AM 12.43 54.374 0.74 7.86 7.87 8.87
4/15/2021 6:45:00 AM 12.44 54.392 0.742 7.86 8.28 8.87
4/15/2021 7:00:00 AM 12.45 54.41 0.743 7.86 7.89 8.87
4/15/2021 7:15:00 AM 12.46 54.428 0.745 7.86 8.16 8.89
4/15/2021 7:30:00 AM 12.48 54.464 0.746 7.87 8.07 8.93
4/15/2021 7:45:00 AM 12.5 54.5 0.747 7.87 7.67 8.97
4/15/2021 8:00:00 AM 12.53 54.554 0.749 7.87 8.1 8.99
4/15/2021 8:15:00 AM 12.56 54.608 0.75 7.88 7.92 9.02
4/15/2021 8:30:00 AM 12.6 54.68 0.75 7.88 7.28 9.1
4/15/2021 8:45:00 AM 12.63 54.734 0.751 7.89 7.62 9.17
4/15/2021 9:00:00 AM 12.69 54.842 0.752 7.9 7.61 9.26
4/15/2021 9:15:00 AM 12.75 54.95 0.752 7.91 7.67 9.39
4/15/2021 9:30:00 AM 12.8 55.04 0.753 7.91 7.73 9.37
4/15/2021 9:45:00 AM 12.85 55.13 0.755 7.91 7.44 9.41
4/15/2021 10:00:00 AM 12.91 55.238 0.758 7.92 7.72 9.47
4/15/2021 10:15:00 AM 12.98 55.364 0.764 7.92 7.65 9.51
4/15/2021 10:30:00 AM 13.05 55.49 0.771 7.92 7.42 9.52
4/15/2021 10:45:00 AM 13.11 55.598 0.779 7.92 7.45 9.47
4/15/2021 11:00:00 AM 13.19 55.742 0.788 7.93 7.79 9.62
4/15/2021 11:15:00 AM 13.3 55.94 0.797 7.94 7.74 9.73
4/15/2021 11:30:00 AM 13.42 56.156 0.806 7.95 7.54 9.82
4/15/2021 11:45:00 AM 13.64 56.552 0.813 7.97 7.67 10.01
4/15/2021 12:00:00 PM 13.83 56.894 0.816 7.98 7.64 10.1
4/15/2021 12:15:00 PM 14.1 57.38 0.815 7.99 7.37 10.22
4/15/2021 12:30:00 PM 14.31 57.758 0.816 8 7.25 10.26
4/15/2021 12:45:00 PM 14.44 57.992 0.817 8 7.44 10.16
4/15/2021 1:00:00 PM 14.6 58.28 0.818 8.01 7.54 10.24
4/15/2021 1:15:00 PM 14.71 58.478 0.82 8.02 7.12 10.28
4/15/2021 1:30:00 PM 14.96 58.928 0.82 8.04 7.3 10.41
4/15/2021 1:45:00 PM 15.14 59.252 0.819 8.05 7.1 10.45
4/15/2021 2:00:00 PM 15.29 59.522 0.816 8.05 7.09 10.36
4/15/2021 2:15:00 PM 15.3 59.54 0.814 8.03 7.23 10.11
4/15/2021 2:30:00 PM 15.32 59.576 0.811 8.03 6.99 10.04
4/15/2021 2:45:00 PM 15.38 59.684 0.808 8.05 7.46 10.22
4/15/2021 3:00:00 PM 15.45 59.81 0.804 8.06 7.23 10.24
4/15/2021 3:15:00 PM 15.52 59.936 0.799 8.06 7.12 10.24
4/15/2021 3:30:00 PM 15.57 60.026 0.795 8.07 7.13 10.25
4/15/2021 3:45:00 PM 15.58 60.044 0.791 8.07 7.14 10.2
4/15/2021 4:00:00 PM 15.66 60.188 0.789 8.07 7.19 10.22
4/15/2021 4:15:00 PM 15.69 60.242 0.787 8.07 7.08 10.16
4/15/2021 4:30:00 PM 15.68 60.224 0.788 8.06 7.15 10.03
4/15/2021 4:45:00 PM 15.63 60.134 0.789 8.06 7.56 9.94
4/15/2021 5:00:00 PM 15.55 59.99 0.791 8.05 7.42 9.9
4/15/2021 5:15:00 PM 15.46 59.828 0.792 8.05 7.34 9.8
4/15/2021 5:30:00 PM 15.39 59.702 0.792 8.04 7.21 9.7
4/15/2021 5:45:00 PM 15.38 59.684 0.79 8.04 7.65 9.74
4/15/2021 6:00:00 PM 15.34 59.612 0.79 8.03 7.86 9.65
4/15/2021 6:15:00 PM 15.31 59.558 0.791 8.03 7.67 9.55
4/15/2021 6:30:00 PM 15.25 59.45 0.797 8.02 7.95 9.5
4/15/2021 6:45:00 PM 15.13 59.234 0.805 8.01 7.3 9.38
4/15/2021 7:00:00 PM 15 59 0.811 7.99 7.67 9.28
4/15/2021 7:15:00 PM 14.85 58.73 0.817 7.98 7.54 9.17
4/15/2021 7:30:00 PM 14.7 58.46 0.822 7.97 7.79 9.09
4/15/2021 7:45:00 PM 14.55 58.19 0.827 7.96 7.84 9
4/15/2021 8:00:00 PM 14.43 57.974 0.831 7.95 7.91 8.94
4/15/2021 8:15:00 PM 14.31 57.758 0.834 7.94 7.88 8.88
4/15/2021 8:30:00 PM 14.2 57.56 0.835 7.94 8.52 8.84
4/15/2021 8:45:00 PM 14.09 57.362 0.837 7.93 8.91 8.79
4/15/2021 9:00:00 PM 13.97 57.146 0.838 7.92 8.76 8.76
4/15/2021 9:15:00 PM 13.83 56.894 0.839 7.92 8.55 8.72
4/15/2021 9:30:00 PM 13.68 56.624 0.839 7.91 8.63 8.69
4/15/2021 9:45:00 PM 13.54 56.372 0.839 7.9 9.05 8.67
4/15/2021 10:00:00 PM 13.41 56.138 0.841 7.9 9.14 8.64
4/15/2021 10:15:00 PM 13.29 55.922 0.844 7.89 8.73 8.62
4/15/2021 10:30:00 PM 13.19 55.742 0.842 7.89 9.41 8.62
4/15/2021 10:45:00 PM 13.08 55.544 0.835 7.89 8.85 8.61
4/15/2021 11:00:00 PM 12.96 55.328 0.829 7.89 9.84 8.62
4/15/2021 11:15:00 PM 12.84 55.112 0.826 7.89 9.91 8.64
4/15/2021 11:30:00 PM 12.72 54.896 0.826 7.88 9.04 8.65
4/15/2021 11:45:00 PM 12.61 54.698 0.825 7.88 8.65 8.67
4/16/2021 12:00:00 AM 12.51 54.518 0.825 7.88 9.02 8.7
4/16/2021 12:15:00 AM 12.42 54.356 0.824 7.88 8.88 8.71
4/16/2021 12:30:00 AM 12.33 54.194 0.825 7.88 9.06 8.73
4/16/2021 12:45:00 AM 12.26 54.068 0.825 7.88 8.85 8.73
4/16/2021 1:00:00 AM 12.18 53.924 0.824 7.88 8.82 8.76
4/16/2021 1:15:00 AM 12.11 53.798 0.822 7.88 9.25 8.78
4/16/2021 1:30:00 AM 12.03 53.654 0.821 7.88 9.73 8.79
4/16/2021 1:45:00 AM 11.96 53.528 0.82 7.88 9.35 8.82
4/16/2021 2:00:00 AM 11.89 53.402 0.818 7.88 9.29 8.84
4/16/2021 2:15:00 AM 11.81 53.258 0.816 7.89 9.03 8.85
4/16/2021 2:30:00 AM 11.73 53.114 0.812 7.89 9.34 8.88
4/16/2021 2:45:00 AM 11.66 52.988 0.808 7.89 9.42 8.9
4/16/2021 3:00:00 AM 11.59 52.862 0.804 7.89 9.36 8.93
4/16/2021 3:15:00 AM 11.52 52.736 0.8 7.89 10.35 8.95
4/16/2021 3:30:00 AM 11.45 52.61 0.796 7.9 10.65 8.97
4/16/2021 3:45:00 AM 11.4 52.52 0.793 7.9 9.97 8.99
4/16/2021 4:00:00 AM 11.35 52.43 0.788 7.9 9.63 9.01
4/16/2021 4:15:00 AM 11.31 52.358 0.783 7.9 9.89 9.02
4/16/2021 4:30:00 AM 11.27 52.286 0.779 7.9 10.18 9.03
4/16/2021 4:45:00 AM 11.24 52.232 0.774 7.9 10.45 9.06
4/16/2021 5:00:00 AM 11.21 52.178 0.77 7.91 9.76 9.08
4/16/2021 5:15:00 AM 11.18 52.124 0.768 7.91 10.12 9.09
4/16/2021 5:30:00 AM 11.16 52.088 0.764 7.91 9.81 9.12
4/16/2021 5:45:00 AM 11.12 52.016 0.76 7.91 9.28 9.12
4/16/2021 6:00:00 AM 11.09 51.962 0.755 7.91 9.48 9.14
4/16/2021 6:15:00 AM 11.06 51.908 0.751 7.91 8.97 9.14
4/16/2021 6:30:00 AM 11.03 51.854 0.749 7.91 8.84 9.17
4/16/2021 6:45:00 AM 11.01 51.818 0.749 7.92 8.68 9.19
4/16/2021 7:00:00 AM 11 51.8 0.751 7.92 8.84 9.22
4/16/2021 7:15:00 AM 10.99 51.782 0.752 7.92 8.77 9.26
4/16/2021 7:30:00 AM 11 51.8 0.754 7.92 8.93 9.29
4/16/2021 7:45:00 AM 11 51.8 0.756 7.93 8.43 9.36
4/16/2021 8:00:00 AM 11.03 51.854 0.756 7.94 8.34 9.48
4/16/2021 8:15:00 AM 11.06 51.908 0.757 7.94 8.17 9.54
4/16/2021 8:30:00 AM 11.11 51.998 0.757 7.95 8.27 9.62
4/16/2021 8:45:00 AM 11.16 52.088 0.756 7.96 8.29 9.73
4/16/2021 9:00:00 AM 11.21 52.178 0.755 7.97 8.16 9.82
4/16/2021 9:15:00 AM 11.27 52.286 0.754 7.97 8.27 9.83
4/16/2021 9:30:00 AM 11.3 52.34 0.756 7.98 8.09 9.87
4/16/2021 9:45:00 AM 11.4 52.52 0.758 7.99 8.3 10.01
4/16/2021 10:00:00 AM 11.55 52.79 0.761 8 8.46 10.18
4/16/2021 10:15:00 AM 11.74 53.132 0.765 8.02 8.3 10.3
4/16/2021 10:30:00 AM 11.92 53.456 0.771 8.02 8.33